Time,TemperatureF,DewpointF,PressureIn,WindDirection,WindDirectionDegrees,WindSpeedMPH,WindSpeedGustMPH,Humidity,HourlyPrecipIn,Conditions,Clouds,dailyrainin,SoftwareType,DateUTC
2013-03-19 00:00:00,68.0,60.2,29.97,NE,37,0.0,0.0,76,0.00,,---,0.00,VWS V14.01,2013-03-19 05:00:00,
2013-03-19 00:01:00,67.8,60.0,29.97,NE,37,0.0,0.0,76,0.00,,---,0.00,VWS V14.01,2013-03-19 05:01:00,
2013-03-19 00:02:00,67.8,60.0,29.97,NE,38,0.0,0.0,76,0.00,,---,0.00,VWS V14.01,2013-03-19 05:02:00,
2013-03-19 00:03:00,68.5,61.4,29.97,NE,53,0.0,0.0,78,0.00,,---,0.00,VWS V14.01,2013-03-19 05:03:00,
2013-03-19 00:04:00,67.8,60.0,29.97,NE,41,0.0,0.0,76,0.00,,---,0.00,VWS V14.01,2013-03-19 05:04:00,
2013-03-19 00:05:00,67.8,60.0,29.97,NE,41,0.0,0.0,76,0.00,,---,0.00,VWS V14.01,2013-03-19 05:05:00,
2013-03-19 00:06:00,68.0,59.8,29.97,NE,41,0.0,0.0,75,0.00,,---,0.00,VWS V14.01,2013-03-19 05:06:00,
2013-03-19 00:07:00,68.0,59.8,29.97,NE,41,0.0,0.0,75,0.00,,---,0.00,VWS V14.01,2013-03-19 05:07:00,
2013-03-19 00:08:00,68.5,61.4,29.97,NE,53,0.0,0.0,78,0.00,,---,0.00,VWS V14.01,2013-03-19 05:08:00,
2013-03-19 00:09:00,68.0,59.8,29.97,NE,41,0.0,0.0,75,0.00,,---,0.00,VWS V14.01,2013-03-19 05:09:00,
2013-03-19 00:10:00,68.0,59.8,29.97,NE,41,0.0,0.0,75,0.00,,---,0.00,VWS V14.01,2013-03-19 05:10:00,
2013-03-19 00:11:00,68.0,59.8,29.97,NE,41,0.0,0.0,75,0.00,,---,0.00,VWS V14.01,2013-03-19 05:11:00,
2013-03-19 00:12:00,68.0,59.8,29.97,NE,41,0.0,0.0,75,0.00,,---,0.00,VWS V14.01,2013-03-19 05:12:00,
2013-03-19 00:13:00,68.4,61.2,29.97,NE,53,0.0,0.0,78,0.00,,---,0.00,VWS V14.01,2013-03-19 05:13:00,
2013-03-19 00:14:00,68.0,59.4,29.97,NE,41,0.0,0.0,74,0.00,,---,0.00,VWS V14.01,2013-03-19 05:14:00,
2013-03-19 00:15:00,68.0,59.4,29.97,NE,41,0.0,0.0,74,0.00,,---,0.00,VWS V14.01,2013-03-19 05:15:00,
2013-03-19 00:16:00,68.0,59.4,29.97,NE,41,0.0,0.0,74,0.00,,---,0.00,VWS V14.01,2013-03-19 05:16:00,
2013-03-19 00:17:00,68.0,59.4,29.97,NE,41,0.0,0.0,74,0.00,,---,0.00,VWS V14.01,2013-03-19 05:17:00,
2013-03-19 00:18:00,68.4,61.2,29.97,NE,53,0.0,0.0,78,0.00,,---,0.00,VWS V14.01,2013-03-19 05:18:00,
2013-03-19 00:19:00,68.0,59.4,29.97,NE,41,0.0,0.0,74,0.00,,---,0.00,VWS V14.01,2013-03-19 05:19:00,
2013-03-19 00:20:00,68.0,59.0,29.97,NE,41,0.0,0.0,73,0.00,,---,0.00,VWS V14.01,2013-03-19 05:20:00,
2013-03-19 00:21:00,68.0,59.0,29.97,NE,41,0.0,0.0,73,0.00,,---,0.00,VWS V14.01,2013-03-19 05:21:00,
2013-03-19 00:22:00,68.0,59.0,29.97,NE,41,0.0,0.0,73,0.00,,---,0.00,VWS V14.01,2013-03-19 05:22:00,
2013-03-19 00:23:00,68.4,61.2,29.97,NE,53,0.0,0.0,78,0.00,,---,0.00,VWS V14.01,2013-03-19 05:23:00,
2013-03-19 00:24:00,68.0,59.0,29.97,NE,41,0.0,0.0,73,0.00,,---,0.00,VWS V14.01,2013-03-19 05:24:00,
2013-03-19 00:25:00,68.0,59.0,29.97,NE,41,0.0,0.0,73,0.00,,---,0.00,VWS V14.01,2013-03-19 05:25:00,
2013-03-19 00:26:00,68.0,58.7,29.97,NE,41,0.0,0.0,72,0.00,,---,0.00,VWS V14.01,2013-03-19 05:26:00,
2013-03-19 00:27:00,68.0,58.7,29.97,NE,41,0.0,0.0,72,0.00,,---,0.00,VWS V14.01,2013-03-19 05:27:00,
2013-03-19 00:28:00,68.4,61.6,29.97,NE,53,0.0,0.0,79,0.00,,---,0.00,VWS V14.01,2013-03-19 05:28:00,
2013-03-19 00:29:00,67.8,58.5,29.97,NE,41,0.0,0.0,72,0.00,,---,0.00,VWS V14.01,2013-03-19 05:29:00,
2013-03-19 00:30:00,67.8,58.5,29.97,NE,41,0.0,0.0,72,0.00,,---,0.00,VWS V14.01,2013-03-19 05:30:00,
2013-03-19 00:31:00,67.8,58.5,29.97,NE,41,0.0,0.0,72,0.00,,---,0.00,VWS V14.01,2013-03-19 05:31:00,
2013-03-19 00:32:00,67.8,58.5,29.97,NE,41,0.0,0.0,72,0.00,,---,0.00,VWS V14.01,2013-03-19 05:32:00,
2013-03-19 00:33:00,68.4,61.6,29.97,NE,53,0.0,0.0,79,0.00,,---,0.00,VWS V14.01,2013-03-19 05:33:00,
2013-03-19 00:34:00,67.8,58.5,29.97,NE,41,0.0,0.0,72,0.00,,---,0.00,VWS V14.01,2013-03-19 05:34:00,
2013-03-19 00:35:00,67.8,58.5,29.97,NE,41,0.0,0.0,72,0.00,,---,0.00,VWS V14.01,2013-03-19 05:35:00,
2013-03-19 00:36:00,67.6,58.3,29.97,NE,41,0.0,0.0,72,0.00,,---,0.00,VWS V14.01,2013-03-19 05:36:00,
2013-03-19 00:37:00,67.6,57.9,29.97,NE,41,0.0,0.0,71,0.00,,---,0.00,VWS V14.01,2013-03-19 05:37:00,
2013-03-19 00:38:00,68.2,61.4,29.97,NE,48,0.0,0.0,79,0.00,,---,0.00,VWS V14.01,2013-03-19 05:38:00,
2013-03-19 00:39:00,67.6,57.9,29.97,NE,41,0.0,0.0,71,0.00,,---,0.00,VWS V14.01,2013-03-19 05:39:00,
2013-03-19 00:40:00,67.6,57.9,29.97,NE,41,0.0,0.0,71,0.00,,---,0.00,VWS V14.01,2013-03-19 05:40:00,
2013-03-19 00:41:00,67.5,57.7,29.97,NE,41,0.0,0.0,71,0.00,,---,0.00,VWS V14.01,2013-03-19 05:41:00,
2013-03-19 00:42:00,67.5,57.7,29.97,NE,41,0.0,0.0,71,0.00,,---,0.00,VWS V14.01,2013-03-19 05:42:00,
2013-03-19 00:43:00,68.2,61.1,29.97,NE,41,0.0,0.0,78,0.00,,---,0.00,VWS V14.01,2013-03-19 05:43:00,
2013-03-19 00:44:00,67.5,57.7,29.97,NE,41,0.0,0.0,71,0.00,,---,0.00,VWS V14.01,2013-03-19 05:44:00,
2013-03-19 00:45:00,67.5,57.7,29.97,NE,41,0.0,0.0,71,0.00,,---,0.00,VWS V14.01,2013-03-19 05:45:00,
2013-03-19 00:46:00,67.5,57.7,29.97,NE,41,0.0,0.0,71,0.00,,---,0.00,VWS V14.01,2013-03-19 05:46:00,
2013-03-19 00:47:00,67.5,57.3,29.97,NE,41,0.0,0.0,70,0.00,,---,0.00,VWS V14.01,2013-03-19 05:47:00,
2013-03-19 00:48:00,68.2,60.7,29.97,NE,44,0.0,0.0,77,0.00,,---,0.00,VWS V14.01,2013-03-19 05:48:00,
2013-03-19 00:49:00,67.3,57.2,29.97,NE,41,0.0,0.0,70,0.00,,---,0.00,VWS V14.01,2013-03-19 05:49:00,
2013-03-19 00:50:00,67.3,57.2,29.97,NE,41,0.0,0.0,70,0.00,,---,0.00,VWS V14.01,2013-03-19 05:50:00,
2013-03-19 00:51:00,67.3,57.2,29.97,NE,41,0.0,0.0,70,0.00,,---,0.00,VWS V14.01,2013-03-19 05:51:00,
2013-03-19 00:52:00,67.3,57.2,29.97,NE,41,0.0,0.0,70,0.00,,---,0.00,VWS V14.01,2013-03-19 05:52:00,
2013-03-19 00:53:00,68.0,60.2,29.97,NE,52,0.0,0.0,76,0.00,,---,0.00,VWS V14.01,2013-03-19 05:53:00,
2013-03-19 00:54:00,67.3,57.2,29.97,NE,41,0.0,0.0,70,0.00,,---,0.00,VWS V14.01,2013-03-19 05:54:00,
2013-03-19 00:55:00,67.3,57.2,29.97,NE,41,0.0,0.0,70,0.00,,---,0.00,VWS V14.01,2013-03-19 05:55:00,
2013-03-19 00:56:00,67.3,57.2,29.97,NE,41,0.0,0.0,70,0.00,,---,0.00,VWS V14.01,2013-03-19 05:56:00,
2013-03-19 00:57:00,67.3,57.2,29.97,NE,41,0.0,0.0,70,0.00,,---,0.00,VWS V14.01,2013-03-19 05:57:00,
2013-03-19 00:58:00,68.0,60.2,29.97,NE,37,0.0,0.0,76,0.00,,---,0.00,VWS V14.01,2013-03-19 05:58:00,
2013-03-19 00:59:00,67.1,57.0,29.97,NE,41,0.0,0.0,70,0.00,,---,0.00,VWS V14.01,2013-03-19 05:59:00,
2013-03-19 01:00:00,67.1,57.0,29.97,NE,41,0.0,0.0,70,0.00,,---,0.00,VWS V14.01,2013-03-19 06:00:00,
2013-03-19 01:01:00,67.1,57.0,30.00,NE,41,0.0,0.0,70,0.00,,---,0.00,VWS V14.01,2013-03-19 06:01:00,
2013-03-19 01:02:00,67.1,57.0,30.00,NE,41,0.0,0.0,70,0.00,,---,0.00,VWS V14.01,2013-03-19 06:02:00,
2013-03-19 01:03:00,67.8,60.0,29.97,NE,38,0.0,0.0,76,0.00,,---,0.00,VWS V14.01,2013-03-19 06:03:00,
2013-03-19 01:04:00,67.1,56.6,30.00,NE,41,0.0,0.0,69,0.00,,---,0.00,VWS V14.01,2013-03-19 06:04:00,
2013-03-19 01:05:00,67.1,56.6,30.00,NE,41,0.0,0.0,69,0.00,,---,0.00,VWS V14.01,2013-03-19 06:05:00,
2013-03-19 01:06:00,67.1,56.6,30.00,NE,41,0.0,0.0,69,0.00,,---,0.00,VWS V14.01,2013-03-19 06:06:00,
2013-03-19 01:07:00,67.1,56.6,30.00,NE,41,0.0,0.0,69,0.00,,---,0.00,VWS V14.01,2013-03-19 06:07:00,
2013-03-19 01:08:00,68.0,59.8,29.97,NE,41,0.0,0.0,75,0.00,,---,0.00,VWS V14.01,2013-03-19 06:08:00,
2013-03-19 01:09:00,67.1,56.6,30.00,ENE,64,0.0,0.0,69,0.00,,---,0.00,VWS V14.01,2013-03-19 06:09:00,
2013-03-19 01:10:00,67.1,56.6,30.00,ENE,64,0.0,0.0,69,0.00,,---,0.00,VWS V14.01,2013-03-19 06:10:00,
2013-03-19 01:11:00,67.1,56.6,30.00,ENE,64,0.0,0.0,69,0.00,,---,0.00,VWS V14.01,2013-03-19 06:11:00,
2013-03-19 01:12:00,67.1,56.6,30.00,ENE,64,0.0,0.0,69,0.00,,---,0.00,VWS V14.01,2013-03-19 06:12:00,
2013-03-19 01:13:00,68.0,59.4,29.97,NE,41,0.0,0.0,74,0.00,,---,0.00,VWS V14.01,2013-03-19 06:13:00,
2013-03-19 01:14:00,66.9,56.4,30.00,ENE,64,0.0,0.0,69,0.00,,---,0.00,VWS V14.01,2013-03-19 06:14:00,
2013-03-19 01:15:00,66.9,56.4,30.00,ENE,64,0.0,0.0,69,0.00,,---,0.00,VWS V14.01,2013-03-19 06:15:00,
2013-03-19 01:16:00,66.9,56.4,30.00,ENE,64,0.0,0.0,69,0.00,,---,0.00,VWS V14.01,2013-03-19 06:16:00,
2013-03-19 01:17:00,66.9,56.4,30.00,ENE,64,0.0,0.0,69,0.00,,---,0.00,VWS V14.01,2013-03-19 06:17:00,
2013-03-19 01:18:00,68.0,59.4,29.97,NE,41,0.0,0.0,74,0.00,,---,0.00,VWS V14.01,2013-03-19 06:18:00,
2013-03-19 01:19:00,66.9,56.4,30.00,ENE,61,0.0,0.0,69,0.00,,---,0.00,VWS V14.01,2013-03-19 06:19:00,
2013-03-19 01:20:00,66.9,56.4,30.00,ENE,61,0.0,0.0,69,0.00,,---,0.00,VWS V14.01,2013-03-19 06:20:00,
2013-03-19 01:21:00,66.9,56.4,30.00,ENE,61,0.0,0.0,69,0.00,,---,0.00,VWS V14.01,2013-03-19 06:21:00,
2013-03-19 01:22:00,66.9,56.4,30.00,ENE,61,0.0,0.0,69,0.00,,---,0.00,VWS V14.01,2013-03-19 06:22:00,
2013-03-19 01:23:00,68.0,59.0,29.97,NE,41,0.0,0.0,73,0.00,,---,0.00,VWS V14.01,2013-03-19 06:23:00,
2013-03-19 01:24:00,66.9,56.4,30.00,ENE,61,0.0,0.0,69,0.00,,---,0.00,VWS V14.01,2013-03-19 06:24:00,
2013-03-19 01:25:00,66.9,56.4,30.00,ESE,113,0.0,0.0,69,0.00,,---,0.00,VWS V14.01,2013-03-19 06:25:00,
2013-03-19 01:26:00,66.9,56.4,30.00,NE,52,0.0,0.0,69,0.00,,---,0.00,VWS V14.01,2013-03-19 06:26:00,
2013-03-19 01:27:00,66.9,56.4,30.00,NE,39,0.0,2.7,69,0.00,,---,0.00,VWS V14.01,2013-03-19 06:27:00,
2013-03-19 01:28:00,67.8,58.5,29.97,NE,41,0.0,0.0,72,0.00,,---,0.00,VWS V14.01,2013-03-19 06:28:00,
2013-03-19 01:29:00,66.9,56.4,30.00,East,81,0.0,0.0,69,0.00,,---,0.00,VWS V14.01,2013-03-19 06:29:00,
2013-03-19 01:30:00,66.9,56.0,30.00,East,81,0.0,0.0,68,0.00,,---,0.00,VWS V14.01,2013-03-19 06:30:00,
2013-03-19 01:31:00,66.9,56.0,29.97,East,81,0.0,0.0,68,0.00,,---,0.00,VWS V14.01,2013-03-19 06:31:00,
2013-03-19 01:32:00,66.9,56.0,29.97,East,81,0.0,0.0,68,0.00,,---,0.00,VWS V14.01,2013-03-19 06:32:00,
2013-03-19 01:33:00,67.8,58.5,29.97,NE,41,0.0,0.0,72,0.00,,---,0.00,VWS V14.01,2013-03-19 06:33:00,
2013-03-19 01:34:00,66.9,56.0,29.97,ENE,66,2.7,2.7,68,0.00,,---,0.00,VWS V14.01,2013-03-19 06:34:00,
2013-03-19 01:35:00,66.9,56.0,29.97,East,97,2.2,2.7,68,0.00,,---,0.00,VWS V14.01,2013-03-19 06:35:00,
2013-03-19 01:36:00,66.9,56.0,29.97,East,97,0.0,2.2,68,0.00,,---,0.00,VWS V14.01,2013-03-19 06:36:00,
2013-03-19 01:37:00,66.9,56.0,29.97,East,97,0.0,0.0,68,0.00,,---,0.00,VWS V14.01,2013-03-19 06:37:00,
2013-03-19 01:38:00,67.6,57.9,29.97,NE,41,0.0,0.0,71,0.00,,---,0.00,VWS V14.01,2013-03-19 06:38:00,
2013-03-19 01:39:00,66.7,55.8,29.97,ENE,58,0.0,0.0,68,0.00,,---,0.00,VWS V14.01,2013-03-19 06:39:00,
2013-03-19 01:40:00,66.7,55.8,29.97,ENE,58,0.0,0.0,68,0.00,,---,0.00,VWS V14.01,2013-03-19 06:40:00,
2013-03-19 01:41:00,66.7,55.8,29.97,ENE,70,2.2,2.2,68,0.00,,---,0.00,VWS V14.01,2013-03-19 06:41:00,
2013-03-19 01:42:00,66.7,55.5,29.97,ENE,62,0.0,2.2,67,0.00,,---,0.00,VWS V14.01,2013-03-19 06:42:00,
2013-03-19 01:43:00,67.5,57.7,29.97,NE,41,0.0,0.0,71,0.00,,---,0.00,VWS V14.01,2013-03-19 06:43:00,
2013-03-19 01:44:00,66.7,55.5,29.97,NE,49,0.0,0.0,67,0.00,,---,0.00,VWS V14.01,2013-03-19 06:44:00,
2013-03-19 01:45:00,66.7,55.5,29.97,NE,49,0.0,0.0,67,0.00,,---,0.00,VWS V14.01,2013-03-19 06:45:00,
2013-03-19 01:46:00,66.7,55.5,30.00,NE,48,0.0,0.0,67,0.00,,---,0.00,VWS V14.01,2013-03-19 06:46:00,
2013-03-19 01:47:00,66.7,55.0,30.00,NE,49,0.0,0.0,66,0.00,,---,0.00,VWS V14.01,2013-03-19 06:47:00,
2013-03-19 01:48:00,67.3,57.2,29.97,NE,41,0.0,0.0,70,0.00,,---,0.00,VWS V14.01,2013-03-19 06:48:00,
2013-03-19 01:49:00,66.7,55.0,30.00,NNE,25,0.0,0.0,66,0.00,,---,0.00,VWS V14.01,2013-03-19 06:49:00,
2013-03-19 01:50:00,66.7,54.6,30.00,ENE,72,2.7,2.7,65,0.00,,---,0.00,VWS V14.01,2013-03-19 06:50:00,
2013-03-19 01:51:00,66.6,54.4,30.00,East,93,0.0,2.7,65,0.00,,---,0.00,VWS V14.01,2013-03-19 06:51:00,
2013-03-19 01:52:00,66.6,54.4,30.00,ENE,72,0.0,0.0,65,0.00,,---,0.00,VWS V14.01,2013-03-19 06:52:00,
2013-03-19 01:53:00,67.3,57.2,29.97,NE,41,0.0,0.0,70,0.00,,---,0.00,VWS V14.01,2013-03-19 06:53:00,
2013-03-19 01:54:00,66.6,54.4,30.00,NE,49,0.0,2.2,65,0.00,,---,0.00,VWS V14.01,2013-03-19 06:54:00,
2013-03-19 01:55:00,66.6,54.4,30.00,NE,48,0.0,0.0,65,0.00,,---,0.00,VWS V14.01,2013-03-19 06:55:00,
2013-03-19 01:56:00,66.6,54.0,30.00,ENE,60,0.0,0.0,64,0.00,,---,0.00,VWS V14.01,2013-03-19 06:56:00,
2013-03-19 01:57:00,66.6,54.0,30.00,ENE,64,0.0,0.0,64,0.00,,---,0.00,VWS V14.01,2013-03-19 06:57:00,
2013-03-19 01:58:00,67.1,57.0,29.97,NE,41,0.0,0.0,70,0.00,,---,0.00,VWS V14.01,2013-03-19 06:58:00,
2013-03-19 01:59:00,66.6,54.0,30.00,ENE,78,2.7,4.0,64,0.00,,---,0.00,VWS V14.01,2013-03-19 06:59:00,
2013-03-19 02:00:00,66.4,53.8,30.00,ENE,75,0.0,2.7,64,0.00,,---,0.00,VWS V14.01,2013-03-19 07:00:00,
2013-03-19 02:01:00,66.4,53.8,30.00,East,98,2.7,2.7,64,0.00,,---,0.00,VWS V14.01,2013-03-19 07:01:00,
2013-03-19 02:02:00,66.4,53.8,30.00,ENE,62,3.6,3.6,64,0.00,,---,0.00,VWS V14.01,2013-03-19 07:02:00,
2013-03-19 02:03:00,67.1,56.6,30.00,NE,41,0.0,0.0,69,0.00,,---,0.00,VWS V14.01,2013-03-19 07:03:00,
2013-03-19 02:04:00,66.4,53.8,30.00,ENE,64,0.0,0.0,64,0.00,,---,0.00,VWS V14.01,2013-03-19 07:04:00,
2013-03-19 02:05:00,66.4,53.4,30.00,ENE,64,0.0,0.0,63,0.00,,---,0.00,VWS V14.01,2013-03-19 07:05:00,
2013-03-19 02:06:00,66.4,53.4,30.00,ENE,61,0.0,0.0,63,0.00,,---,0.00,VWS V14.01,2013-03-19 07:06:00,
2013-03-19 02:07:00,66.2,53.2,30.00,NE,48,0.0,0.0,63,0.00,,---,0.00,VWS V14.01,2013-03-19 07:07:00,
2013-03-19 02:08:00,67.1,56.6,30.00,ENE,64,0.0,0.0,69,0.00,,---,0.00,VWS V14.01,2013-03-19 07:08:00,
2013-03-19 02:09:00,66.2,53.2,30.00,NNE,25,0.0,0.0,63,0.00,,---,0.00,VWS V14.01,2013-03-19 07:09:00,
2013-03-19 02:10:00,66.2,53.2,30.00,NE,39,0.0,0.0,63,0.00,,---,0.00,VWS V14.01,2013-03-19 07:10:00,
2013-03-19 02:11:00,66.2,53.2,30.00,NE,56,3.1,3.1,63,0.00,,---,0.00,VWS V14.01,2013-03-19 07:11:00,
2013-03-19 02:12:00,66.2,53.2,30.00,ENE,68,2.7,3.1,63,0.00,,---,0.00,VWS V14.01,2013-03-19 07:12:00,
2013-03-19 02:13:00,66.9,56.4,30.00,ENE,64,0.0,0.0,69,0.00,,---,0.00,VWS V14.01,2013-03-19 07:13:00,
2013-03-19 02:14:00,66.0,52.6,30.00,NE,52,2.7,4.9,62,0.00,,---,0.00,VWS V14.01,2013-03-19 07:14:00,
2013-03-19 02:15:00,66.0,52.6,30.00,NE,46,3.6,3.6,62,0.00,,---,0.00,VWS V14.01,2013-03-19 07:15:00,
2013-03-19 02:16:00,66.0,52.2,30.03,East,85,3.1,4.5,61,0.00,,---,0.00,VWS V14.01,2013-03-19 07:16:00,
2013-03-19 02:17:00,66.0,51.8,30.03,ENE,68,3.1,4.0,60,0.00,,---,0.00,VWS V14.01,2013-03-19 07:17:00,
2013-03-19 02:18:00,66.9,56.4,30.00,ENE,61,0.0,0.0,69,0.00,,---,0.00,VWS V14.01,2013-03-19 07:18:00,
2013-03-19 02:19:00,66.0,51.3,30.03,ENE,72,5.4,5.4,59,0.00,,---,0.00,VWS V14.01,2013-03-19 07:19:00,
2013-03-19 02:20:00,65.8,50.2,30.03,ENE,77,3.1,5.4,57,0.00,,---,0.00,VWS V14.01,2013-03-19 07:20:00,
2013-03-19 02:21:00,65.8,50.2,30.03,East,82,3.1,3.6,57,0.00,,---,0.00,VWS V14.01,2013-03-19 07:21:00,
2013-03-19 02:22:00,65.8,50.2,30.03,NE,34,3.1,3.1,57,0.00,,---,0.00,VWS V14.01,2013-03-19 07:22:00,
2013-03-19 02:23:00,66.9,56.4,30.00,ENE,61,0.0,0.0,69,0.00,,---,0.00,VWS V14.01,2013-03-19 07:23:00,
2013-03-19 02:24:00,65.7,49.6,30.03,NE,49,3.1,3.1,56,0.00,,---,0.00,VWS V14.01,2013-03-19 07:24:00,
2013-03-19 02:25:00,65.7,49.6,30.03,East,85,3.1,3.1,56,0.00,,---,0.00,VWS V14.01,2013-03-19 07:25:00,
2013-03-19 02:26:00,65.7,49.1,30.03,ENE,58,3.6,4.5,55,0.00,,---,0.00,VWS V14.01,2013-03-19 07:26:00,
2013-03-19 02:27:00,65.7,49.1,30.03,ENE,57,4.0,4.9,55,0.00,,---,0.00,VWS V14.01,2013-03-19 07:27:00,
2013-03-19 02:28:00,66.9,56.4,30.00,East,81,0.0,0.0,69,0.00,,---,0.00,VWS V14.01,2013-03-19 07:28:00,
2013-03-19 02:29:00,65.5,48.4,30.03,East,82,0.0,3.6,54,0.00,,---,0.00,VWS V14.01,2013-03-19 07:29:00,
2013-03-19 02:30:00,65.5,48.4,30.03,ESE,108,4.0,4.0,54,0.00,,---,0.00,VWS V14.01,2013-03-19 07:30:00,
2013-03-19 02:31:00,65.5,48.4,30.03,NE,54,0.0,4.0,54,0.00,,---,0.00,VWS V14.01,2013-03-19 07:31:00,
2013-03-19 02:32:00,65.5,48.4,30.03,East,88,0.0,0.0,54,0.00,,---,0.00,VWS V14.01,2013-03-19 07:32:00,
2013-03-19 02:33:00,66.9,56.0,29.97,ENE,66,2.7,2.7,68,0.00,,---,0.00,VWS V14.01,2013-03-19 07:33:00,
2013-03-19 02:34:00,65.3,47.8,30.03,ENE,58,3.1,4.0,53,0.00,,---,0.00,VWS V14.01,2013-03-19 07:34:00,
2013-03-19 02:35:00,65.3,47.8,30.03,NNE,31,2.7,3.6,53,0.00,,---,0.00,VWS V14.01,2013-03-19 07:35:00,
2013-03-19 02:36:00,65.1,47.6,30.03,East,97,2.7,4.0,53,0.00,,---,0.00,VWS V14.01,2013-03-19 07:36:00,
2013-03-19 02:37:00,65.1,47.1,30.03,East,79,3.1,3.1,52,0.00,,---,0.00,VWS V14.01,2013-03-19 07:37:00,
2013-03-19 02:38:00,66.7,55.8,29.97,ENE,58,0.0,0.0,68,0.00,,---,0.00,VWS V14.01,2013-03-19 07:38:00,
2013-03-19 02:39:00,64.9,46.9,30.03,ESE,104,0.0,0.0,52,0.00,,---,0.00,VWS V14.01,2013-03-19 07:39:00,
2013-03-19 02:40:00,64.9,46.9,30.03,ENE,59,2.7,2.7,52,0.00,,---,0.00,VWS V14.01,2013-03-19 07:40:00,
2013-03-19 02:41:00,64.9,46.9,30.03,SSE,160,4.0,4.0,52,0.00,,---,0.00,VWS V14.01,2013-03-19 07:41:00,
2013-03-19 02:42:00,64.9,46.9,30.03,East,80,0.0,4.0,52,0.00,,---,0.00,VWS V14.01,2013-03-19 07:42:00,
2013-03-19 02:43:00,66.7,55.5,29.97,NE,49,0.0,0.0,67,0.00,,---,0.00,VWS V14.01,2013-03-19 07:43:00,
2013-03-19 02:44:00,64.8,46.7,30.03,ENE,68,2.7,2.7,52,0.00,,---,0.00,VWS V14.01,2013-03-19 07:44:00,
2013-03-19 02:45:00,64.8,46.7,30.03,East,83,0.0,2.7,52,0.00,,---,0.00,VWS V14.01,2013-03-19 07:45:00,
2013-03-19 02:46:00,64.6,47.1,30.03,NE,43,0.0,0.0,53,0.00,,---,0.00,VWS V14.01,2013-03-19 07:46:00,
2013-03-19 02:47:00,64.6,47.1,30.03,ENE,57,0.0,0.0,53,0.00,,---,0.00,VWS V14.01,2013-03-19 07:47:00,
2013-03-19 02:48:00,66.7,55.0,30.00,NNE,25,0.0,0.0,66,0.00,,---,0.00,VWS V14.01,2013-03-19 07:48:00,
2013-03-19 02:49:00,64.6,46.6,30.03,NE,40,3.1,3.1,52,0.00,,---,0.00,VWS V14.01,2013-03-19 07:49:00,
2013-03-19 02:50:00,64.4,46.9,30.03,ENE,65,0.0,3.1,53,0.00,,---,0.00,VWS V14.01,2013-03-19 07:50:00,
2013-03-19 02:51:00,64.4,46.9,30.03,ENE,68,0.0,0.0,53,0.00,,---,0.00,VWS V14.01,2013-03-19 07:51:00,
2013-03-19 02:52:00,64.4,46.9,30.03,ENE,71,0.0,0.0,53,0.00,,---,0.00,VWS V14.01,2013-03-19 07:52:00,
2013-03-19 02:53:00,66.6,54.4,30.00,NE,49,0.0,2.2,65,0.00,,---,0.00,VWS V14.01,2013-03-19 07:53:00,
2013-03-19 02:54:00,64.2,46.8,30.03,SE,129,0.0,2.7,53,0.00,,---,0.00,VWS V14.01,2013-03-19 07:54:00,
2013-03-19 02:55:00,64.2,46.8,30.03,NE,47,2.7,3.1,53,0.00,,---,0.00,VWS V14.01,2013-03-19 07:55:00,
2013-03-19 02:56:00,64.2,46.8,30.03,NE,47,0.0,2.7,53,0.00,,---,0.00,VWS V14.01,2013-03-19 07:56:00,
2013-03-19 02:57:00,64.0,46.6,30.03,NE,41,2.7,2.7,53,0.00,,---,0.00,VWS V14.01,2013-03-19 07:57:00,
2013-03-19 02:58:00,66.6,54.0,30.00,ENE,78,2.2,4.0,64,0.00,,---,0.00,VWS V14.01,2013-03-19 07:58:00,
2013-03-19 02:59:00,64.0,45.6,30.03,ENE,77,3.1,4.9,51,0.00,,---,0.00,VWS V14.01,2013-03-19 07:59:00,
2013-03-19 03:00:00,63.9,44.9,30.03,NE,35,2.7,4.0,50,0.00,,---,0.00,VWS V14.01,2013-03-19 08:00:00,
2013-03-19 03:01:00,63.9,44.3,30.03,NE,42,3.6,4.0,49,0.00,,---,0.00,VWS V14.01,2013-03-19 08:01:00,
2013-03-19 03:02:00,63.7,43.6,30.03,East,79,2.7,5.4,48,0.00,,---,0.00,VWS V14.01,2013-03-19 08:02:00,
2013-03-19 03:03:00,66.4,53.8,30.00,ENE,64,0.0,0.0,64,0.00,,---,0.00,VWS V14.01,2013-03-19 08:03:00,
2013-03-19 03:04:00,63.5,42.9,30.03,East,82,3.1,5.4,47,0.00,,---,0.00,VWS V14.01,2013-03-19 08:04:00,
2013-03-19 03:05:00,63.5,42.9,30.03,NE,55,3.6,3.6,47,0.00,,---,0.00,VWS V14.01,2013-03-19 08:05:00,
2013-03-19 03:06:00,63.5,42.9,30.03,ENE,76,0.0,3.6,47,0.00,,---,0.00,VWS V14.01,2013-03-19 08:06:00,
2013-03-19 03:07:00,63.3,42.2,30.03,ESE,108,3.1,3.1,46,0.00,,---,0.00,VWS V14.01,2013-03-19 08:07:00,
2013-03-19 03:08:00,66.2,53.2,30.00,NNE,25,0.0,0.0,63,0.00,,---,0.00,VWS V14.01,2013-03-19 08:08:00,
2013-03-19 03:09:00,63.1,41.5,30.03,East,99,3.1,4.0,45,0.00,,---,0.00,VWS V14.01,2013-03-19 08:09:00,
2013-03-19 03:10:00,63.0,41.3,30.03,ENE,57,0.0,3.1,45,0.00,,---,0.00,VWS V14.01,2013-03-19 08:10:00,
2013-03-19 03:11:00,63.0,41.3,30.03,ENE,63,3.1,3.1,45,0.00,,---,0.00,VWS V14.01,2013-03-19 08:11:00,
2013-03-19 03:12:00,63.0,40.7,30.03,NE,56,3.1,3.6,44,0.00,,---,0.00,VWS V14.01,2013-03-19 08:12:00,
2013-03-19 03:13:00,66.0,52.6,30.00,ESE,116,3.1,4.9,62,0.00,,---,0.00,VWS V14.01,2013-03-19 08:13:00,
2013-03-19 03:14:00,62.8,40.6,30.03,East,96,2.7,2.7,44,0.00,,---,0.00,VWS V14.01,2013-03-19 08:14:00,
2013-03-19 03:15:00,62.6,39.8,30.03,East,93,3.6,5.8,43,0.00,,---,0.00,VWS V14.01,2013-03-19 08:15:00,
2013-03-19 03:16:00,62.6,39.2,30.03,ESE,120,4.0,4.0,42,0.00,,---,0.00,VWS V14.01,2013-03-19 08:16:00,
2013-03-19 03:17:00,62.6,39.2,30.03,North,6,3.6,4.0,42,0.00,,---,0.00,VWS V14.01,2013-03-19 08:17:00,
2013-03-19 03:18:00,66.0,51.3,30.03,ENE,72,5.4,5.4,59,0.00,,---,0.00,VWS V14.01,2013-03-19 08:18:00,
2013-03-19 03:19:00,62.4,38.4,30.03,NE,48,0.0,3.1,41,0.00,,---,0.00,VWS V14.01,2013-03-19 08:19:00,
2013-03-19 03:20:00,62.2,37.6,30.03,NE,56,2.7,2.7,40,0.00,,---,0.00,VWS V14.01,2013-03-19 08:20:00,
2013-03-19 03:21:00,62.2,37.6,30.03,SE,133,0.0,4.0,40,0.00,,---,0.00,VWS V14.01,2013-03-19 08:21:00,
2013-03-19 03:22:00,62.1,37.5,30.03,NE,55,3.6,3.6,40,0.00,,---,0.00,VWS V14.01,2013-03-19 08:22:00,
2013-03-19 03:23:00,65.7,49.6,30.03,ENE,70,2.7,2.7,56,0.00,,---,0.00,VWS V14.01,2013-03-19 08:23:00,
2013-03-19 03:24:00,61.9,36.7,30.03,SE,145,2.2,3.6,39,0.00,,---,0.00,VWS V14.01,2013-03-19 08:24:00,
2013-03-19 03:25:00,61.9,36.7,30.03,SSE,155,3.1,4.0,39,0.00,,---,0.00,VWS V14.01,2013-03-19 08:25:00,
2013-03-19 03:26:00,61.9,36.0,30.03,ENE,77,2.2,3.1,38,0.00,,---,0.00,VWS V14.01,2013-03-19 08:26:00,
2013-03-19 03:27:00,61.9,36.0,30.03,ESE,109,2.7,4.9,38,0.00,,---,0.00,VWS V14.01,2013-03-19 08:27:00,
2013-03-19 03:28:00,65.7,48.6,30.03,East,82,0.0,3.6,54,0.00,,---,0.00,VWS V14.01,2013-03-19 08:28:00,
2013-03-19 03:29:00,61.7,35.9,30.03,East,82,0.0,3.1,38,0.00,,---,0.00,VWS V14.01,2013-03-19 08:29:00,
2013-03-19 03:30:00,61.5,35.7,30.03,ENE,66,2.7,2.7,38,0.00,,---,0.00,VWS V14.01,2013-03-19 08:30:00,
2013-03-19 03:31:00,61.5,35.7,30.03,ENE,66,2.7,2.7,38,0.00,,---,0.00,VWS V14.01,2013-03-19 08:31:00,
2013-03-19 03:32:00,61.5,35.7,30.03,ENE,75,0.0,3.1,38,0.00,,---,0.00,VWS V14.01,2013-03-19 08:32:00,
2013-03-19 03:33:00,65.3,47.8,30.03,North,9,3.1,4.0,53,0.00,,---,0.00,VWS V14.01,2013-03-19 08:33:00,
2013-03-19 03:34:00,61.3,35.5,30.03,East,81,2.7,2.7,38,0.00,,---,0.00,VWS V14.01,2013-03-19 08:34:00,
2013-03-19 03:35:00,61.3,35.5,30.03,NE,54,2.7,3.6,38,0.00,,---,0.00,VWS V14.01,2013-03-19 08:35:00,
2013-03-19 03:36:00,61.2,35.4,30.03,SSE,147,0.0,2.7,38,0.00,,---,0.00,VWS V14.01,2013-03-19 08:36:00,
2013-03-19 03:37:00,61.2,35.4,30.03,SE,127,0.0,0.0,38,0.00,,---,0.00,VWS V14.01,2013-03-19 08:37:00,
2013-03-19 03:38:00,64.9,46.9,30.03,ESE,109,0.0,0.0,52,0.00,,---,0.00,VWS V14.01,2013-03-19 08:38:00,
2013-03-19 03:39:00,61.0,35.2,30.03,SE,130,0.0,0.0,38,0.00,,---,0.00,VWS V14.01,2013-03-19 08:39:00,
2013-03-19 03:40:00,61.0,35.2,30.03,SSE,149,0.0,0.0,38,0.00,,---,0.00,VWS V14.01,2013-03-19 08:40:00,
2013-03-19 03:41:00,61.0,35.2,30.03,SSW,212,3.1,3.1,38,0.00,,---,0.00,VWS V14.01,2013-03-19 08:41:00,
2013-03-19 03:42:00,61.0,35.2,30.03,NNW,333,2.2,3.1,38,0.00,,---,0.00,VWS V14.01,2013-03-19 08:42:00,
2013-03-19 03:43:00,64.8,46.7,30.03,ENE,68,2.7,2.7,52,0.00,,---,0.00,VWS V14.01,2013-03-19 08:43:00,
2013-03-19 03:44:00,60.8,35.1,30.03,WSW,239,3.1,3.1,38,0.00,,---,0.00,VWS V14.01,2013-03-19 08:44:00,
2013-03-19 03:45:00,60.8,34.4,30.03,East,97,3.1,5.4,37,0.00,,---,0.00,VWS V14.01,2013-03-19 08:45:00,
2013-03-19 03:46:00,60.8,34.4,30.03,East,85,2.7,4.9,37,0.00,,---,0.00,VWS V14.01,2013-03-19 08:46:00,
2013-03-19 03:47:00,60.6,34.9,30.03,ENE,78,0.0,3.6,38,0.00,,---,0.00,VWS V14.01,2013-03-19 08:47:00,
2013-03-19 03:48:00,64.6,46.6,30.03,ENE,57,0.0,0.0,52,0.00,,---,0.00,VWS V14.01,2013-03-19 08:48:00,
2013-03-19 03:49:00,60.6,34.9,30.03,East,97,0.0,2.2,38,0.00,,---,0.00,VWS V14.01,2013-03-19 08:49:00,
2013-03-19 03:50:00,60.6,34.9,30.03,ENE,59,2.7,3.1,38,0.00,,---,0.00,VWS V14.01,2013-03-19 08:50:00,
2013-03-19 03:51:00,60.6,34.9,30.03,SSE,152,2.7,4.0,38,0.00,,---,0.00,VWS V14.01,2013-03-19 08:51:00,
2013-03-19 03:52:00,60.4,34.7,30.03,ENE,78,3.1,3.1,38,0.00,,---,0.00,VWS V14.01,2013-03-19 08:52:00,
2013-03-19 03:53:00,64.2,46.8,30.03,ENE,61,0.0,2.7,53,0.00,,---,0.00,VWS V14.01,2013-03-19 08:53:00,
2013-03-19 03:54:00,60.4,34.7,30.03,NNE,31,0.0,0.0,38,0.00,,---,0.00,VWS V14.01,2013-03-19 08:54:00,
2013-03-19 03:55:00,60.4,34.7,30.03,ENE,62,2.2,3.1,38,0.00,,---,0.00,VWS V14.01,2013-03-19 08:55:00,
2013-03-19 03:56:00,60.3,34.6,30.03,East,87,0.0,3.1,38,0.00,,---,0.00,VWS V14.01,2013-03-19 08:56:00,
2013-03-19 03:57:00,60.3,34.6,30.03,East,84,2.7,3.6,38,0.00,,---,0.00,VWS V14.01,2013-03-19 08:57:00,
2013-03-19 03:58:00,64.0,45.6,30.03,ENE,71,4.0,4.9,51,0.00,,---,0.00,VWS V14.01,2013-03-19 08:58:00,
2013-03-19 03:59:00,60.1,34.4,30.03,SE,137,0.0,0.0,38,0.00,,---,0.00,VWS V14.01,2013-03-19 08:59:00,
2013-03-19 04:00:00,60.1,34.4,30.03,ENE,78,0.0,2.7,38,0.00,,---,0.00,VWS V14.01,2013-03-19 09:00:00,
2013-03-19 04:01:00,60.1,34.4,30.03,East,85,2.2,4.9,38,0.00,,---,0.00,VWS V14.01,2013-03-19 09:01:00,
2013-03-19 04:02:00,60.1,34.4,30.03,NE,54,0.0,2.2,38,0.00,,---,0.00,VWS V14.01,2013-03-19 09:02:00,
2013-03-19 04:03:00,63.5,42.9,30.03,ENE,57,3.1,5.4,47,0.00,,---,0.00,VWS V14.01,2013-03-19 09:03:00,
2013-03-19 04:04:00,59.9,34.9,30.03,SSE,153,0.0,0.0,39,0.00,,---,0.00,VWS V14.01,2013-03-19 09:04:00,
2013-03-19 04:05:00,59.9,34.9,30.03,NE,54,0.0,0.0,39,0.00,,---,0.00,VWS V14.01,2013-03-19 09:05:00,
2013-03-19 04:06:00,59.9,34.9,30.03,SE,125,0.0,0.0,39,0.00,,---,0.00,VWS V14.01,2013-03-19 09:06:00,
2013-03-19 04:07:00,59.9,34.9,30.03,SE,124,0.0,0.0,39,0.00,,---,0.00,VWS V14.01,2013-03-19 09:07:00,
2013-03-19 04:08:00,63.1,41.5,30.03,East,87,2.7,4.0,45,0.00,,---,0.00,VWS V14.01,2013-03-19 09:08:00,
2013-03-19 04:09:00,59.7,34.7,30.03,ENE,76,0.0,0.0,39,0.00,,---,0.00,VWS V14.01,2013-03-19 09:09:00,
2013-03-19 04:10:00,59.5,34.6,30.03,ENE,74,0.0,0.0,39,0.00,,---,0.00,VWS V14.01,2013-03-19 09:10:00,
2013-03-19 04:11:00,59.5,34.6,30.03,ESE,109,0.0,0.0,39,0.00,,---,0.00,VWS V14.01,2013-03-19 09:11:00,
2013-03-19 04:12:00,59.5,34.6,30.03,East,91,0.0,0.0,39,0.00,,---,0.00,VWS V14.01,2013-03-19 09:12:00,
2013-03-19 04:13:00,62.8,40.6,30.03,ENE,75,0.0,2.2,44,0.00,,---,0.00,VWS V14.01,2013-03-19 09:13:00,
2013-03-19 04:14:00,59.4,34.4,30.03,East,99,0.0,0.0,39,0.00,,---,0.00,VWS V14.01,2013-03-19 09:14:00,
2013-03-19 04:15:00,59.4,34.4,30.03,ENE,65,0.0,0.0,39,0.00,,---,0.00,VWS V14.01,2013-03-19 09:15:00,
2013-03-19 04:16:00,59.4,35.1,30.03,ENE,73,0.0,0.0,40,0.00,,---,0.00,VWS V14.01,2013-03-19 09:16:00,
2013-03-19 04:17:00,59.4,35.1,30.03,NE,54,0.0,0.0,40,0.00,,---,0.00,VWS V14.01,2013-03-19 09:17:00,
2013-03-19 04:18:00,62.4,38.4,30.03,NE,48,3.1,3.1,41,0.00,,---,0.00,VWS V14.01,2013-03-19 09:18:00,
2013-03-19 04:19:00,59.2,34.9,30.03,NE,55,0.0,0.0,40,0.00,,---,0.00,VWS V14.01,2013-03-19 09:19:00,
2013-03-19 04:20:00,59.2,34.9,30.03,NE,55,0.0,0.0,40,0.00,,---,0.00,VWS V14.01,2013-03-19 09:20:00,
2013-03-19 04:21:00,59.2,34.9,30.03,NE,55,0.0,0.0,40,0.00,,---,0.00,VWS V14.01,2013-03-19 09:21:00,
2013-03-19 04:22:00,59.2,34.9,30.03,NE,55,0.0,0.0,40,0.00,,---,0.00,VWS V14.01,2013-03-19 09:22:00,
2013-03-19 04:23:00,61.9,36.7,30.03,NE,56,3.1,3.6,39,0.00,,---,0.00,VWS V14.01,2013-03-19 09:23:00,
2013-03-19 04:24:00,59.0,34.7,30.03,NE,55,0.0,0.0,40,0.00,,---,0.00,VWS V14.01,2013-03-19 09:24:00,
2013-03-19 04:25:00,59.0,34.7,30.03,NE,54,0.0,0.0,40,0.00,,---,0.00,VWS V14.01,2013-03-19 09:25:00,
2013-03-19 04:26:00,58.8,35.2,30.03,ENE,68,2.2,2.7,41,0.00,,---,0.00,VWS V14.01,2013-03-19 09:26:00,
2013-03-19 04:27:00,58.8,35.2,30.03,ENE,70,0.0,2.2,41,0.00,,---,0.00,VWS V14.01,2013-03-19 09:27:00,
2013-03-19 04:28:00,61.7,35.9,30.03,East,82,0.0,3.1,38,0.00,,---,0.00,VWS V14.01,2013-03-19 09:28:00,
2013-03-19 04:29:00,58.8,35.2,30.03,East,88,0.0,0.0,41,0.00,,---,0.00,VWS V14.01,2013-03-19 09:29:00,
2013-03-19 04:30:00,58.6,35.0,30.03,East,84,0.0,0.0,41,0.00,,---,0.00,VWS V14.01,2013-03-19 09:30:00,
2013-03-19 04:31:00,58.6,35.0,30.03,ENE,73,2.2,2.2,41,0.00,,---,0.00,VWS V14.01,2013-03-19 09:31:00,
2013-03-19 04:32:00,58.6,35.0,30.03,SSW,194,2.2,3.6,41,0.00,,---,0.00,VWS V14.01,2013-03-19 09:32:00,
2013-03-19 04:33:00,61.3,35.5,30.03,East,81,2.7,2.7,38,0.00,,---,0.00,VWS V14.01,2013-03-19 09:33:00,
2013-03-19 04:34:00,58.5,35.5,30.03,ENE,58,0.0,0.0,42,0.00,,---,0.00,VWS V14.01,2013-03-19 09:34:00,
2013-03-19 04:35:00,58.5,35.5,30.03,East,86,0.0,0.0,42,0.00,,---,0.00,VWS V14.01,2013-03-19 09:35:00,
2013-03-19 04:36:00,58.5,35.5,30.03,NE,50,0.0,0.0,42,0.00,,---,0.00,VWS V14.01,2013-03-19 09:36:00,
2013-03-19 04:37:00,58.5,35.5,30.03,NE,51,0.0,0.0,42,0.00,,---,0.00,VWS V14.01,2013-03-19 09:37:00,
2013-03-19 04:38:00,61.0,35.2,30.03,SE,130,0.0,0.0,38,0.00,,---,0.00,VWS V14.01,2013-03-19 09:38:00,
2013-03-19 04:39:00,58.5,35.5,30.03,NE,51,0.0,0.0,42,0.00,,---,0.00,VWS V14.01,2013-03-19 09:39:00,
2013-03-19 04:40:00,58.3,35.3,30.03,ESE,114,2.2,3.1,42,0.00,,---,0.00,VWS V14.01,2013-03-19 09:40:00,
2013-03-19 04:41:00,58.3,35.9,30.03,ESE,114,0.0,2.2,43,0.00,,---,0.00,VWS V14.01,2013-03-19 09:41:00,
2013-03-19 04:42:00,58.3,35.9,30.03,ESE,111,0.0,0.0,43,0.00,,---,0.00,VWS V14.01,2013-03-19 09:42:00,
2013-03-19 04:43:00,60.8,35.1,30.03,ESE,115,0.0,0.0,38,0.00,,---,0.00,VWS V14.01,2013-03-19 09:43:00,
2013-03-19 04:44:00,58.3,35.9,30.03,NE,54,0.0,0.0,43,0.00,,---,0.00,VWS V14.01,2013-03-19 09:44:00,
2013-03-19 04:45:00,58.1,35.7,30.03,NE,54,0.0,0.0,43,0.00,,---,0.00,VWS V14.01,2013-03-19 09:45:00,
2013-03-19 04:46:00,58.1,35.7,30.03,NE,54,0.0,0.0,43,0.00,,---,0.00,VWS V14.01,2013-03-19 09:46:00,
2013-03-19 04:47:00,58.1,35.7,30.03,NE,54,0.0,0.0,43,0.00,,---,0.00,VWS V14.01,2013-03-19 09:47:00,
2013-03-19 04:48:00,60.6,34.9,30.03,East,97,0.0,2.2,38,0.00,,---,0.00,VWS V14.01,2013-03-19 09:48:00,
2013-03-19 04:49:00,57.9,36.2,30.03,NNE,22,0.0,0.0,44,0.00,,---,0.00,VWS V14.01,2013-03-19 09:49:00,
2013-03-19 04:50:00,57.9,36.2,30.03,ENE,75,0.0,0.0,44,0.00,,---,0.00,VWS V14.01,2013-03-19 09:50:00,
2013-03-19 04:51:00,57.9,36.2,30.03,ENE,75,0.0,0.0,44,0.00,,---,0.00,VWS V14.01,2013-03-19 09:51:00,
2013-03-19 04:52:00,57.9,36.2,30.03,ESE,113,0.0,0.0,44,0.00,,---,0.00,VWS V14.01,2013-03-19 09:52:00,
2013-03-19 04:53:00,60.4,34.7,30.03,NNE,31,0.0,0.0,38,0.00,,---,0.00,VWS V14.01,2013-03-19 09:53:00,
2013-03-19 04:54:00,57.9,36.2,30.03,ESE,122,0.0,2.2,44,0.00,,---,0.00,VWS V14.01,2013-03-19 09:54:00,
2013-03-19 04:55:00,57.7,36.0,30.03,East,95,0.0,0.0,44,0.00,,---,0.00,VWS V14.01,2013-03-19 09:55:00,
2013-03-19 04:56:00,57.7,36.0,30.03,NE,55,0.0,0.0,44,0.00,,---,0.00,VWS V14.01,2013-03-19 09:56:00,
2013-03-19 04:57:00,57.7,36.0,30.03,SE,127,2.7,2.7,44,0.00,,---,0.00,VWS V14.01,2013-03-19 09:57:00,
2013-03-19 04:58:00,60.1,34.4,30.03,NE,37,0.0,0.0,38,0.00,,---,0.00,VWS V14.01,2013-03-19 09:58:00,
2013-03-19 04:59:00,57.7,36.0,30.03,NE,37,2.7,2.7,44,0.00,,---,0.00,VWS V14.01,2013-03-19 09:59:00,
2013-03-19 05:00:00,57.6,35.8,30.03,ENE,60,3.1,3.1,44,0.00,,---,0.00,VWS V14.01,2013-03-19 10:00:00,
2013-03-19 05:01:00,57.6,35.8,30.03,ENE,77,0.0,3.1,44,0.00,,---,0.00,VWS V14.01,2013-03-19 10:01:00,
2013-03-19 05:02:00,57.6,36.4,30.03,ENE,62,0.0,3.6,45,0.00,,---,0.00,VWS V14.01,2013-03-19 10:02:00,
2013-03-19 05:03:00,59.9,34.9,30.03,SSE,153,0.0,0.0,39,0.00,,---,0.00,VWS V14.01,2013-03-19 10:03:00,
2013-03-19 05:04:00,57.6,36.4,30.03,East,101,0.0,2.7,45,0.00,,---,0.00,VWS V14.01,2013-03-19 10:04:00,
2013-03-19 05:05:00,57.6,36.4,30.03,East,101,0.0,0.0,45,0.00,,---,0.00,VWS V14.01,2013-03-19 10:05:00,
2013-03-19 05:06:00,57.6,36.4,30.03,East,99,0.0,0.0,45,0.00,,---,0.00,VWS V14.01,2013-03-19 10:06:00,
2013-03-19 05:07:00,57.6,36.4,30.03,East,86,0.0,0.0,45,0.00,,---,0.00,VWS V14.01,2013-03-19 10:07:00,
2013-03-19 05:08:00,59.7,34.7,30.03,ENE,76,0.0,0.0,39,0.00,,---,0.00,VWS V14.01,2013-03-19 10:08:00,
2013-03-19 05:09:00,57.4,36.2,30.03,NE,49,0.0,0.0,45,0.00,,---,0.00,VWS V14.01,2013-03-19 10:09:00,
2013-03-19 05:10:00,57.4,36.2,30.03,ESE,114,0.0,0.0,45,0.00,,---,0.00,VWS V14.01,2013-03-19 10:10:00,
2013-03-19 05:11:00,57.4,36.2,30.03,ESE,114,0.0,0.0,45,0.00,,---,0.00,VWS V14.01,2013-03-19 10:11:00,
2013-03-19 05:12:00,57.4,36.2,30.03,ENE,58,0.0,0.0,45,0.00,,---,0.00,VWS V14.01,2013-03-19 10:12:00,
2013-03-19 05:13:00,59.4,34.4,30.03,East,99,0.0,0.0,39,0.00,,---,0.00,VWS V14.01,2013-03-19 10:13:00,
2013-03-19 05:14:00,57.2,36.1,30.03,East,98,4.9,4.9,45,0.00,,---,0.00,VWS V14.01,2013-03-19 10:14:00,
2013-03-19 05:15:00,57.2,36.1,30.06,NE,43,0.0,4.9,45,0.00,,---,0.00,VWS V14.01,2013-03-19 10:15:00,
2013-03-19 05:16:00,57.2,36.1,30.06,NE,43,0.0,0.0,45,0.00,,---,0.00,VWS V14.01,2013-03-19 10:16:00,
2013-03-19 05:17:00,57.0,36.5,30.06,NE,50,0.0,0.0,46,0.00,,---,0.00,VWS V14.01,2013-03-19 10:17:00,
2013-03-19 05:18:00,59.2,34.9,30.03,NE,55,0.0,0.0,40,0.00,,---,0.00,VWS V14.01,2013-03-19 10:18:00,
2013-03-19 05:19:00,57.0,36.5,30.06,SE,140,0.0,0.0,46,0.00,,---,0.00,VWS V14.01,2013-03-19 10:19:00,
2013-03-19 05:20:00,57.0,36.5,30.06,ESE,104,0.0,0.0,46,0.00,,---,0.00,VWS V14.01,2013-03-19 10:20:00,
2013-03-19 05:21:00,57.0,36.5,30.06,WNW,297,0.0,0.0,46,0.00,,---,0.00,VWS V14.01,2013-03-19 10:21:00,
2013-03-19 05:22:00,57.0,36.5,30.06,ESE,121,0.0,0.0,46,0.00,,---,0.00,VWS V14.01,2013-03-19 10:22:00,
2013-03-19 05:23:00,59.0,34.7,30.03,NE,55,0.0,0.0,40,0.00,,---,0.00,VWS V14.01,2013-03-19 10:23:00,
2013-03-19 05:24:00,56.8,36.3,30.06,ENE,71,0.0,0.0,46,0.00,,---,0.00,VWS V14.01,2013-03-19 10:24:00,
2013-03-19 05:25:00,56.8,36.3,30.06,ENE,61,0.0,0.0,46,0.00,,---,0.00,VWS V14.01,2013-03-19 10:25:00,
2013-03-19 05:26:00,56.8,36.8,30.06,ENE,61,0.0,0.0,47,0.00,,---,0.00,VWS V14.01,2013-03-19 10:26:00,
2013-03-19 05:27:00,56.8,36.8,30.06,ENE,61,0.0,0.0,47,0.00,,---,0.00,VWS V14.01,2013-03-19 10:27:00,
2013-03-19 05:28:00,58.8,35.2,30.03,East,88,0.0,0.0,41,0.00,,---,0.00,VWS V14.01,2013-03-19 10:28:00,
2013-03-19 05:29:00,56.8,36.8,30.06,NE,56,0.0,0.0,47,0.00,,---,0.00,VWS V14.01,2013-03-19 10:29:00,
2013-03-19 05:30:00,56.7,36.7,30.06,ENE,58,0.0,2.7,47,0.00,,---,0.00,VWS V14.01,2013-03-19 10:30:00,
2013-03-19 05:31:00,56.7,36.7,30.06,ENE,58,0.0,0.0,47,0.00,,---,0.00,VWS V14.01,2013-03-19 10:31:00,
2013-03-19 05:32:00,56.7,36.7,30.06,ENE,58,0.0,0.0,47,0.00,,---,0.00,VWS V14.01,2013-03-19 10:32:00,
2013-03-19 05:33:00,58.5,35.5,30.03,ENE,58,0.0,0.0,42,0.00,,---,0.00,VWS V14.01,2013-03-19 10:33:00,
2013-03-19 05:34:00,56.7,36.7,30.06,ENE,69,0.0,0.0,47,0.00,,---,0.00,VWS V14.01,2013-03-19 10:34:00,
2013-03-19 05:35:00,56.7,36.7,30.06,ENE,69,0.0,0.0,47,0.00,,---,0.00,VWS V14.01,2013-03-19 10:35:00,
2013-03-19 05:36:00,56.5,37.0,30.06,ENE,69,0.0,0.0,48,0.00,,---,0.00,VWS V14.01,2013-03-19 10:36:00,
2013-03-19 05:37:00,56.5,37.0,30.06,ENE,69,0.0,0.0,48,0.00,,---,0.00,VWS V14.01,2013-03-19 10:37:00,
2013-03-19 05:38:00,58.5,35.5,30.03,NE,51,0.0,0.0,42,0.00,,---,0.00,VWS V14.01,2013-03-19 10:38:00,
2013-03-19 05:39:00,56.5,37.0,30.06,NE,43,0.0,0.0,48,0.00,,---,0.00,VWS V14.01,2013-03-19 10:39:00,
2013-03-19 05:40:00,56.5,37.0,30.06,NE,43,0.0,0.0,48,0.00,,---,0.00,VWS V14.01,2013-03-19 10:40:00,
2013-03-19 05:41:00,56.5,37.0,30.06,NE,43,0.0,0.0,48,0.00,,---,0.00,VWS V14.01,2013-03-19 10:41:00,
2013-03-19 05:42:00,56.3,36.9,30.06,NE,43,0.0,0.0,48,0.00,,---,0.00,VWS V14.01,2013-03-19 10:42:00,
2013-03-19 05:43:00,58.3,35.9,30.03,NE,54,0.0,0.0,43,0.00,,---,0.00,VWS V14.01,2013-03-19 10:43:00,
2013-03-19 05:44:00,56.3,36.9,30.06,NE,43,0.0,0.0,48,0.00,,---,0.00,VWS V14.01,2013-03-19 10:44:00,
2013-03-19 05:45:00,56.3,36.9,30.06,NE,43,0.0,0.0,48,0.00,,---,0.00,VWS V14.01,2013-03-19 10:45:00,
2013-03-19 05:46:00,56.3,36.9,30.06,NE,43,0.0,0.0,48,0.00,,---,0.00,VWS V14.01,2013-03-19 10:46:00,
2013-03-19 05:47:00,56.3,36.9,30.06,SE,145,0.0,0.0,48,0.00,,---,0.00,VWS V14.01,2013-03-19 10:47:00,
2013-03-19 05:48:00,57.9,36.2,30.03,NNE,22,0.0,0.0,44,0.00,,---,0.00,VWS V14.01,2013-03-19 10:48:00,
2013-03-19 05:49:00,56.1,36.7,30.06,SE,145,0.0,0.0,48,0.00,,---,0.00,VWS V14.01,2013-03-19 10:49:00,
2013-03-19 05:50:00,56.1,37.2,30.06,SE,145,0.0,0.0,49,0.00,,---,0.00,VWS V14.01,2013-03-19 10:50:00,
2013-03-19 05:51:00,56.1,37.2,30.06,SE,145,0.0,0.0,49,0.00,,---,0.00,VWS V14.01,2013-03-19 10:51:00,
2013-03-19 05:52:00,56.1,37.2,30.06,SE,144,0.0,0.0,49,0.00,,---,0.00,VWS V14.01,2013-03-19 10:52:00,
2013-03-19 05:53:00,57.9,36.2,30.03,NE,48,0.0,2.2,44,0.00,,---,0.00,VWS V14.01,2013-03-19 10:53:00,
2013-03-19 05:54:00,55.9,37.1,30.06,East,96,0.0,0.0,49,0.00,,---,0.00,VWS V14.01,2013-03-19 10:54:00,
2013-03-19 05:55:00,55.9,37.1,30.06,East,96,0.0,0.0,49,0.00,,---,0.00,VWS V14.01,2013-03-19 10:55:00,
2013-03-19 05:56:00,55.9,37.1,30.06,East,96,0.0,0.0,49,0.00,,---,0.00,VWS V14.01,2013-03-19 10:56:00,
2013-03-19 05:57:00,55.9,37.1,30.06,East,96,0.0,0.0,49,0.00,,---,0.00,VWS V14.01,2013-03-19 10:57:00,
2013-03-19 05:58:00,57.7,36.0,30.03,ENE,77,2.7,2.7,44,0.00,,---,0.00,VWS V14.01,2013-03-19 10:58:00,
2013-03-19 05:59:00,55.9,37.1,30.06,NNE,19,0.0,0.0,49,0.00,,---,0.00,VWS V14.01,2013-03-19 10:59:00,
2013-03-19 06:00:00,55.9,37.1,30.06,NNE,19,0.0,0.0,49,0.00,,---,0.00,VWS V14.01,2013-03-19 11:00:00,
2013-03-19 06:01:00,55.8,36.9,30.06,NNE,19,0.0,0.0,49,0.00,,---,0.00,VWS V14.01,2013-03-19 11:01:00,
2013-03-19 06:02:00,55.8,37.4,30.06,NNE,19,0.0,0.0,50,0.00,,---,0.00,VWS V14.01,2013-03-19 11:02:00,
2013-03-19 06:03:00,57.6,36.4,30.03,East,101,0.0,2.7,45,0.00,,---,0.00,VWS V14.01,2013-03-19 11:03:00,
2013-03-19 06:04:00,55.8,37.4,30.06,NE,38,0.0,0.0,50,0.00,,---,0.00,VWS V14.01,2013-03-19 11:04:00,
2013-03-19 06:05:00,55.8,37.4,30.06,NE,38,0.0,0.0,50,0.00,,---,0.00,VWS V14.01,2013-03-19 11:05:00,
2013-03-19 06:06:00,55.6,37.2,30.06,NE,41,0.0,0.0,50,0.00,,---,0.00,VWS V14.01,2013-03-19 11:06:00,
2013-03-19 06:07:00,55.6,37.2,30.06,NE,41,0.0,0.0,50,0.00,,---,0.00,VWS V14.01,2013-03-19 11:07:00,
2013-03-19 06:08:00,57.4,36.2,30.03,NNE,21,0.0,0.0,45,0.00,,---,0.00,VWS V14.01,2013-03-19 11:08:00,
2013-03-19 06:09:00,55.6,37.2,30.06,NE,41,0.0,0.0,50,0.00,,---,0.00,VWS V14.01,2013-03-19 11:09:00,
2013-03-19 06:10:00,55.6,37.2,30.06,NE,41,0.0,0.0,50,0.00,,---,0.00,VWS V14.01,2013-03-19 11:10:00,
2013-03-19 06:11:00,55.6,37.2,30.06,NE,43,0.0,0.0,50,0.00,,---,0.00,VWS V14.01,2013-03-19 11:11:00,
2013-03-19 06:12:00,55.4,37.1,30.06,ESE,115,0.0,0.0,50,0.00,,---,0.00,VWS V14.01,2013-03-19 11:12:00,
2013-03-19 06:13:00,57.2,36.1,30.03,East,98,4.9,4.9,45,0.00,,---,0.00,VWS V14.01,2013-03-19 11:13:00,
2013-03-19 06:14:00,55.4,37.6,30.06,ESE,115,0.0,0.0,51,0.00,,---,0.00,VWS V14.01,2013-03-19 11:14:00,
2013-03-19 06:15:00,55.4,37.6,30.06,ESE,115,0.0,0.0,51,0.00,,---,0.00,VWS V14.01,2013-03-19 11:15:00,
2013-03-19 06:16:00,55.4,37.6,30.06,ESE,115,0.0,0.0,51,0.00,,---,0.00,VWS V14.01,2013-03-19 11:16:00,
2013-03-19 06:17:00,55.4,37.6,30.06,ESE,115,0.0,0.0,51,0.00,,---,0.00,VWS V14.01,2013-03-19 11:17:00,
2013-03-19 06:18:00,57.0,36.5,30.06,SE,140,0.0,0.0,46,0.00,,---,0.00,VWS V14.01,2013-03-19 11:18:00,
2013-03-19 06:19:00,55.2,37.9,30.06,ESE,115,0.0,0.0,52,0.00,,---,0.00,VWS V14.01,2013-03-19 11:19:00,
2013-03-19 06:20:00,55.2,37.9,30.06,ESE,115,0.0,0.0,52,0.00,,---,0.00,VWS V14.01,2013-03-19 11:20:00,
2013-03-19 06:21:00,55.2,37.9,30.06,ESE,103,0.0,0.0,52,0.00,,---,0.00,VWS V14.01,2013-03-19 11:21:00,
2013-03-19 06:22:00,55.2,37.9,30.06,NE,47,0.0,0.0,52,0.00,,---,0.00,VWS V14.01,2013-03-19 11:22:00,
2013-03-19 06:23:00,56.8,36.3,30.06,ENE,65,0.0,0.0,46,0.00,,---,0.00,VWS V14.01,2013-03-19 11:23:00,
2013-03-19 06:24:00,55.2,37.9,30.06,NE,51,0.0,0.0,52,0.00,,---,0.00,VWS V14.01,2013-03-19 11:24:00,
2013-03-19 06:25:00,55.2,37.9,30.06,East,92,0.0,0.0,52,0.00,,---,0.00,VWS V14.01,2013-03-19 11:25:00,
2013-03-19 06:26:00,55.2,37.9,30.06,East,92,0.0,0.0,52,0.00,,---,0.00,VWS V14.01,2013-03-19 11:26:00,
2013-03-19 06:27:00,55.2,37.9,30.06,East,96,0.0,0.0,52,0.00,,---,0.00,VWS V14.01,2013-03-19 11:27:00,
2013-03-19 06:28:00,56.8,36.8,30.06,ENE,78,0.0,0.0,47,0.00,,---,0.00,VWS V14.01,2013-03-19 11:28:00,
2013-03-19 06:29:00,55.0,37.8,30.06,East,96,0.0,0.0,52,0.00,,---,0.00,VWS V14.01,2013-03-19 11:29:00,
2013-03-19 06:30:00,55.0,37.8,30.06,SE,140,0.0,0.0,52,0.00,,---,0.00,VWS V14.01,2013-03-19 11:30:00,
2013-03-19 06:31:00,55.0,37.8,30.06,SE,144,0.0,0.0,52,0.00,,---,0.00,VWS V14.01,2013-03-19 11:31:00,
2013-03-19 06:32:00,55.0,37.8,30.06,SE,138,0.0,0.0,52,0.00,,---,0.00,VWS V14.01,2013-03-19 11:32:00,
2013-03-19 06:33:00,56.7,36.7,30.06,ENE,58,0.0,0.0,47,0.00,,---,0.00,VWS V14.01,2013-03-19 11:33:00,
2013-03-19 06:34:00,55.0,37.8,30.06,ENE,61,0.0,0.0,52,0.00,,---,0.00,VWS V14.01,2013-03-19 11:34:00,
2013-03-19 06:35:00,55.0,37.8,30.06,ENE,61,0.0,0.0,52,0.00,,---,0.00,VWS V14.01,2013-03-19 11:35:00,
2013-03-19 06:36:00,55.0,37.8,30.06,ENE,65,0.0,0.0,52,0.00,,---,0.00,VWS V14.01,2013-03-19 11:36:00,
2013-03-19 06:37:00,55.0,37.8,30.06,ENE,65,0.0,0.0,52,0.00,,---,0.00,VWS V14.01,2013-03-19 11:37:00,
2013-03-19 06:38:00,56.5,37.0,30.06,NE,43,0.0,0.0,48,0.00,,---,0.00,VWS V14.01,2013-03-19 11:38:00,
2013-03-19 06:39:00,55.0,37.8,30.06,ENE,77,0.0,0.0,52,0.00,,---,0.00,VWS V14.01,2013-03-19 11:39:00,
2013-03-19 06:40:00,55.0,37.8,30.06,ESE,103,0.0,0.0,52,0.00,,---,0.00,VWS V14.01,2013-03-19 11:40:00,
2013-03-19 06:41:00,55.0,37.8,30.06,ESE,103,0.0,0.0,52,0.00,,---,0.00,VWS V14.01,2013-03-19 11:41:00,
2013-03-19 06:42:00,55.0,37.8,30.06,ESE,103,0.0,0.0,52,0.00,,---,0.00,VWS V14.01,2013-03-19 11:42:00,
2013-03-19 06:43:00,56.3,36.9,30.06,NE,43,0.0,0.0,48,0.00,,---,0.00,VWS V14.01,2013-03-19 11:43:00,
2013-03-19 06:44:00,55.2,37.9,30.06,ESE,103,0.0,0.0,52,0.00,,---,0.00,VWS V14.01,2013-03-19 11:44:00,
2013-03-19 06:45:00,55.2,37.9,30.06,ESE,103,0.0,0.0,52,0.00,,---,0.00,VWS V14.01,2013-03-19 11:45:00,
2013-03-19 06:46:00,55.2,37.9,30.06,ESE,103,0.0,0.0,52,0.00,,---,0.00,VWS V14.01,2013-03-19 11:46:00,
2013-03-19 06:47:00,55.2,37.9,30.06,ESE,103,0.0,0.0,52,0.00,,---,0.00,VWS V14.01,2013-03-19 11:47:00,
2013-03-19 06:48:00,56.1,36.7,30.06,SE,145,0.0,0.0,48,0.00,,---,0.00,VWS V14.01,2013-03-19 11:48:00,
2013-03-19 06:49:00,55.2,37.9,30.06,ESE,103,0.0,0.0,52,0.00,,---,0.00,VWS V14.01,2013-03-19 11:49:00,
2013-03-19 06:50:00,55.2,37.9,30.06,ESE,103,0.0,0.0,52,0.00,,---,0.00,VWS V14.01,2013-03-19 11:50:00,
2013-03-19 06:51:00,55.2,38.4,30.06,SE,135,0.0,0.0,53,0.00,,---,0.00,VWS V14.01,2013-03-19 11:51:00,
2013-03-19 06:52:00,55.2,38.4,30.06,SE,135,0.0,0.0,53,0.00,,---,0.00,VWS V14.01,2013-03-19 11:52:00,
2013-03-19 06:53:00,55.9,37.1,30.06,East,96,0.0,0.0,49,0.00,,---,0.00,VWS V14.01,2013-03-19 11:53:00,
2013-03-19 06:54:00,55.2,38.4,30.06,SE,141,0.0,0.0,53,0.00,,---,0.00,VWS V14.01,2013-03-19 11:54:00,
2013-03-19 06:55:00,55.4,38.1,30.06,SE,141,0.0,0.0,52,0.00,,---,0.00,VWS V14.01,2013-03-19 11:55:00,
2013-03-19 06:56:00,55.4,38.1,30.06,SE,141,0.0,0.0,52,0.00,,---,0.00,VWS V14.01,2013-03-19 11:56:00,
2013-03-19 06:57:00,55.4,38.1,30.06,SE,141,0.0,0.0,52,0.00,,---,0.00,VWS V14.01,2013-03-19 11:57:00,
2013-03-19 06:58:00,55.9,37.1,30.06,NNE,19,0.0,0.0,49,0.00,,---,0.00,VWS V14.01,2013-03-19 11:58:00,
2013-03-19 06:59:00,55.4,38.1,30.06,SE,141,0.0,0.0,52,0.00,,---,0.00,VWS V14.01,2013-03-19 11:59:00,
2013-03-19 07:00:00,55.4,38.1,30.06,SE,141,0.0,0.0,52,0.00,,---,0.00,VWS V14.01,2013-03-19 12:00:00,
2013-03-19 07:01:00,55.4,38.1,30.06,SSE,156,0.0,0.0,52,0.00,,---,0.00,VWS V14.01,2013-03-19 12:01:00,
2013-03-19 07:02:00,55.6,38.2,30.06,SSE,156,0.0,0.0,52,0.00,,---,0.00,VWS V14.01,2013-03-19 12:02:00,
2013-03-19 07:03:00,55.8,37.4,30.06,NE,38,0.0,0.0,50,0.00,,---,0.00,VWS V14.01,2013-03-19 12:03:00,
2013-03-19 07:04:00,55.6,38.2,30.06,South,185,0.0,0.0,52,0.00,,---,0.00,VWS V14.01,2013-03-19 12:04:00,
2013-03-19 07:05:00,55.6,38.2,30.06,SSE,153,0.0,0.0,52,0.00,,---,0.00,VWS V14.01,2013-03-19 12:05:00,
2013-03-19 07:06:00,55.6,38.2,30.06,SE,145,0.0,0.0,52,0.00,,---,0.00,VWS V14.01,2013-03-19 12:06:00,
2013-03-19 07:07:00,55.8,38.4,30.06,SSE,166,0.0,2.7,52,0.00,,---,0.00,VWS V14.01,2013-03-19 12:07:00,
2013-03-19 07:08:00,55.6,37.2,30.06,NE,41,0.0,0.0,50,0.00,,---,0.00,VWS V14.01,2013-03-19 12:08:00,
2013-03-19 07:09:00,55.8,38.4,30.06,SSE,166,0.0,0.0,52,0.00,,---,0.00,VWS V14.01,2013-03-19 12:09:00,
2013-03-19 07:10:00,55.8,38.4,30.06,ESE,119,2.7,2.7,52,0.00,,---,0.00,VWS V14.01,2013-03-19 12:10:00,
2013-03-19 07:11:00,55.9,38.6,30.06,SSE,147,0.0,2.7,52,0.00,,---,0.00,VWS V14.01,2013-03-19 12:11:00,
2013-03-19 07:12:00,55.9,38.6,30.06,SSE,147,0.0,0.0,52,0.00,,---,0.00,VWS V14.01,2013-03-19 12:12:00,
2013-03-19 07:13:00,55.4,37.6,30.06,ESE,115,0.0,0.0,51,0.00,,---,0.00,VWS V14.01,2013-03-19 12:13:00,
2013-03-19 07:14:00,55.9,38.6,30.06,SSE,147,0.0,0.0,52,0.00,,---,0.00,VWS V14.01,2013-03-19 12:14:00,
2013-03-19 07:15:00,55.9,38.6,30.06,SSE,152,0.0,0.0,52,0.00,,---,0.00,VWS V14.01,2013-03-19 12:15:00,
2013-03-19 07:16:00,56.1,38.8,30.03,ESE,117,0.0,0.0,52,0.00,,---,0.00,VWS V14.01,2013-03-19 12:16:00,
2013-03-19 07:17:00,56.1,38.8,30.03,ESE,117,0.0,0.0,52,0.00,,---,0.00,VWS V14.01,2013-03-19 12:17:00,
2013-03-19 07:18:00,55.2,37.9,30.06,ESE,115,0.0,0.0,52,0.00,,---,0.00,VWS V14.01,2013-03-19 12:18:00,
2013-03-19 07:19:00,56.3,38.9,30.03,SE,126,0.0,0.0,52,0.00,,---,0.00,VWS V14.01,2013-03-19 12:19:00,
2013-03-19 07:20:00,56.3,38.4,30.03,South,170,0.0,0.0,51,0.00,,---,0.00,VWS V14.01,2013-03-19 12:20:00,
2013-03-19 07:21:00,56.3,38.4,30.03,SSW,210,2.2,2.2,51,0.00,,---,0.00,VWS V14.01,2013-03-19 12:21:00,
2013-03-19 07:22:00,56.3,38.4,30.03,SSW,210,0.0,2.2,51,0.00,,---,0.00,VWS V14.01,2013-03-19 12:22:00,
2013-03-19 07:23:00,55.2,37.9,30.06,NE,51,0.0,0.0,52,0.00,,---,0.00,VWS V14.01,2013-03-19 12:23:00,
2013-03-19 07:24:00,56.5,38.6,30.03,ESE,102,0.0,0.0,51,0.00,,---,0.00,VWS V14.01,2013-03-19 12:24:00,
2013-03-19 07:25:00,56.5,38.6,30.03,South,169,0.0,0.0,51,0.00,,---,0.00,VWS V14.01,2013-03-19 12:25:00,
2013-03-19 07:27:00,56.7,38.8,30.03,SSE,157,0.0,2.2,51,0.00,,---,0.00,VWS V14.01,2013-03-19 12:27:00,
2013-03-19 07:28:00,55.2,37.9,30.06,East,96,0.0,0.0,52,0.00,,---,0.00,VWS V14.01,2013-03-19 12:28:00,
2013-03-19 07:29:00,56.7,38.2,30.03,SE,138,3.6,6.3,50,0.00,,---,0.00,VWS V14.01,2013-03-19 12:29:00,
2013-03-19 07:30:00,56.7,38.2,30.06,SE,138,0.0,3.6,50,0.00,,---,0.00,VWS V14.01,2013-03-19 12:30:00,
2013-03-19 07:31:00,56.8,38.4,30.06,SE,138,0.0,0.0,50,0.00,,---,0.00,VWS V14.01,2013-03-19 12:31:00,
2013-03-19 07:32:00,56.8,38.4,30.06,SE,138,0.0,0.0,50,0.00,,---,0.00,VWS V14.01,2013-03-19 12:32:00,
2013-03-19 07:33:00,55.0,37.8,30.06,ENE,61,0.0,0.0,52,0.00,,---,0.00,VWS V14.01,2013-03-19 12:33:00,
2013-03-19 07:34:00,56.8,38.4,30.06,SE,138,0.0,0.0,50,0.00,,---,0.00,VWS V14.01,2013-03-19 12:34:00,
2013-03-19 07:35:00,57.0,38.6,30.06,SE,138,0.0,0.0,50,0.00,,---,0.00,VWS V14.01,2013-03-19 12:35:00,
2013-03-19 07:36:00,57.0,38.6,30.06,SE,138,0.0,0.0,50,0.00,,---,0.00,VWS V14.01,2013-03-19 12:36:00,
2013-03-19 07:37:00,57.0,38.6,30.06,SSE,167,0.0,0.0,50,0.00,,---,0.00,VWS V14.01,2013-03-19 12:37:00,
2013-03-19 07:38:00,55.0,37.8,30.06,ENE,77,0.0,0.0,52,0.00,,---,0.00,VWS V14.01,2013-03-19 12:38:00,
2013-03-19 07:39:00,57.2,38.8,30.06,SE,128,0.0,0.0,50,0.00,,---,0.00,VWS V14.01,2013-03-19 12:39:00,
2013-03-19 07:40:00,57.2,38.2,30.06,SE,142,0.0,0.0,49,0.00,,---,0.00,VWS V14.01,2013-03-19 12:40:00,
2013-03-19 07:41:00,57.4,38.4,30.06,SE,142,0.0,0.0,49,0.00,,---,0.00,VWS V14.01,2013-03-19 12:41:00,
2013-03-19 07:42:00,57.4,38.4,30.06,West,269,0.0,0.0,49,0.00,,---,0.00,VWS V14.01,2013-03-19 12:42:00,
2013-03-19 07:43:00,55.2,37.9,30.06,ESE,103,0.0,0.0,52,0.00,,---,0.00,VWS V14.01,2013-03-19 12:43:00,
2013-03-19 07:44:00,57.6,38.6,30.06,SE,138,0.0,0.0,49,0.00,,---,0.00,VWS V14.01,2013-03-19 12:44:00,
2013-03-19 07:45:00,57.6,38.6,30.06,NE,48,0.0,0.0,49,0.00,,---,0.00,VWS V14.01,2013-03-19 12:45:00,
2013-03-19 07:46:00,57.6,38.0,30.06,ENE,69,0.0,0.0,48,0.00,,---,0.00,VWS V14.01,2013-03-19 12:46:00,
2013-03-19 07:47:00,57.7,38.2,30.06,SSE,160,0.0,0.0,48,0.00,,---,0.00,VWS V14.01,2013-03-19 12:47:00,
2013-03-19 07:48:00,55.2,37.9,30.06,ESE,103,0.0,0.0,52,0.00,,---,0.00,VWS V14.01,2013-03-19 12:48:00,
2013-03-19 07:49:00,57.9,38.4,30.06,SE,144,2.7,3.6,48,0.00,,---,0.00,VWS V14.01,2013-03-19 12:49:00,
2013-03-19 07:50:00,57.9,38.4,30.06,SE,144,0.0,2.7,48,0.00,,---,0.00,VWS V14.01,2013-03-19 12:50:00,
2013-03-19 07:51:00,58.1,38.5,30.06,South,187,0.0,2.7,48,0.00,,---,0.00,VWS V14.01,2013-03-19 12:51:00,
2013-03-19 07:52:00,58.1,38.0,30.06,SE,146,0.0,0.0,47,0.00,,---,0.00,VWS V14.01,2013-03-19 12:52:00,
2013-03-19 07:53:00,55.2,38.4,30.06,SE,141,0.0,0.0,53,0.00,,---,0.00,VWS V14.01,2013-03-19 12:53:00,
2013-03-19 07:54:00,58.5,38.3,30.06,SSE,147,3.1,3.1,47,0.00,,---,0.00,VWS V14.01,2013-03-19 12:54:00,
2013-03-19 07:55:00,58.5,38.3,30.06,South,170,0.0,3.1,47,0.00,,---,0.00,VWS V14.01,2013-03-19 12:55:00,
2013-03-19 07:56:00,58.5,38.3,30.06,South,180,2.2,4.9,47,0.00,,---,0.00,VWS V14.01,2013-03-19 12:56:00,
2013-03-19 07:57:00,58.6,38.5,30.06,SE,128,2.7,2.7,47,0.00,,---,0.00,VWS V14.01,2013-03-19 12:57:00,
2013-03-19 07:58:00,55.4,38.1,30.06,SE,141,0.0,0.0,52,0.00,,---,0.00,VWS V14.01,2013-03-19 12:58:00,
2013-03-19 07:59:00,58.8,38.7,30.06,SSE,153,0.0,0.0,47,0.00,,---,0.00,VWS V14.01,2013-03-19 12:59:00,
2013-03-19 08:00:00,58.8,38.7,30.06,South,169,2.7,2.7,47,0.00,,---,0.00,VWS V14.01,2013-03-19 13:00:00,
2013-03-19 08:01:00,58.8,38.1,30.06,SSE,151,0.0,2.7,46,0.00,,---,0.00,VWS V14.01,2013-03-19 13:01:00,
2013-03-19 08:02:00,59.0,38.3,30.06,South,183,0.0,0.0,46,0.00,,---,0.00,VWS V14.01,2013-03-19 13:02:00,
2013-03-19 08:03:00,55.6,38.2,30.06,SSW,195,0.0,0.0,52,0.00,,---,0.00,VWS V14.01,2013-03-19 13:03:00,
2013-03-19 08:04:00,59.2,38.4,30.06,SSW,194,2.2,4.9,46,0.00,,---,0.00,VWS V14.01,2013-03-19 13:04:00,
2013-03-19 08:05:00,59.2,38.4,30.06,SE,145,4.0,4.0,46,0.00,,---,0.00,VWS V14.01,2013-03-19 13:05:00,
2013-03-19 08:06:00,59.4,38.0,30.06,SSE,152,0.0,4.0,45,0.00,,---,0.00,VWS V14.01,2013-03-19 13:06:00,
2013-03-19 08:07:00,59.4,38.0,30.06,South,187,0.0,0.0,45,0.00,,---,0.00,VWS V14.01,2013-03-19 13:07:00,
2013-03-19 08:08:00,55.8,38.4,30.06,SSE,166,0.0,0.0,52,0.00,,---,0.00,VWS V14.01,2013-03-19 13:08:00,
2013-03-19 08:09:00,59.7,38.4,30.06,SSW,211,5.8,5.8,45,0.00,,---,0.00,VWS V14.01,2013-03-19 13:09:00,
2013-03-19 08:10:00,59.7,37.8,30.06,NE,52,4.9,5.8,44,0.00,,---,0.00,VWS V14.01,2013-03-19 13:10:00,
2013-03-19 08:11:00,59.7,37.8,30.06,SSE,158,3.1,4.9,44,0.00,,---,0.00,VWS V14.01,2013-03-19 13:11:00,
2013-03-19 08:12:00,59.9,38.0,30.06,ESE,102,2.7,3.1,44,0.00,,---,0.00,VWS V14.01,2013-03-19 13:12:00,
2013-03-19 08:13:00,55.9,38.6,30.06,SSE,147,0.0,0.0,52,0.00,,---,0.00,VWS V14.01,2013-03-19 13:13:00,
2013-03-19 08:14:00,59.9,38.0,30.06,SSE,151,0.0,2.7,44,0.00,,---,0.00,VWS V14.01,2013-03-19 13:14:00,
2013-03-19 08:15:00,60.1,38.1,30.06,SE,124,0.0,0.0,44,0.00,,---,0.00,VWS V14.01,2013-03-19 13:15:00,
2013-03-19 08:16:00,60.1,38.1,30.06,ESE,123,0.0,0.0,44,0.00,,---,0.00,VWS V14.01,2013-03-19 13:16:00,
2013-03-19 08:17:00,60.3,38.3,30.06,SSE,149,2.2,2.7,44,0.00,,---,0.00,VWS V14.01,2013-03-19 13:17:00,
2013-03-19 08:18:00,56.1,38.8,30.03,ESE,115,0.0,0.0,52,0.00,,---,0.00,VWS V14.01,2013-03-19 13:18:00,
2013-03-19 08:19:00,60.4,38.4,30.06,SE,143,0.0,2.7,44,0.00,,---,0.00,VWS V14.01,2013-03-19 13:19:00,
2013-03-19 08:20:00,60.6,38.0,30.06,ENE,65,2.7,2.7,43,0.00,,---,0.00,VWS V14.01,2013-03-19 13:20:00,
2013-03-19 08:21:00,60.6,38.6,30.06,SSE,166,0.0,2.7,44,0.00,,---,0.00,VWS V14.01,2013-03-19 13:21:00,
2013-03-19 08:22:00,60.8,38.2,30.06,SSE,158,0.0,0.0,43,0.00,,---,0.00,VWS V14.01,2013-03-19 13:22:00,
2013-03-19 08:23:00,56.5,38.6,30.03,SE,145,0.0,0.0,51,0.00,,---,0.00,VWS V14.01,2013-03-19 13:23:00,
2013-03-19 08:24:00,61.2,38.5,30.06,SE,133,3.1,3.1,43,0.00,,---,0.00,VWS V14.01,2013-03-19 13:24:00,
2013-03-19 08:25:00,61.3,38.7,30.06,South,181,2.2,3.1,43,0.00,,---,0.00,VWS V14.01,2013-03-19 13:25:00,
2013-03-19 08:26:00,61.5,38.8,30.06,SSE,159,2.2,2.2,43,0.00,,---,0.00,VWS V14.01,2013-03-19 13:26:00,
2013-03-19 08:27:00,61.7,38.4,30.06,SSE,163,3.1,4.0,42,0.00,,---,0.00,VWS V14.01,2013-03-19 13:27:00,
2013-03-19 08:28:00,56.7,38.2,30.03,SSE,162,6.3,6.3,50,0.00,,---,0.00,VWS V14.01,2013-03-19 13:28:00,
2013-03-19 08:29:00,61.9,38.6,30.06,SE,135,0.0,0.0,42,0.00,,---,0.00,VWS V14.01,2013-03-19 13:29:00,
2013-03-19 08:30:00,62.2,38.9,30.06,SSE,147,0.0,0.0,42,0.00,,---,0.00,VWS V14.01,2013-03-19 13:30:00,
2013-03-19 08:31:00,62.4,39.0,30.06,ESE,113,0.0,4.0,42,0.00,,---,0.00,VWS V14.01,2013-03-19 13:31:00,
2013-03-19 08:32:00,62.6,38.6,30.06,South,190,0.0,0.0,41,0.00,,---,0.00,VWS V14.01,2013-03-19 13:32:00,
2013-03-19 08:33:00,56.8,38.4,30.06,SE,138,0.0,0.0,50,0.00,,---,0.00,VWS V14.01,2013-03-19 13:33:00,
2013-03-19 08:34:00,63.0,38.3,30.06,WSW,249,5.8,5.8,40,0.00,,---,0.00,VWS V14.01,2013-03-19 13:34:00,
2013-03-19 08:35:00,63.3,38.0,30.06,SSE,155,0.0,5.8,39,0.00,,---,0.00,VWS V14.01,2013-03-19 13:35:00,
2013-03-19 08:36:00,63.3,38.0,30.06,SSW,197,3.6,3.6,39,0.00,,---,0.00,VWS V14.01,2013-03-19 13:36:00,
2013-03-19 08:37:00,63.7,38.3,30.06,SSE,157,4.0,4.0,39,0.00,,---,0.00,VWS V14.01,2013-03-19 13:37:00,
2013-03-19 08:38:00,57.2,38.8,30.06,SE,128,0.0,0.0,50,0.00,,---,0.00,VWS V14.01,2013-03-19 13:38:00,
2013-03-19 08:39:00,64.2,38.8,30.06,SSE,163,2.7,3.6,39,0.00,,---,0.00,VWS V14.01,2013-03-19 13:39:00,
2013-03-19 08:40:00,64.4,38.9,30.06,SSE,163,0.0,2.7,39,0.00,,---,0.00,VWS V14.01,2013-03-19 13:40:00,
2013-03-19 08:41:00,64.8,39.2,30.06,South,170,0.0,0.0,39,0.00,,---,0.00,VWS V14.01,2013-03-19 13:41:00,
2013-03-19 08:42:00,64.8,39.2,30.06,SE,139,0.0,0.0,39,0.00,,---,0.00,VWS V14.01,2013-03-19 13:42:00,
2013-03-19 08:43:00,57.6,38.6,30.06,SE,138,0.0,0.0,49,0.00,,---,0.00,VWS V14.01,2013-03-19 13:43:00,
2013-03-19 08:44:00,65.5,39.2,30.06,SE,133,0.0,3.1,38,0.00,,---,0.00,VWS V14.01,2013-03-19 13:44:00,
2013-03-19 08:45:00,65.7,39.4,30.06,SE,133,0.0,0.0,38,0.00,,---,0.00,VWS V14.01,2013-03-19 13:45:00,
2013-03-19 08:46:00,65.8,39.5,30.09,SE,133,0.0,0.0,38,0.00,,---,0.00,VWS V14.01,2013-03-19 13:46:00,
2013-03-19 08:47:00,66.0,39.7,30.09,SE,133,0.0,0.0,38,0.00,,---,0.00,VWS V14.01,2013-03-19 13:47:00,
2013-03-19 08:48:00,57.9,38.4,30.06,SE,134,0.0,3.6,48,0.00,,---,0.00,VWS V14.01,2013-03-19 13:48:00,
2013-03-19 08:49:00,66.4,39.3,30.09,SSE,154,2.2,2.2,37,0.00,,---,0.00,VWS V14.01,2013-03-19 13:49:00,
2013-03-19 08:50:00,66.6,38.8,30.09,SSW,192,5.8,5.8,36,0.00,,---,0.00,VWS V14.01,2013-03-19 13:50:00,
2013-03-19 08:51:00,66.6,38.8,30.09,SSE,166,3.6,5.8,36,0.00,,---,0.00,VWS V14.01,2013-03-19 13:51:00,
2013-03-19 08:52:00,66.9,39.1,30.09,SSE,150,0.0,3.6,36,0.00,,---,0.00,VWS V14.01,2013-03-19 13:52:00,
2013-03-19 08:53:00,58.3,38.2,30.06,SSE,148,2.7,3.1,47,0.00,,---,0.00,VWS V14.01,2013-03-19 13:53:00,
2013-03-19 08:54:00,67.5,39.6,30.09,SSE,150,0.0,0.0,36,0.00,,---,0.00,VWS V14.01,2013-03-19 13:54:00,
2013-03-19 08:55:00,67.5,39.6,30.09,SSE,167,2.2,3.1,36,0.00,,---,0.00,VWS V14.01,2013-03-19 13:55:00,
2013-03-19 08:56:00,67.6,39.0,30.09,SSE,156,5.4,5.4,35,0.00,,---,0.00,VWS V14.01,2013-03-19 13:56:00,
2013-03-19 08:57:00,67.6,39.0,30.09,South,186,4.9,5.8,35,0.00,,---,0.00,VWS V14.01,2013-03-19 13:57:00,
2013-03-19 08:58:00,58.8,38.7,30.06,SSE,153,0.0,0.0,47,0.00,,---,0.00,VWS V14.01,2013-03-19 13:58:00,
2013-03-19 08:59:00,67.6,39.0,30.09,ESE,103,0.0,5.8,35,0.00,,---,0.00,VWS V14.01,2013-03-19 13:59:00,
2013-03-19 09:00:00,67.8,39.2,30.09,SSE,149,4.9,4.9,35,0.00,,---,0.00,VWS V14.01,2013-03-19 14:00:00,
2013-03-19 09:01:00,68.0,38.6,30.06,SSE,147,2.2,4.9,34,0.00,,---,0.00,VWS V14.01,2013-03-19 14:01:00,
2013-03-19 09:02:00,68.0,38.6,30.06,South,182,6.3,6.3,34,0.00,,---,0.00,VWS V14.01,2013-03-19 14:02:00,
2013-03-19 09:03:00,59.2,38.4,30.06,South,169,0.0,4.9,46,0.00,,---,0.00,VWS V14.01,2013-03-19 14:03:00,
2013-03-19 09:04:00,68.0,38.6,30.06,South,173,3.6,3.6,34,0.00,,---,0.00,VWS V14.01,2013-03-19 14:04:00,
2013-03-19 09:05:00,68.0,38.6,30.06,SSE,166,5.4,6.3,34,0.00,,---,0.00,VWS V14.01,2013-03-19 14:05:00,
2013-03-19 09:06:00,67.8,38.5,30.06,SW,228,5.8,8.7,34,0.00,,---,0.00,VWS V14.01,2013-03-19 14:06:00,
2013-03-19 09:07:00,67.6,38.3,30.06,SSW,193,6.3,6.3,34,0.00,,---,0.00,VWS V14.01,2013-03-19 14:07:00,
2013-03-19 09:08:00,59.5,38.2,30.06,SE,139,3.6,3.6,45,0.00,,---,0.00,VWS V14.01,2013-03-19 14:08:00,
2013-03-19 09:09:00,68.2,38.8,30.06,SSW,196,3.1,3.1,34,0.00,,---,0.00,VWS V14.01,2013-03-19 14:09:00,
2013-03-19 09:10:00,68.4,38.9,30.06,SSW,201,2.7,3.6,34,0.00,,---,0.00,VWS V14.01,2013-03-19 14:10:00,
2013-03-19 09:11:00,68.5,38.3,30.06,SE,132,5.8,6.3,33,0.00,,---,0.00,VWS V14.01,2013-03-19 14:11:00,
2013-03-19 09:12:00,68.5,39.1,30.06,SSE,157,2.7,5.8,34,0.00,,---,0.00,VWS V14.01,2013-03-19 14:12:00,
2013-03-19 09:13:00,59.9,38.0,30.06,SSE,151,0.0,2.7,44,0.00,,---,0.00,VWS V14.01,2013-03-19 14:13:00,
2013-03-19 09:14:00,68.9,38.6,30.06,SSW,192,3.6,4.0,33,0.00,,---,0.00,VWS V14.01,2013-03-19 14:14:00,
2013-03-19 09:15:00,68.9,38.6,30.06,SE,130,2.7,4.9,33,0.00,,---,0.00,VWS V14.01,2013-03-19 14:15:00,
2013-03-19 09:16:00,69.1,38.8,30.06,SSE,157,8.1,8.1,33,0.00,,---,0.00,VWS V14.01,2013-03-19 14:16:00,
2013-03-19 09:17:00,69.3,39.7,30.06,South,169,3.6,8.1,34,0.00,,---,0.00,VWS V14.01,2013-03-19 14:17:00,
2013-03-19 09:18:00,60.4,38.4,30.06,SE,143,2.7,2.7,44,0.00,,---,0.00,VWS V14.01,2013-03-19 14:18:00,
2013-03-19 09:19:00,69.4,39.1,30.06,SE,140,11.0,11.0,33,0.00,,---,0.00,VWS V14.01,2013-03-19 14:19:00,
2013-03-19 09:20:00,69.3,39.0,30.06,South,188,7.6,11.0,33,0.00,,---,0.00,VWS V14.01,2013-03-19 14:20:00,
2013-03-19 09:21:00,69.1,38.8,30.06,South,175,3.1,7.6,33,0.00,,---,0.00,VWS V14.01,2013-03-19 14:21:00,
2013-03-19 09:22:00,69.1,38.8,30.06,SSE,149,3.6,5.4,33,0.00,,---,0.00,VWS V14.01,2013-03-19 14:22:00,
2013-03-19 09:23:00,61.0,38.3,30.06,SSE,154,0.0,0.0,43,0.00,,---,0.00,VWS V14.01,2013-03-19 14:23:00,
2013-03-19 09:24:00,69.3,39.0,30.06,SE,141,8.1,8.3,33,0.00,,---,0.00,VWS V14.01,2013-03-19 14:24:00,
2013-03-19 09:25:00,69.3,39.0,30.06,SSE,162,3.1,8.1,33,0.00,,---,0.00,VWS V14.01,2013-03-19 14:25:00,
2013-03-19 09:26:00,69.6,39.3,30.06,SSE,154,2.7,4.0,33,0.00,,---,0.00,VWS V14.01,2013-03-19 14:26:00,
2013-03-19 09:27:00,70.0,39.6,30.06,SSE,150,2.7,3.1,33,0.00,,---,0.00,VWS V14.01,2013-03-19 14:27:00,
2013-03-19 09:28:00,61.9,38.6,30.06,SE,135,0.0,0.0,42,0.00,,---,0.00,VWS V14.01,2013-03-19 14:28:00,
2013-03-19 09:29:00,70.3,39.9,30.06,SSE,157,4.0,4.9,33,0.00,,---,0.00,VWS V14.01,2013-03-19 14:29:00,
2013-03-19 09:30:00,70.5,40.1,30.06,South,169,2.7,4.0,33,0.00,,---,0.00,VWS V14.01,2013-03-19 14:30:00,
2013-03-19 09:31:00,70.7,40.2,30.06,ESE,111,4.9,5.4,33,0.00,,---,0.00,VWS V14.01,2013-03-19 14:31:00,
2013-03-19 09:32:00,70.7,40.2,30.06,SE,143,2.7,4.9,33,0.00,,---,0.00,VWS V14.01,2013-03-19 14:32:00,
2013-03-19 09:33:00,63.0,38.3,30.06,SSW,195,5.8,5.8,40,0.00,,---,0.00,VWS V14.01,2013-03-19 14:33:00,
2013-03-19 09:34:00,71.2,40.7,30.06,South,176,0.0,3.6,33,0.00,,---,0.00,VWS V14.01,2013-03-19 14:34:00,
2013-03-19 09:35:00,71.4,40.8,30.06,South,178,6.3,6.3,33,0.00,,---,0.00,VWS V14.01,2013-03-19 14:35:00,
2013-03-19 09:36:00,71.4,40.8,30.06,SE,142,2.7,7.6,33,0.00,,---,0.00,VWS V14.01,2013-03-19 14:36:00,
2013-03-19 09:37:00,71.4,40.8,30.06,SSE,152,3.6,5.8,33,0.00,,---,0.00,VWS V14.01,2013-03-19 14:37:00,
2013-03-19 09:38:00,64.0,38.6,30.06,SSE,163,0.0,3.6,39,0.00,,---,0.00,VWS V14.01,2013-03-19 14:38:00,
2013-03-19 09:39:00,70.9,39.6,30.06,South,176,3.6,10.1,32,0.00,,---,0.00,VWS V14.01,2013-03-19 14:39:00,
2013-03-19 09:40:00,71.1,39.7,30.06,WSW,253,5.4,5.4,32,0.00,,---,0.00,VWS V14.01,2013-03-19 14:40:00,
2013-03-19 09:41:00,71.2,39.9,30.06,South,182,3.1,5.4,32,0.00,,---,0.00,VWS V14.01,2013-03-19 14:41:00,
2013-03-19 09:42:00,71.4,40.0,30.06,SSE,166,5.8,8.7,32,0.00,,---,0.00,VWS V14.01,2013-03-19 14:42:00,
2013-03-19 09:43:00,65.5,39.2,30.06,SE,133,2.2,3.1,38,0.00,,---,0.00,VWS V14.01,2013-03-19 14:43:00,
2013-03-19 09:44:00,71.4,40.0,30.06,SW,232,3.6,6.3,32,0.00,,---,0.00,VWS V14.01,2013-03-19 14:44:00,
2013-03-19 09:45:00,71.2,39.9,30.06,SSW,203,4.9,11.0,32,0.00,,---,0.00,VWS V14.01,2013-03-19 14:45:00,
2013-03-19 09:46:00,71.4,40.0,30.06,South,178,3.1,5.8,32,0.00,,---,0.00,VWS V14.01,2013-03-19 14:46:00,
2013-03-19 09:47:00,71.6,40.2,30.06,South,181,4.0,5.8,32,0.00,,---,0.00,VWS V14.01,2013-03-19 14:47:00,
2013-03-19 09:48:00,66.4,39.3,30.09,East,87,0.0,0.0,37,0.00,,---,0.00,VWS V14.01,2013-03-19 14:48:00,
2013-03-19 09:49:00,72.1,40.7,30.06,SW,220,6.3,6.3,32,0.00,,---,0.00,VWS V14.01,2013-03-19 14:49:00,
2013-03-19 09:50:00,72.1,40.7,30.06,SSE,166,4.9,6.3,32,0.00,,---,0.00,VWS V14.01,2013-03-19 14:50:00,
2013-03-19 09:51:00,72.0,40.5,30.06,South,188,6.3,6.3,32,0.00,,---,0.00,VWS V14.01,2013-03-19 14:51:00,
2013-03-19 09:52:00,72.1,40.7,30.06,SW,223,3.6,6.3,32,0.00,,---,0.00,VWS V14.01,2013-03-19 14:52:00,
2013-03-19 09:53:00,67.3,39.4,30.09,SSE,150,0.0,0.0,36,0.00,,---,0.00,VWS V14.01,2013-03-19 14:53:00,
2013-03-19 09:54:00,72.3,40.8,30.06,South,185,2.7,6.3,32,0.00,,---,0.00,VWS V14.01,2013-03-19 14:54:00,
2013-03-19 09:55:00,72.9,41.3,30.06,South,173,2.7,2.7,32,0.00,,---,0.00,VWS V14.01,2013-03-19 14:55:00,
2013-03-19 09:56:00,73.0,41.5,30.06,SSE,157,2.7,3.1,32,0.00,,---,0.00,VWS V14.01,2013-03-19 14:56:00,
2013-03-19 09:57:00,67.6,39.0,30.09,ESE,103,4.9,5.8,35,0.00,,---,0.00,VWS V14.01,2013-03-19 14:57:00,
2013-03-19 09:58:00,73.4,41.0,30.06,SSE,164,2.2,3.1,31,0.00,,---,0.00,VWS V14.01,2013-03-19 14:58:00,
2013-03-19 09:59:00,73.6,41.9,30.06,SE,145,3.1,3.1,32,0.00,,---,0.00,VWS V14.01,2013-03-19 14:59:00,
2013-03-19 10:00:00,73.8,42.1,30.06,NE,51,3.1,3.1,32,0.00,,---,0.00,VWS V14.01,2013-03-19 15:00:00,
2013-03-19 10:01:00,73.9,42.2,30.06,East,86,0.0,3.1,32,0.00,,---,0.00,VWS V14.01,2013-03-19 15:01:00,
2013-03-19 10:02:00,68.0,38.6,30.06,SSE,147,3.6,3.6,34,0.00,,---,0.00,VWS V14.01,2013-03-19 15:02:00,
2013-03-19 10:03:00,74.7,42.9,30.06,SW,216,0.0,0.0,32,0.00,,---,0.00,VWS V14.01,2013-03-19 15:03:00,
2013-03-19 10:04:00,74.8,43.0,30.06,South,176,0.0,0.0,32,0.00,,---,0.00,VWS V14.01,2013-03-19 15:04:00,
2013-03-19 10:05:00,75.0,43.2,30.06,SSE,147,0.0,3.1,32,0.00,,---,0.00,VWS V14.01,2013-03-19 15:05:00,
2013-03-19 10:06:00,75.4,42.7,30.06,SSE,155,4.0,4.0,31,0.00,,---,0.00,VWS V14.01,2013-03-19 15:06:00,
2013-03-19 10:07:00,75.4,42.7,30.06,SSW,204,3.6,4.0,31,0.00,,---,0.00,VWS V14.01,2013-03-19 15:07:00,
2013-03-19 10:08:00,67.8,38.5,30.06,SSE,159,2.7,3.1,34,0.00,,---,0.00,VWS V14.01,2013-03-19 15:08:00,
2013-03-19 10:09:00,75.4,42.7,30.06,SSE,153,0.0,2.2,31,0.00,,---,0.00,VWS V14.01,2013-03-19 15:09:00,
2013-03-19 10:10:00,75.7,43.0,30.06,SSE,153,0.0,0.0,31,0.00,,---,0.00,VWS V14.01,2013-03-19 15:10:00,
2013-03-19 10:11:00,75.7,43.0,30.06,NE,53,0.0,0.0,31,0.00,,---,0.00,VWS V14.01,2013-03-19 15:11:00,
2013-03-19 10:12:00,76.1,43.3,30.06,South,180,0.0,0.0,31,0.00,,---,0.00,VWS V14.01,2013-03-19 15:12:00,
2013-03-19 10:13:00,68.9,39.4,30.06,SSE,152,3.1,3.6,34,0.00,,---,0.00,VWS V14.01,2013-03-19 15:13:00,
2013-03-19 10:14:00,75.9,43.2,30.06,SSE,163,3.6,3.6,31,0.00,,---,0.00,VWS V14.01,2013-03-19 15:14:00,
2013-03-19 10:15:00,75.9,43.2,30.06,SSE,149,2.7,3.6,31,0.00,,---,0.00,VWS V14.01,2013-03-19 15:15:00,
2013-03-19 10:16:00,75.9,43.2,30.06,SSE,152,0.0,3.1,31,0.00,,---,0.00,VWS V14.01,2013-03-19 15:16:00,
2013-03-19 10:17:00,76.1,43.3,30.06,SE,133,0.0,2.7,31,0.00,,---,0.00,VWS V14.01,2013-03-19 15:17:00,
2013-03-19 10:18:00,69.4,39.1,30.06,SW,228,3.6,6.3,33,0.00,,---,0.00,VWS V14.01,2013-03-19 15:18:00,
2013-03-19 10:19:00,76.8,43.9,30.06,South,178,2.7,3.6,31,0.00,,---,0.00,VWS V14.01,2013-03-19 15:19:00,
2013-03-19 10:20:00,76.6,43.8,30.06,SSE,151,2.2,3.6,31,0.00,,---,0.00,VWS V14.01,2013-03-19 15:20:00,
2013-03-19 10:21:00,76.8,43.9,30.06,SE,145,2.2,3.1,31,0.00,,---,0.00,VWS V14.01,2013-03-19 15:21:00,
2013-03-19 10:22:00,69.3,39.0,30.06,SSE,167,8.3,8.3,33,0.00,,---,0.00,VWS V14.01,2013-03-19 15:22:00,
2013-03-19 10:23:00,77.2,44.2,30.06,NE,52,0.0,0.0,31,0.00,,---,0.00,VWS V14.01,2013-03-19 15:23:00,
2013-03-19 10:24:00,77.4,44.4,30.06,SSE,152,0.0,0.0,31,0.00,,---,0.00,VWS V14.01,2013-03-19 15:24:00,
2013-03-19 10:25:00,77.4,43.5,30.06,SSW,204,6.3,8.1,30,0.00,,---,0.00,VWS V14.01,2013-03-19 15:25:00,
2013-03-19 10:26:00,77.2,43.4,30.06,South,180,3.6,6.3,30,0.00,,---,0.00,VWS V14.01,2013-03-19 15:26:00,
2013-03-19 10:27:00,70.3,39.9,30.06,SSE,157,4.0,4.9,33,0.00,,---,0.00,VWS V14.01,2013-03-19 15:27:00,
2013-03-19 10:28:00,76.6,43.8,30.06,SSE,157,0.0,2.7,31,0.00,,---,0.00,VWS V14.01,2013-03-19 15:28:00,
2013-03-19 10:29:00,76.8,43.9,30.06,ENE,74,2.7,2.7,31,0.00,,---,0.00,VWS V14.01,2013-03-19 15:29:00,
2013-03-19 10:30:00,77.0,43.2,30.06,ENE,74,0.0,3.1,30,0.00,,---,0.00,VWS V14.01,2013-03-19 15:30:00,
2013-03-19 10:31:00,77.4,43.5,30.09,SSE,149,0.0,0.0,30,0.00,,---,0.00,VWS V14.01,2013-03-19 15:31:00,
2013-03-19 10:32:00,71.2,40.7,30.06,South,176,3.6,3.6,33,0.00,,---,0.00,VWS V14.01,2013-03-19 15:32:00,
2013-03-19 10:33:00,77.7,44.7,30.09,SSE,149,0.0,0.0,31,0.00,,---,0.00,VWS V14.01,2013-03-19 15:33:00,
2013-03-19 10:34:00,78.1,44.2,30.09,South,178,4.0,4.0,30,0.00,,---,0.00,VWS V14.01,2013-03-19 15:34:00,
2013-03-19 10:35:00,78.3,44.3,30.09,SSE,149,3.6,4.0,30,0.00,,---,0.00,VWS V14.01,2013-03-19 15:35:00,
2013-03-19 10:36:00,78.4,44.5,30.09,SSE,157,2.7,3.6,30,0.00,,---,0.00,VWS V14.01,2013-03-19 15:36:00,
2013-03-19 10:37:00,70.9,39.6,30.06,South,190,6.3,10.1,32,0.00,,---,0.00,VWS V14.01,2013-03-19 15:37:00,
2013-03-19 10:38:00,78.6,44.6,30.09,SSE,153,0.0,2.7,30,0.00,,---,0.00,VWS V14.01,2013-03-19 15:38:00,
2013-03-19 10:39:00,78.6,44.6,30.09,SSE,166,5.8,5.8,30,0.00,,---,0.00,VWS V14.01,2013-03-19 15:39:00,
2013-03-19 10:40:00,78.1,44.2,30.09,SW,230,5.4,5.8,30,0.00,,---,0.00,VWS V14.01,2013-03-19 15:40:00,
2013-03-19 10:41:00,78.1,44.2,30.09,ESE,113,3.1,5.4,30,0.00,,---,0.00,VWS V14.01,2013-03-19 15:41:00,
2013-03-19 10:42:00,71.4,40.0,30.06,South,183,4.0,6.3,32,0.00,,---,0.00,VWS V14.01,2013-03-19 15:42:00,
2013-03-19 10:43:00,78.3,44.3,30.09,WSW,243,0.0,0.0,30,0.00,,---,0.00,VWS V14.01,2013-03-19 15:43:00,
2013-03-19 10:44:00,78.4,44.5,30.09,SSE,156,0.0,0.0,30,0.00,,---,0.00,VWS V14.01,2013-03-19 15:44:00,
2013-03-19 10:45:00,79.0,44.9,30.06,SE,141,0.0,0.0,30,0.00,,---,0.00,VWS V14.01,2013-03-19 15:45:00,
2013-03-19 10:46:00,79.2,45.1,30.06,SW,216,2.2,3.6,30,0.00,,---,0.00,VWS V14.01,2013-03-19 15:46:00,
2013-03-19 10:47:00,79.0,44.9,30.06,South,187,5.8,5.8,30,0.00,,---,0.00,VWS V14.01,2013-03-19 15:47:00,
2013-03-19 10:48:00,72.1,40.7,30.06,SE,137,4.0,4.0,32,0.00,,---,0.00,VWS V14.01,2013-03-19 15:48:00,
2013-03-19 10:49:00,79.0,44.9,30.06,SE,140,2.2,3.6,30,0.00,,---,0.00,VWS V14.01,2013-03-19 15:49:00,
2013-03-19 10:50:00,79.2,45.1,30.06,SE,140,0.0,2.2,30,0.00,,---,0.00,VWS V14.01,2013-03-19 15:50:00,
2013-03-19 10:51:00,79.3,45.2,30.06,ENE,76,0.0,0.0,30,0.00,,---,0.00,VWS V14.01,2013-03-19 15:51:00,
2013-03-19 10:52:00,79.3,45.2,30.06,SSE,157,0.0,0.0,30,0.00,,---,0.00,VWS V14.01,2013-03-19 15:52:00,
2013-03-19 10:53:00,72.3,40.8,30.06,South,185,2.7,6.3,32,0.00,,---,0.00,VWS V14.01,2013-03-19 15:53:00,
2013-03-19 10:54:00,79.9,45.7,30.06,SSE,156,0.0,0.0,30,0.00,,---,0.00,VWS V14.01,2013-03-19 15:54:00,
2013-03-19 10:55:00,80.1,45.9,30.06,South,189,0.0,0.0,30,0.00,,---,0.00,VWS V14.01,2013-03-19 15:55:00,
2013-03-19 10:56:00,80.2,46.0,30.06,South,175,0.0,0.0,30,0.00,,---,0.00,VWS V14.01,2013-03-19 15:56:00,
2013-03-19 10:57:00,80.2,46.0,30.06,SSW,208,0.0,0.0,30,0.00,,---,0.00,VWS V14.01,2013-03-19 15:57:00,
2013-03-19 10:58:00,73.6,41.9,30.06,ESE,123,0.0,2.7,32,0.00,,---,0.00,VWS V14.01,2013-03-19 15:58:00,
2013-03-19 10:59:00,79.5,44.5,30.06,SSE,150,2.7,5.4,29,0.00,,---,0.00,VWS V14.01,2013-03-19 15:59:00,
2013-03-19 11:00:00,79.5,45.4,30.06,WSW,256,3.6,3.6,30,0.00,,---,0.00,VWS V14.01,2013-03-19 16:00:00,
2013-03-19 11:01:00,79.5,45.4,30.09,SSW,193,3.1,3.6,30,0.00,,---,0.00,VWS V14.01,2013-03-19 16:01:00,
2013-03-19 11:02:00,74.8,43.0,30.06,SSW,194,0.0,0.0,32,0.00,,---,0.00,VWS V14.01,2013-03-19 16:02:00,
2013-03-19 11:03:00,79.9,45.7,30.09,South,170,3.6,4.0,30,0.00,,---,0.00,VWS V14.01,2013-03-19 16:03:00,
2013-03-19 11:04:00,80.1,45.9,30.09,NE,38,0.0,3.6,30,0.00,,---,0.00,VWS V14.01,2013-03-19 16:04:00,
2013-03-19 11:05:00,80.1,45.9,30.09,South,175,5.4,6.3,30,0.00,,---,0.00,VWS V14.01,2013-03-19 16:05:00,
2013-03-19 11:06:00,79.7,45.6,30.09,South,189,2.7,5.4,30,0.00,,---,0.00,VWS V14.01,2013-03-19 16:06:00,
2013-03-19 11:07:00,75.4,42.7,30.06,SSE,153,0.0,2.2,31,0.00,,---,0.00,VWS V14.01,2013-03-19 16:07:00,
2013-03-19 11:08:00,79.5,44.5,30.09,South,185,3.1,4.0,29,0.00,,---,0.00,VWS V14.01,2013-03-19 16:08:00,
2013-03-19 11:09:00,79.3,44.3,30.09,South,171,2.7,3.6,29,0.00,,---,0.00,VWS V14.01,2013-03-19 16:09:00,
2013-03-19 11:10:00,79.3,44.3,30.09,SSW,195,3.1,5.4,29,0.00,,---,0.00,VWS V14.01,2013-03-19 16:10:00,
2013-03-19 11:11:00,79.2,44.2,30.09,SW,236,0.0,3.1,29,0.00,,---,0.00,VWS V14.01,2013-03-19 16:11:00,
2013-03-19 11:12:00,79.0,44.0,30.09,SSE,157,3.1,3.6,29,0.00,,---,0.00,VWS V14.01,2013-03-19 16:12:00,
2013-03-19 11:13:00,76.1,43.3,30.06,South,180,3.6,3.6,31,0.00,,---,0.00,VWS V14.01,2013-03-19 16:13:00,
2013-03-19 11:14:00,79.7,45.6,30.09,SSE,149,0.0,0.0,30,0.00,,---,0.00,VWS V14.01,2013-03-19 16:14:00,
2013-03-19 11:15:00,79.9,45.7,30.09,SSW,192,3.1,3.6,30,0.00,,---,0.00,VWS V14.01,2013-03-19 16:15:00,
2013-03-19 11:16:00,79.9,45.7,30.06,SW,227,0.0,3.1,30,0.00,,---,0.00,VWS V14.01,2013-03-19 16:16:00,
2013-03-19 11:17:00,76.6,43.8,30.06,SE,131,2.2,3.6,31,0.00,,---,0.00,VWS V14.01,2013-03-19 16:17:00,
2013-03-19 11:18:00,79.9,45.7,30.06,SSW,198,3.1,5.8,30,0.00,,---,0.00,VWS V14.01,2013-03-19 16:18:00,
2013-03-19 11:19:00,79.5,44.5,30.06,SW,230,5.4,6.3,29,0.00,,---,0.00,VWS V14.01,2013-03-19 16:19:00,
2013-03-19 11:20:00,79.2,44.2,30.06,South,183,2.7,5.4,29,0.00,,---,0.00,VWS V14.01,2013-03-19 16:20:00,
2013-03-19 11:21:00,79.5,45.4,30.06,SSW,197,0.0,3.1,30,0.00,,---,0.00,VWS V14.01,2013-03-19 16:21:00,
2013-03-19 11:22:00,77.4,44.4,30.06,SSE,152,0.0,0.0,31,0.00,,---,0.00,VWS V14.01,2013-03-19 16:22:00,
2013-03-19 11:23:00,79.9,45.7,30.06,South,172,0.0,3.1,30,0.00,,---,0.00,VWS V14.01,2013-03-19 16:23:00,
2013-03-19 11:24:00,80.2,46.0,30.06,SSE,158,2.7,4.0,30,0.00,,---,0.00,VWS V14.01,2013-03-19 16:24:00,
2013-03-19 11:25:00,80.4,46.2,30.06,SW,235,2.2,2.7,30,0.00,,---,0.00,VWS V14.01,2013-03-19 16:25:00,
2013-03-19 11:26:00,80.2,45.1,30.06,WSW,244,7.6,7.6,29,0.00,,---,0.00,VWS V14.01,2013-03-19 16:26:00,
2013-03-19 11:27:00,76.8,43.9,30.06,NE,56,2.7,2.7,31,0.00,,---,0.00,VWS V14.01,2013-03-19 16:27:00,
2013-03-19 11:28:00,79.5,44.5,30.06,South,176,2.2,6.3,29,0.00,,---,0.00,VWS V14.01,2013-03-19 16:28:00,
2013-03-19 11:29:00,79.7,45.6,30.06,South,184,0.0,2.2,30,0.00,,---,0.00,VWS V14.01,2013-03-19 16:29:00,
2013-03-19 11:30:00,80.1,45.9,30.06,South,173,0.0,0.0,30,0.00,,---,0.00,VWS V14.01,2013-03-19 16:30:00,
2013-03-19 11:31:00,80.2,46.0,30.06,South,173,0.0,0.0,30,0.00,,---,0.00,VWS V14.01,2013-03-19 16:31:00,
2013-03-19 11:32:00,77.9,44.9,30.09,SSE,149,0.0,0.0,31,0.00,,---,0.00,VWS V14.01,2013-03-19 16:32:00,
2013-03-19 11:33:00,80.8,45.6,30.06,SSE,158,4.0,4.0,29,0.00,,---,0.00,VWS V14.01,2013-03-19 16:33:00,
2013-03-19 11:34:00,81.0,46.6,30.06,South,177,2.7,4.0,30,0.00,,---,0.00,VWS V14.01,2013-03-19 16:34:00,
2013-03-19 11:35:00,81.1,46.8,30.06,SSE,147,0.0,4.0,30,0.00,,---,0.00,VWS V14.01,2013-03-19 16:35:00,
2013-03-19 11:36:00,81.3,47.0,30.06,South,184,0.0,3.1,30,0.00,,---,0.00,VWS V14.01,2013-03-19 16:36:00,
2013-03-19 11:37:00,78.6,44.6,30.09,South,186,5.4,5.4,30,0.00,,---,0.00,VWS V14.01,2013-03-19 16:37:00,
2013-03-19 11:38:00,81.7,46.4,30.06,South,178,6.3,6.3,29,0.00,,---,0.00,VWS V14.01,2013-03-19 16:38:00,
2013-03-19 11:39:00,81.1,45.9,30.06,SE,130,3.1,6.3,29,0.00,,---,0.00,VWS V14.01,2013-03-19 16:39:00,
2013-03-19 11:40:00,81.0,45.8,30.06,ENE,63,3.1,3.1,29,0.00,,---,0.00,VWS V14.01,2013-03-19 16:40:00,
2013-03-19 11:41:00,81.1,45.9,30.06,ENE,62,0.0,3.1,29,0.00,,---,0.00,VWS V14.01,2013-03-19 16:41:00,
2013-03-19 11:42:00,81.1,45.9,30.06,ENE,72,0.0,0.0,29,0.00,,---,0.00,VWS V14.01,2013-03-19 16:42:00,
2013-03-19 11:43:00,78.4,44.5,30.09,South,185,0.0,0.0,30,0.00,,---,0.00,VWS V14.01,2013-03-19 16:43:00,
2013-03-19 11:44:00,81.3,46.1,30.06,South,170,4.9,5.8,29,0.00,,---,0.00,VWS V14.01,2013-03-19 16:44:00,
2013-03-19 11:45:00,81.3,46.1,30.06,South,175,2.2,4.9,29,0.00,,---,0.00,VWS V14.01,2013-03-19 16:45:00,
2013-03-19 11:46:00,81.5,46.2,30.06,South,175,0.0,2.2,29,0.00,,---,0.00,VWS V14.01,2013-03-19 16:46:00,
2013-03-19 11:47:00,81.7,46.4,30.06,SSW,212,3.1,3.1,29,0.00,,---,0.00,VWS V14.01,2013-03-19 16:47:00,
2013-03-19 11:48:00,78.8,44.8,30.06,SSE,150,2.2,3.6,30,0.00,,---,0.00,VWS V14.01,2013-03-19 16:48:00,
2013-03-19 11:49:00,81.1,45.9,30.06,SSW,193,5.4,6.3,29,0.00,,---,0.00,VWS V14.01,2013-03-19 16:49:00,
2013-03-19 11:50:00,81.1,45.9,30.06,ESE,120,3.6,5.4,29,0.00,,---,0.00,VWS V14.01,2013-03-19 16:50:00,
2013-03-19 11:51:00,81.3,46.1,30.06,ESE,116,0.0,3.6,29,0.00,,---,0.00,VWS V14.01,2013-03-19 16:51:00,
2013-03-19 11:52:00,81.0,45.8,30.06,NNW,327,0.0,0.0,29,0.00,,---,0.00,VWS V14.01,2013-03-19 16:52:00,
2013-03-19 11:53:00,79.9,45.7,30.06,SSE,156,0.0,0.0,30,0.00,,---,0.00,VWS V14.01,2013-03-19 16:53:00,
2013-03-19 11:54:00,81.3,46.1,30.06,WSW,244,5.4,5.4,29,0.00,,---,0.00,VWS V14.01,2013-03-19 16:54:00,
2013-03-19 11:55:00,81.1,45.9,30.06,SW,223,3.6,5.4,29,0.00,,---,0.00,VWS V14.01,2013-03-19 16:55:00,
2013-03-19 11:56:00,81.1,45.9,30.06,South,170,4.0,4.0,29,0.00,,---,0.00,VWS V14.01,2013-03-19 16:56:00,
2013-03-19 11:57:00,81.1,45.9,30.06,South,182,5.4,5.4,29,0.00,,---,0.00,VWS V14.01,2013-03-19 16:57:00,
2013-03-19 11:58:00,79.5,44.5,30.06,SSW,195,4.0,5.4,29,0.00,,---,0.00,VWS V14.01,2013-03-19 16:58:00,
2013-03-19 11:59:00,81.0,45.8,30.06,South,170,0.0,3.1,29,0.00,,---,0.00,VWS V14.01,2013-03-19 16:59:00,
2013-03-19 12:00:00,81.1,46.8,30.06,South,171,2.7,4.0,30,0.00,,---,0.00,VWS V14.01,2013-03-19 17:00:00,
2013-03-19 12:01:00,81.0,45.8,30.06,SW,222,3.6,4.0,29,0.00,,---,0.00,VWS V14.01,2013-03-19 17:01:00,
2013-03-19 12:02:00,81.1,46.8,30.06,SSE,151,0.0,3.6,30,0.00,,---,0.00,VWS V14.01,2013-03-19 17:02:00,
2013-03-19 12:03:00,79.9,45.7,30.09,NNE,15,0.0,3.6,30,0.00,,---,0.00,VWS V14.01,2013-03-19 17:03:00,
2013-03-19 12:04:00,81.5,47.1,30.06,SE,139,0.0,0.0,30,0.00,,---,0.00,VWS V14.01,2013-03-19 17:04:00,
2013-03-19 12:05:00,81.7,47.3,30.06,SSE,155,0.0,0.0,30,0.00,,---,0.00,VWS V14.01,2013-03-19 17:05:00,
2013-03-19 12:06:00,81.7,47.3,30.06,SSE,155,2.7,2.7,30,0.00,,---,0.00,VWS V14.01,2013-03-19 17:06:00,
2013-03-19 12:07:00,79.3,44.4,30.09,South,185,3.6,3.6,29,0.00,,---,0.00,VWS V14.01,2013-03-19 17:07:00,
2013-03-19 12:08:00,81.7,47.3,30.06,ENE,78,2.2,3.6,30,0.00,,---,0.00,VWS V14.01,2013-03-19 17:08:00,
2013-03-19 12:09:00,81.9,47.4,30.06,East,96,0.0,2.2,30,0.00,,---,0.00,VWS V14.01,2013-03-19 17:09:00,
2013-03-19 12:10:00,82.0,47.6,30.06,SSE,151,0.0,0.0,30,0.00,,---,0.00,VWS V14.01,2013-03-19 17:10:00,
2013-03-19 12:11:00,82.0,47.6,30.06,SE,145,2.2,3.6,30,0.00,,---,0.00,VWS V14.01,2013-03-19 17:11:00,
2013-03-19 12:12:00,79.7,45.6,30.09,SE,142,0.0,0.0,30,0.00,,---,0.00,VWS V14.01,2013-03-19 17:12:00,
2013-03-19 12:13:00,82.0,47.6,30.06,NW,305,0.0,2.7,30,0.00,,---,0.00,VWS V14.01,2013-03-19 17:13:00,
2013-03-19 12:14:00,81.9,47.4,30.06,ENE,67,0.0,0.0,30,0.00,,---,0.00,VWS V14.01,2013-03-19 17:14:00,
2013-03-19 12:15:00,81.9,47.4,30.06,SSW,195,0.0,0.0,30,0.00,,---,0.00,VWS V14.01,2013-03-19 17:15:00,
2013-03-19 12:16:00,81.9,47.4,30.06,South,186,3.6,3.6,30,0.00,,---,0.00,VWS V14.01,2013-03-19 17:16:00,
2013-03-19 12:17:00,79.7,45.6,30.06,SW,215,3.6,6.3,30,0.00,,---,0.00,VWS V14.01,2013-03-19 17:17:00,
2013-03-19 12:18:00,81.5,47.1,30.06,South,181,2.2,2.2,30,0.00,,---,0.00,VWS V14.01,2013-03-19 17:18:00,
2013-03-19 12:19:00,81.7,47.3,30.06,South,176,3.6,4.0,30,0.00,,---,0.00,VWS V14.01,2013-03-19 17:19:00,
2013-03-19 12:20:00,81.5,47.1,30.06,SSW,204,0.0,3.6,30,0.00,,---,0.00,VWS V14.01,2013-03-19 17:20:00,
2013-03-19 12:21:00,81.5,47.1,30.06,South,187,0.0,3.1,30,0.00,,---,0.00,VWS V14.01,2013-03-19 17:21:00,
2013-03-19 12:22:00,81.5,47.1,30.06,NE,38,4.0,4.0,30,0.00,,---,0.00,VWS V14.01,2013-03-19 17:22:00,
2013-03-19 12:23:00,80.1,45.9,30.06,South,171,3.6,3.6,30,0.00,,---,0.00,VWS V14.01,2013-03-19 17:23:00,
2013-03-19 12:24:00,81.3,47.0,30.06,NNE,29,3.6,3.6,30,0.00,,---,0.00,VWS V14.01,2013-03-19 17:24:00,
2013-03-19 12:25:00,81.1,45.9,30.06,North,357,2.2,4.0,29,0.00,,---,0.00,VWS V14.01,2013-03-19 17:25:00,
2013-03-19 12:26:00,81.0,46.6,30.06,NNE,25,0.0,2.2,30,0.00,,---,0.00,VWS V14.01,2013-03-19 17:26:00,
2013-03-19 12:27:00,79.7,45.6,30.06,South,181,0.0,2.2,30,0.00,,---,0.00,VWS V14.01,2013-03-19 17:27:00,
2013-03-19 12:28:00,81.3,47.0,30.06,SSE,148,2.7,2.7,30,0.00,,---,0.00,VWS V14.01,2013-03-19 17:28:00,
2013-03-19 12:29:00,81.1,46.8,30.06,SSW,207,3.1,6.3,30,0.00,,---,0.00,VWS V14.01,2013-03-19 17:29:00,
2013-03-19 12:30:00,81.3,47.0,30.06,East,93,3.1,7.2,30,0.00,,---,0.00,VWS V14.01,2013-03-19 17:30:00,
2013-03-19 12:31:00,81.3,47.0,30.06,ENE,69,2.7,3.1,30,0.00,,---,0.00,VWS V14.01,2013-03-19 17:31:00,
2013-03-19 12:32:00,80.8,46.5,30.06,SE,144,3.1,4.0,30,0.00,,---,0.00,VWS V14.01,2013-03-19 17:32:00,
2013-03-19 12:33:00,81.0,46.6,30.06,SE,142,0.0,2.2,30,0.00,,---,0.00,VWS V14.01,2013-03-19 17:33:00,
2013-03-19 12:34:00,81.0,46.6,30.06,ESE,114,0.0,0.0,30,0.00,,---,0.00,VWS V14.01,2013-03-19 17:34:00,
2013-03-19 12:35:00,81.3,47.0,30.06,SSW,203,3.1,3.1,30,0.00,,---,0.00,VWS V14.01,2013-03-19 17:35:00,
2013-03-19 12:36:00,81.1,46.8,30.06,SSW,203,2.7,3.1,30,0.00,,---,0.00,VWS V14.01,2013-03-19 17:36:00,
2013-03-19 12:37:00,81.3,46.1,30.06,South,169,4.0,6.3,29,0.00,,---,0.00,VWS V14.01,2013-03-19 17:37:00,
2013-03-19 12:38:00,80.8,46.5,30.06,South,182,3.6,6.3,30,0.00,,---,0.00,VWS V14.01,2013-03-19 17:38:00,
2013-03-19 12:39:00,80.6,46.3,30.06,SSW,204,3.6,4.0,30,0.00,,---,0.00,VWS V14.01,2013-03-19 17:39:00,
2013-03-19 12:40:00,80.4,46.2,30.06,SSW,204,4.0,4.0,30,0.00,,---,0.00,VWS V14.01,2013-03-19 17:40:00,
2013-03-19 12:41:00,80.4,46.2,30.06,South,175,3.1,5.4,30,0.00,,---,0.00,VWS V14.01,2013-03-19 17:41:00,
2013-03-19 12:42:00,81.3,46.1,30.06,SSE,165,5.8,5.8,29,0.00,,---,0.00,VWS V14.01,2013-03-19 17:42:00,
2013-03-19 12:43:00,80.2,46.0,30.06,South,172,3.1,3.6,30,0.00,,---,0.00,VWS V14.01,2013-03-19 17:43:00,
2013-03-19 12:44:00,80.2,46.0,30.06,WSW,251,3.6,6.3,30,0.00,,---,0.00,VWS V14.01,2013-03-19 17:44:00,
2013-03-19 12:45:00,80.4,46.2,30.06,SSE,147,3.1,4.0,30,0.00,,---,0.00,VWS V14.01,2013-03-19 17:45:00,
2013-03-19 12:46:00,80.6,46.3,30.06,South,173,2.7,5.4,30,0.00,,---,0.00,VWS V14.01,2013-03-19 17:46:00,
2013-03-19 12:47:00,81.5,46.2,30.06,SSW,195,5.8,5.8,29,0.00,,---,0.00,VWS V14.01,2013-03-19 17:47:00,
2013-03-19 12:48:00,80.6,46.3,30.06,SE,140,0.0,2.7,30,0.00,,---,0.00,VWS V14.01,2013-03-19 17:48:00,
2013-03-19 12:49:00,80.8,46.5,30.06,SSE,156,0.0,0.0,30,0.00,,---,0.00,VWS V14.01,2013-03-19 17:49:00,
2013-03-19 12:50:00,81.0,46.6,30.06,SW,217,3.1,3.1,30,0.00,,---,0.00,VWS V14.01,2013-03-19 17:50:00,
2013-03-19 12:51:00,81.0,46.6,30.06,North,0,3.1,3.6,30,0.00,,---,0.00,VWS V14.01,2013-03-19 17:51:00,
2013-03-19 12:52:00,81.1,45.9,30.06,WSW,242,3.6,3.6,29,0.00,,---,0.00,VWS V14.01,2013-03-19 17:52:00,
2013-03-19 12:53:00,82.0,47.6,30.06,SW,215,2.7,4.5,30,0.00,,---,0.00,VWS V14.01,2013-03-19 17:53:00,
2013-03-19 12:54:00,82.2,47.7,30.06,South,183,3.6,3.6,30,0.00,,---,0.00,VWS V14.01,2013-03-19 17:54:00,
2013-03-19 12:55:00,82.2,47.7,30.06,SE,142,3.6,3.6,30,0.00,,---,0.00,VWS V14.01,2013-03-19 17:55:00,
2013-03-19 12:56:00,82.4,47.0,30.06,ENE,68,0.0,3.6,29,0.00,,---,0.00,VWS V14.01,2013-03-19 17:56:00,
2013-03-19 12:57:00,81.0,45.8,30.06,South,170,0.0,3.1,29,0.00,,---,0.00,VWS V14.01,2013-03-19 17:57:00,
2013-03-19 12:58:00,83.1,47.6,30.06,NE,51,0.0,2.7,29,0.00,,---,0.00,VWS V14.01,2013-03-19 17:58:00,
2013-03-19 12:59:00,83.7,48.1,30.06,NE,45,0.0,0.0,29,0.00,,---,0.00,VWS V14.01,2013-03-19 17:59:00,
2013-03-19 13:00:00,83.8,48.2,30.06,SW,223,3.6,3.6,29,0.00,,---,0.00,VWS V14.01,2013-03-19 18:00:00,
2013-03-19 13:01:00,84.0,48.4,30.06,West,273,0.0,3.6,29,0.00,,---,0.00,VWS V14.01,2013-03-19 18:01:00,
2013-03-19 13:02:00,81.3,47.0,30.06,SE,139,0.0,0.0,30,0.00,,---,0.00,VWS V14.01,2013-03-19 18:02:00,
2013-03-19 13:03:00,84.4,48.7,30.06,SE,130,3.1,4.9,29,0.00,,---,0.00,VWS V14.01,2013-03-19 18:03:00,
2013-03-19 13:04:00,84.6,48.8,30.06,SSE,151,0.0,3.6,29,0.00,,---,0.00,VWS V14.01,2013-03-19 18:04:00,
2013-03-19 13:05:00,85.3,49.5,30.06,SSE,161,0.0,2.7,29,0.00,,---,0.00,VWS V14.01,2013-03-19 18:05:00,
2013-03-19 13:06:00,86.0,49.1,30.06,NE,42,0.0,2.2,28,0.00,,---,0.00,VWS V14.01,2013-03-19 18:06:00,
2013-03-19 13:07:00,81.9,47.4,30.06,East,97,0.0,2.2,30,0.00,,---,0.00,VWS V14.01,2013-03-19 18:07:00,
2013-03-19 13:08:00,86.7,49.8,30.06,SW,227,0.0,2.2,28,0.00,,---,0.00,VWS V14.01,2013-03-19 18:08:00,
2013-03-19 13:09:00,87.1,50.1,30.06,SSW,205,4.0,4.0,28,0.00,,---,0.00,VWS V14.01,2013-03-19 18:09:00,
2013-03-19 13:10:00,86.7,48.8,30.06,South,183,5.8,6.3,27,0.00,,---,0.00,VWS V14.01,2013-03-19 18:10:00,
2013-03-19 13:11:00,86.2,49.3,30.06,South,190,3.6,5.8,28,0.00,,---,0.00,VWS V14.01,2013-03-19 18:11:00,
2013-03-19 13:12:00,82.0,47.6,30.06,East,100,0.0,0.0,30,0.00,,---,0.00,VWS V14.01,2013-03-19 18:12:00,
2013-03-19 13:13:00,85.6,48.8,30.06,South,180,2.7,6.3,28,0.00,,---,0.00,VWS V14.01,2013-03-19 18:13:00,
2013-03-19 13:14:00,84.9,49.2,30.06,NE,48,0.0,2.7,29,0.00,,---,0.00,VWS V14.01,2013-03-19 18:14:00,
2013-03-19 13:15:00,84.4,48.7,30.03,ESE,114,0.0,0.0,29,0.00,,---,0.00,VWS V14.01,2013-03-19 18:15:00,
2013-03-19 13:16:00,84.0,48.4,30.03,SSE,155,0.0,0.0,29,0.00,,---,0.00,VWS V14.01,2013-03-19 18:16:00,
2013-03-19 13:17:00,81.7,47.3,30.06,South,177,4.0,4.0,30,0.00,,---,0.00,VWS V14.01,2013-03-19 18:17:00,
2013-03-19 13:18:00,83.3,47.8,30.03,South,191,4.0,5.4,29,0.00,,---,0.00,VWS V14.01,2013-03-19 18:18:00,
2013-03-19 13:19:00,83.3,47.8,30.03,South,188,4.0,4.0,29,0.00,,---,0.00,VWS V14.01,2013-03-19 18:19:00,
2013-03-19 13:20:00,83.3,47.8,30.03,East,95,2.7,4.0,29,0.00,,---,0.00,VWS V14.01,2013-03-19 18:20:00,
2013-03-19 13:21:00,84.0,48.4,30.03,SSE,155,4.0,4.0,29,0.00,,---,0.00,VWS V14.01,2013-03-19 18:21:00,
2013-03-19 13:22:00,81.3,47.0,30.06,NE,54,3.6,3.6,30,0.00,,---,0.00,VWS V14.01,2013-03-19 18:22:00,
2013-03-19 13:23:00,84.7,49.0,30.03,SSW,196,2.7,4.0,29,0.00,,---,0.00,VWS V14.01,2013-03-19 18:23:00,
2013-03-19 13:24:00,84.9,49.2,30.03,East,81,3.1,3.1,29,0.00,,---,0.00,VWS V14.01,2013-03-19 18:24:00,
2013-03-19 13:25:00,84.9,49.2,30.03,NE,38,0.0,3.1,29,0.00,,---,0.00,VWS V14.01,2013-03-19 18:25:00,
2013-03-19 13:26:00,84.9,49.2,30.03,North,8,0.0,0.0,29,0.00,,---,0.00,VWS V14.01,2013-03-19 18:26:00,
2013-03-19 13:27:00,81.5,47.1,30.06,SSW,210,5.4,6.3,30,0.00,,---,0.00,VWS V14.01,2013-03-19 18:27:00,
2013-03-19 13:28:00,84.6,47.9,30.03,SSW,197,0.0,4.0,28,0.00,,---,0.00,VWS V14.01,2013-03-19 18:28:00,
2013-03-19 13:29:00,84.6,47.9,30.03,SSW,209,3.1,3.6,28,0.00,,---,0.00,VWS V14.01,2013-03-19 18:29:00,
2013-03-19 13:30:00,84.7,48.1,30.03,West,278,4.0,4.0,28,0.00,,---,0.00,VWS V14.01,2013-03-19 18:30:00,
2013-03-19 13:31:00,84.7,48.1,30.03,South,174,2.7,5.8,28,0.00,,---,0.00,VWS V14.01,2013-03-19 18:31:00,
2013-03-19 13:32:00,81.0,46.6,30.06,ESE,114,0.0,0.0,30,0.00,,---,0.00,VWS V14.01,2013-03-19 18:32:00,
2013-03-19 13:33:00,85.1,48.4,30.03,South,179,2.7,2.7,28,0.00,,---,0.00,VWS V14.01,2013-03-19 18:33:00,
2013-03-19 13:34:00,85.5,48.7,30.03,SW,215,5.4,5.4,28,0.00,,---,0.00,VWS V14.01,2013-03-19 18:34:00,
2013-03-19 13:35:00,85.1,48.4,30.03,SSW,210,5.8,7.2,28,0.00,,---,0.00,VWS V14.01,2013-03-19 18:35:00,
2013-03-19 13:36:00,84.2,47.6,30.03,SSE,165,6.3,8.1,28,0.00,,---,0.00,VWS V14.01,2013-03-19 18:36:00,
2013-03-19 13:37:00,80.6,46.3,30.06,SSE,168,3.6,4.0,30,0.00,,---,0.00,VWS V14.01,2013-03-19 18:37:00,
2013-03-19 13:38:00,84.0,48.4,30.03,SSE,162,3.6,4.0,29,0.00,,---,0.00,VWS V14.01,2013-03-19 18:38:00,
2013-03-19 13:39:00,84.2,47.6,30.03,ESE,112,3.6,3.6,28,0.00,,---,0.00,VWS V14.01,2013-03-19 18:39:00,
2013-03-19 13:40:00,84.4,48.7,30.03,ESE,108,0.0,3.6,29,0.00,,---,0.00,VWS V14.01,2013-03-19 18:40:00,
2013-03-19 13:41:00,84.2,47.6,30.03,South,190,5.4,5.4,28,0.00,,---,0.00,VWS V14.01,2013-03-19 18:41:00,
2013-03-19 13:42:00,80.2,46.0,30.06,South,170,6.3,6.3,30,0.00,,---,0.00,VWS V14.01,2013-03-19 18:42:00,
2013-03-19 13:43:00,83.7,48.1,30.03,SSE,149,0.0,2.2,29,0.00,,---,0.00,VWS V14.01,2013-03-19 18:43:00,
2013-03-19 13:44:00,83.5,47.9,30.03,ENE,60,0.0,0.0,29,0.00,,---,0.00,VWS V14.01,2013-03-19 18:44:00,
2013-03-19 13:45:00,83.1,47.6,30.03,SSW,213,2.7,4.0,29,0.00,,---,0.00,VWS V14.01,2013-03-19 18:45:00,
2013-03-19 13:46:00,82.9,47.5,30.03,SSW,207,3.1,3.6,29,0.00,,---,0.00,VWS V14.01,2013-03-19 18:46:00,
2013-03-19 13:47:00,80.8,46.5,30.06,SSE,153,0.0,0.0,30,0.00,,---,0.00,VWS V14.01,2013-03-19 18:47:00,
2013-03-19 13:48:00,82.8,47.3,30.03,NE,44,2.7,3.1,29,0.00,,---,0.00,VWS V14.01,2013-03-19 18:48:00,
2013-03-19 13:49:00,82.8,47.3,30.03,NE,55,0.0,2.7,29,0.00,,---,0.00,VWS V14.01,2013-03-19 18:49:00,
2013-03-19 13:50:00,82.8,47.3,30.03,SE,139,0.0,0.0,29,0.00,,---,0.00,VWS V14.01,2013-03-19 18:50:00,
2013-03-19 13:51:00,82.8,47.3,30.03,SSE,151,0.0,0.0,29,0.00,,---,0.00,VWS V14.01,2013-03-19 18:51:00,
2013-03-19 13:52:00,82.0,47.6,30.06,West,277,2.2,2.7,30,0.00,,---,0.00,VWS V14.01,2013-03-19 18:52:00,
2013-03-19 13:53:00,82.6,47.1,30.03,SSE,152,0.0,0.0,29,0.00,,---,0.00,VWS V14.01,2013-03-19 18:53:00,
2013-03-19 13:54:00,82.6,47.1,30.03,East,88,2.2,4.0,29,0.00,,---,0.00,VWS V14.01,2013-03-19 18:54:00,
2013-03-19 13:55:00,82.6,47.1,30.03,ENE,65,3.6,3.6,29,0.00,,---,0.00,VWS V14.01,2013-03-19 18:55:00,
2013-03-19 13:56:00,82.6,47.1,30.03,ENE,64,0.0,3.6,29,0.00,,---,0.00,VWS V14.01,2013-03-19 18:56:00,
2013-03-19 13:57:00,83.5,47.9,30.06,NNE,29,0.0,0.0,29,0.00,,---,0.00,VWS V14.01,2013-03-19 18:57:00,
2013-03-19 13:58:00,82.4,47.0,30.03,NE,36,2.7,2.7,29,0.00,,---,0.00,VWS V14.01,2013-03-19 18:58:00,
2013-03-19 13:59:00,82.4,47.0,30.03,SSE,168,0.0,3.1,29,0.00,,---,0.00,VWS V14.01,2013-03-19 18:59:00,
2013-03-19 14:00:00,82.4,47.0,30.00,NNE,22,0.0,2.7,29,0.00,,---,0.00,VWS V14.01,2013-03-19 19:00:00,
2013-03-19 14:01:00,82.4,47.0,30.00,SSE,153,0.0,0.0,29,0.00,,---,0.00,VWS V14.01,2013-03-19 19:01:00,
2013-03-19 14:02:00,84.6,48.8,30.06,SSE,148,0.0,3.6,29,0.00,,---,0.00,VWS V14.01,2013-03-19 19:02:00,
2013-03-19 14:03:00,82.6,47.1,30.00,East,83,2.2,3.6,29,0.00,,---,0.00,VWS V14.01,2013-03-19 19:03:00,
2013-03-19 14:04:00,82.4,47.0,30.00,South,170,3.1,3.1,29,0.00,,---,0.00,VWS V14.01,2013-03-19 19:04:00,
2013-03-19 14:05:00,82.2,47.7,30.00,SSW,205,4.0,4.9,30,0.00,,---,0.00,VWS V14.01,2013-03-19 19:05:00,
2013-03-19 14:06:00,82.0,47.6,30.00,SSW,213,4.9,6.3,30,0.00,,---,0.00,VWS V14.01,2013-03-19 19:06:00,
2013-03-19 14:07:00,87.1,50.1,30.06,SW,226,0.0,0.0,28,0.00,,---,0.00,VWS V14.01,2013-03-19 19:07:00,
2013-03-19 14:08:00,81.7,47.3,30.00,SSE,163,2.7,4.0,30,0.00,,---,0.00,VWS V14.01,2013-03-19 19:08:00,
2013-03-19 14:09:00,81.7,47.3,30.00,SSE,158,2.7,5.8,30,0.00,,---,0.00,VWS V14.01,2013-03-19 19:09:00,
2013-03-19 14:10:00,81.7,47.3,30.00,SSW,196,2.7,2.7,30,0.00,,---,0.00,VWS V14.01,2013-03-19 19:10:00,
2013-03-19 14:11:00,81.5,47.1,30.00,SW,216,4.0,5.4,30,0.00,,---,0.00,VWS V14.01,2013-03-19 19:11:00,
2013-03-19 14:12:00,85.3,48.5,30.06,SE,133,2.7,2.7,28,0.00,,---,0.00,VWS V14.01,2013-03-19 19:12:00,
2013-03-19 14:13:00,81.3,47.0,30.00,NNE,19,2.7,3.1,30,0.00,,---,0.00,VWS V14.01,2013-03-19 19:13:00,
2013-03-19 14:14:00,81.3,47.0,30.00,SSW,202,3.6,4.0,30,0.00,,---,0.00,VWS V14.01,2013-03-19 19:14:00,
2013-03-19 14:15:00,81.5,47.1,30.00,South,183,2.7,5.4,30,0.00,,---,0.00,VWS V14.01,2013-03-19 19:15:00,
2013-03-19 14:16:00,81.5,47.1,30.00,SSE,159,2.2,5.8,30,0.00,,---,0.00,VWS V14.01,2013-03-19 19:16:00,
2013-03-19 14:17:00,83.3,47.8,30.03,South,180,0.0,4.0,29,0.00,,---,0.00,VWS V14.01,2013-03-19 19:17:00,
2013-03-19 14:18:00,81.9,47.4,30.00,SSW,203,4.0,4.0,30,0.00,,---,0.00,VWS V14.01,2013-03-19 19:18:00,
2013-03-19 14:19:00,82.2,47.7,30.00,SSE,158,2.7,5.4,30,0.00,,---,0.00,VWS V14.01,2013-03-19 19:19:00,
2013-03-19 14:20:00,82.4,47.9,30.00,SSE,164,6.3,6.3,30,0.00,,---,0.00,VWS V14.01,2013-03-19 19:20:00,
2013-03-19 14:21:00,82.4,47.0,30.00,SSE,168,8.3,8.3,29,0.00,,---,0.00,VWS V14.01,2013-03-19 19:21:00,
2013-03-19 14:22:00,84.9,49.2,30.03,East,81,3.1,3.1,29,0.00,,---,0.00,VWS V14.01,2013-03-19 19:22:00,
2013-03-19 14:23:00,83.3,47.8,30.00,South,175,6.3,6.3,29,0.00,,---,0.00,VWS V14.01,2013-03-19 19:23:00,
2013-03-19 14:24:00,84.2,48.5,30.00,South,182,6.3,6.3,29,0.00,,---,0.00,VWS V14.01,2013-03-19 19:24:00,
2013-03-19 14:25:00,84.2,48.5,30.00,South,173,4.9,6.3,29,0.00,,---,0.00,VWS V14.01,2013-03-19 19:25:00,
2013-03-19 14:26:00,83.8,48.2,30.00,SSE,160,8.1,8.1,29,0.00,,---,0.00,VWS V14.01,2013-03-19 19:26:00,
2013-03-19 14:27:00,84.4,47.8,30.03,South,179,3.6,3.6,28,0.00,,---,0.00,VWS V14.01,2013-03-19 19:27:00,
2013-03-19 14:28:00,84.2,48.5,30.00,South,184,5.8,5.8,29,0.00,,---,0.00,VWS V14.01,2013-03-19 19:28:00,
2013-03-19 14:29:00,84.2,48.5,30.00,SSW,206,4.0,5.8,29,0.00,,---,0.00,VWS V14.01,2013-03-19 19:29:00,
2013-03-19 14:30:00,84.4,48.7,30.00,SSE,162,3.1,4.9,29,0.00,,---,0.00,VWS V14.01,2013-03-19 19:30:00,
2013-03-19 14:31:00,84.7,49.0,30.00,South,173,5.8,5.8,29,0.00,,---,0.00,VWS V14.01,2013-03-19 19:31:00,
2013-03-19 14:32:00,84.7,49.0,30.00,SSW,211,3.6,6.3,29,0.00,,---,0.00,VWS V14.01,2013-03-19 19:32:00,
2013-03-19 14:33:00,85.3,48.5,30.03,WSW,241,3.6,3.6,28,0.00,,---,0.00,VWS V14.01,2013-03-19 19:33:00,
2013-03-19 14:34:00,86.0,49.1,30.00,SSE,156,0.0,3.6,28,0.00,,---,0.00,VWS V14.01,2013-03-19 19:34:00,
2013-03-19 14:35:00,86.7,49.8,30.00,SW,218,2.7,2.7,28,0.00,,---,0.00,VWS V14.01,2013-03-19 19:35:00,
2013-03-19 14:36:00,88.5,51.3,30.00,SSW,198,2.7,3.1,28,0.00,,---,0.00,VWS V14.01,2013-03-19 19:36:00,
2013-03-19 14:37:00,90.1,51.7,30.00,SSE,163,0.0,2.7,27,0.00,,---,0.00,VWS V14.01,2013-03-19 19:37:00,
2013-03-19 14:38:00,84.2,47.6,30.03,SSE,160,3.1,3.6,28,0.00,,---,0.00,VWS V14.01,2013-03-19 19:38:00,
2013-03-19 14:39:00,91.0,51.4,30.00,SW,217,4.0,5.8,26,0.00,,---,0.00,VWS V14.01,2013-03-19 19:39:00,
2013-03-19 14:40:00,91.0,51.4,30.00,South,173,5.4,5.4,26,0.00,,---,0.00,VWS V14.01,2013-03-19 19:40:00,
2013-03-19 14:41:00,91.2,50.5,30.00,WSW,239,4.0,6.3,25,0.00,,---,0.00,VWS V14.01,2013-03-19 19:41:00,
2013-03-19 14:42:00,83.5,47.9,30.03,SSE,149,0.0,0.0,29,0.00,,---,0.00,VWS V14.01,2013-03-19 19:42:00,
2013-03-19 14:43:00,92.3,51.4,30.00,SW,221,3.6,3.6,25,0.00,,---,0.00,VWS V14.01,2013-03-19 19:43:00,
2013-03-19 14:44:00,92.7,51.7,30.00,SSE,157,3.1,4.0,25,0.00,,---,0.00,VWS V14.01,2013-03-19 19:44:00,
2013-03-19 14:45:00,93.4,51.2,30.00,South,187,5.8,5.8,24,0.00,,---,0.00,VWS V14.01,2013-03-19 19:45:00,
2013-03-19 14:46:00,93.7,51.5,30.00,South,190,2.7,5.8,24,0.00,,---,0.00,VWS V14.01,2013-03-19 19:46:00,
2013-03-19 14:47:00,82.6,47.1,30.03,NE,55,2.2,2.7,29,0.00,,---,0.00,VWS V14.01,2013-03-19 19:47:00,
2013-03-19 14:48:00,94.1,50.7,30.00,South,172,5.8,6.3,23,0.00,,---,0.00,VWS V14.01,2013-03-19 19:48:00,
2013-03-19 14:49:00,94.1,50.7,30.00,SW,219,2.7,5.8,23,0.00,,---,0.00,VWS V14.01,2013-03-19 19:49:00,
2013-03-19 14:50:00,93.6,49.0,30.00,SSW,204,5.4,7.6,22,0.00,,---,0.00,VWS V14.01,2013-03-19 19:50:00,
2013-03-19 14:51:00,93.7,50.4,30.00,SSE,166,4.0,5.8,23,0.00,,---,0.00,VWS V14.01,2013-03-19 19:51:00,
2013-03-19 14:52:00,82.6,47.1,30.03,SE,140,3.6,4.0,29,0.00,,---,0.00,VWS V14.01,2013-03-19 19:52:00,
2013-03-19 14:53:00,95.2,51.6,30.00,SSW,207,6.3,6.3,23,0.00,,---,0.00,VWS V14.01,2013-03-19 19:53:00,
2013-03-19 14:54:00,95.5,50.7,30.00,South,172,2.7,6.7,22,0.00,,---,0.00,VWS V14.01,2013-03-19 19:54:00,
2013-03-19 14:55:00,95.9,51.0,30.00,SSW,208,2.7,3.6,22,0.00,,---,0.00,VWS V14.01,2013-03-19 19:55:00,
2013-03-19 14:56:00,96.4,51.4,30.00,SSE,156,3.1,3.6,22,0.00,,---,0.00,VWS V14.01,2013-03-19 19:56:00,
2013-03-19 14:57:00,82.4,47.0,30.03,NNE,23,0.0,3.1,29,0.00,,---,0.00,VWS V14.01,2013-03-19 19:57:00,
2013-03-19 14:58:00,97.3,52.2,30.00,SSE,154,2.7,3.1,22,0.00,,---,0.00,VWS V14.01,2013-03-19 19:58:00,
2013-03-19 14:59:00,97.5,51.1,30.00,South,181,2.7,3.6,21,0.00,,---,0.00,VWS V14.01,2013-03-19 19:59:00,
2013-03-19 15:00:00,97.0,50.6,30.00,SSW,207,7.6,7.6,21,0.00,,---,0.00,VWS V14.01,2013-03-19 20:00:00,
2013-03-19 15:01:00,96.4,50.2,30.00,SSW,199,6.3,8.1,21,0.00,,---,0.00,VWS V14.01,2013-03-19 20:01:00,
2013-03-19 15:02:00,82.4,47.0,30.00,SSW,204,2.2,2.7,29,0.00,,---,0.00,VWS V14.01,2013-03-19 20:02:00,
2013-03-19 15:03:00,96.1,49.9,30.00,SE,146,2.7,6.7,21,0.00,,---,0.00,VWS V14.01,2013-03-19 20:03:00,
2013-03-19 15:04:00,96.6,50.3,30.00,SW,227,4.0,4.9,21,0.00,,---,0.00,VWS V14.01,2013-03-19 20:04:00,
2013-03-19 15:05:00,96.4,50.2,30.00,SSE,151,2.7,6.3,21,0.00,,---,0.00,VWS V14.01,2013-03-19 20:05:00,
2013-03-19 15:06:00,96.8,50.5,30.00,SSW,196,0.0,3.1,21,0.00,,---,0.00,VWS V14.01,2013-03-19 20:06:00,
2013-03-19 15:07:00,81.7,47.3,30.00,South,169,3.1,5.8,30,0.00,,---,0.00,VWS V14.01,2013-03-19 20:07:00,
2013-03-19 15:08:00,97.9,51.3,30.00,South,176,0.0,0.0,21,0.00,,---,0.00,VWS V14.01,2013-03-19 20:08:00,
2013-03-19 15:09:00,98.6,50.6,30.00,SW,222,4.0,4.0,20,0.00,,---,0.00,VWS V14.01,2013-03-19 20:09:00,
2013-03-19 15:10:00,98.4,51.8,30.00,South,191,3.1,4.0,21,0.00,,---,0.00,VWS V14.01,2013-03-19 20:10:00,
2013-03-19 15:11:00,98.6,50.6,30.00,South,169,3.6,4.9,20,0.00,,---,0.00,VWS V14.01,2013-03-19 20:11:00,
2013-03-19 15:12:00,81.3,47.0,30.00,SSE,158,3.1,3.1,30,0.00,,---,0.00,VWS V14.01,2013-03-19 20:12:00,
2013-03-19 15:13:00,99.1,51.1,30.00,SE,142,3.6,4.0,20,0.00,,---,0.00,VWS V14.01,2013-03-19 20:13:00,
2013-03-19 15:14:00,99.3,51.2,30.00,SE,127,0.0,3.6,20,0.00,,---,0.00,VWS V14.01,2013-03-19 20:14:00,
2013-03-19 15:15:00,100.0,51.8,30.00,SE,133,0.0,0.0,20,0.00,,---,0.00,VWS V14.01,2013-03-19 20:15:00,
2013-03-19 15:16:00,100.4,50.7,30.00,ENE,57,0.0,0.0,19,0.00,,---,0.00,VWS V14.01,2013-03-19 20:16:00,
2013-03-19 15:17:00,100.6,50.9,30.00,ENE,57,0.0,0.0,19,0.00,,---,0.00,VWS V14.01,2013-03-19 20:17:00,
2013-03-19 15:18:00,82.2,47.7,30.00,South,191,5.4,5.4,30,0.00,,---,0.00,VWS V14.01,2013-03-19 20:18:00,
2013-03-19 15:19:00,100.8,51.0,30.00,SSE,147,2.7,3.6,19,0.00,,---,0.00,VWS V14.01,2013-03-19 20:19:00,
2013-03-19 15:20:00,100.8,51.0,30.00,SSE,156,3.1,5.4,19,0.00,,---,0.00,VWS V14.01,2013-03-19 20:20:00,
2013-03-19 15:21:00,100.4,50.7,30.00,SSE,160,5.8,5.8,19,0.00,,---,0.00,VWS V14.01,2013-03-19 20:21:00,
2013-03-19 15:22:00,98.8,49.4,30.00,East,100,2.2,5.8,19,0.00,,---,0.00,VWS V14.01,2013-03-19 20:22:00,
2013-03-19 15:23:00,83.8,48.2,30.00,South,172,4.0,6.3,29,0.00,,---,0.00,VWS V14.01,2013-03-19 20:23:00,
2013-03-19 15:24:00,97.7,49.9,30.00,South,177,6.3,6.3,20,0.00,,---,0.00,VWS V14.01,2013-03-19 20:24:00,
2013-03-19 15:25:00,97.2,49.5,30.00,SSW,200,4.0,6.3,20,0.00,,---,0.00,VWS V14.01,2013-03-19 20:25:00,
2013-03-19 15:26:00,96.1,48.6,30.00,South,176,4.9,4.9,20,0.00,,---,0.00,VWS V14.01,2013-03-19 20:26:00,
2013-03-19 15:27:00,84.2,48.5,30.00,SSW,202,3.1,5.8,29,0.00,,---,0.00,VWS V14.01,2013-03-19 20:27:00,
2013-03-19 15:28:00,96.6,49.0,30.00,SSE,158,0.0,2.7,20,0.00,,---,0.00,VWS V14.01,2013-03-19 20:28:00,
2013-03-19 15:29:00,96.6,49.0,30.00,SSE,151,2.7,2.7,20,0.00,,---,0.00,VWS V14.01,2013-03-19 20:29:00,
2013-03-19 15:30:00,96.4,48.9,30.00,SSE,151,0.0,2.7,20,0.00,,---,0.00,VWS V14.01,2013-03-19 20:30:00,
2013-03-19 15:31:00,96.4,48.9,30.00,SSW,201,0.0,0.0,20,0.00,,---,0.00,VWS V14.01,2013-03-19 20:31:00,
2013-03-19 15:32:00,85.5,49.6,30.00,SSE,156,0.0,3.6,29,0.00,,---,0.00,VWS V14.01,2013-03-19 20:32:00,
2013-03-19 15:33:00,96.8,49.2,30.00,SSW,192,3.6,3.6,20,0.00,,---,0.00,VWS V14.01,2013-03-19 20:33:00,
2013-03-19 15:34:00,96.8,49.2,30.00,SW,221,3.1,3.6,20,0.00,,---,0.00,VWS V14.01,2013-03-19 20:34:00,
2013-03-19 15:35:00,96.6,49.0,30.00,SW,215,0.0,3.6,20,0.00,,---,0.00,VWS V14.01,2013-03-19 20:35:00,
2013-03-19 15:36:00,96.6,49.0,30.00,SSW,207,3.1,3.1,20,0.00,,---,0.00,VWS V14.01,2013-03-19 20:36:00,
2013-03-19 15:37:00,91.0,52.5,30.00,South,174,5.8,5.8,27,0.00,,---,0.00,VWS V14.01,2013-03-19 20:37:00,
2013-03-19 15:38:00,97.9,50.0,30.00,South,175,3.6,3.6,20,0.00,,---,0.00,VWS V14.01,2013-03-19 20:38:00,
2013-03-19 15:39:00,98.4,50.5,30.00,South,172,2.2,3.6,20,0.00,,---,0.00,VWS V14.01,2013-03-19 20:39:00,
2013-03-19 15:40:00,98.4,50.5,30.00,South,172,4.0,4.9,20,0.00,,---,0.00,VWS V14.01,2013-03-19 20:40:00,
2013-03-19 15:41:00,97.5,49.7,30.00,SSW,212,2.2,4.0,20,0.00,,---,0.00,VWS V14.01,2013-03-19 20:41:00,
2013-03-19 15:42:00,92.7,51.7,30.00,SSE,164,3.1,4.0,25,0.00,,---,0.00,VWS V14.01,2013-03-19 20:42:00,
2013-03-19 15:43:00,94.3,48.4,30.00,South,179,0.0,4.0,21,0.00,,---,0.00,VWS V14.01,2013-03-19 20:43:00,
2013-03-19 15:44:00,92.7,47.1,30.00,SSE,166,0.0,0.0,21,0.00,,---,0.00,VWS V14.01,2013-03-19 20:44:00,
2013-03-19 15:45:00,92.5,46.9,30.00,SSE,166,0.0,0.0,21,0.00,,---,0.00,VWS V14.01,2013-03-19 20:45:00,
2013-03-19 15:46:00,92.1,46.6,30.00,SSE,162,3.6,4.0,21,0.00,,---,0.00,VWS V14.01,2013-03-19 20:46:00,
2013-03-19 15:47:00,92.7,47.1,30.00,SE,143,0.0,3.6,21,0.00,,---,0.00,VWS V14.01,2013-03-19 20:47:00,
2013-03-19 15:48:00,94.1,50.7,30.00,South,183,2.7,5.8,23,0.00,,---,0.00,VWS V14.01,2013-03-19 20:48:00,
2013-03-19 15:49:00,92.5,46.9,30.00,SE,141,0.0,0.0,21,0.00,,---,0.00,VWS V14.01,2013-03-19 20:49:00,
2013-03-19 15:50:00,93.0,48.6,30.00,SE,141,0.0,0.0,22,0.00,,---,0.00,VWS V14.01,2013-03-19 20:50:00,
2013-03-19 15:51:00,93.7,48.0,30.00,South,177,5.4,5.8,21,0.00,,---,0.00,VWS V14.01,2013-03-19 20:51:00,
2013-03-19 15:52:00,93.9,48.1,30.00,SSE,159,0.0,5.4,21,0.00,,---,0.00,VWS V14.01,2013-03-19 20:52:00,
2013-03-19 15:53:00,95.2,50.4,30.00,SSE,157,2.7,6.7,22,0.00,,---,0.00,VWS V14.01,2013-03-19 20:53:00,
2013-03-19 15:54:00,95.5,48.1,30.00,SE,142,2.2,5.8,20,0.00,,---,0.00,VWS V14.01,2013-03-19 20:54:00,
2013-03-19 15:55:00,96.1,48.6,30.00,South,176,3.1,3.1,20,0.00,,---,0.00,VWS V14.01,2013-03-19 20:55:00,
2013-03-19 15:56:00,97.0,49.3,30.00,SSW,192,2.7,3.1,20,0.00,,---,0.00,VWS V14.01,2013-03-19 20:56:00,
2013-03-19 15:57:00,95.5,48.1,30.00,South,173,2.7,3.1,20,0.00,,---,0.00,VWS V14.01,2013-03-19 20:57:00,
2013-03-19 15:58:00,97.5,51.1,30.00,South,181,2.7,3.6,21,0.00,,---,0.00,VWS V14.01,2013-03-19 20:58:00,
2013-03-19 15:59:00,95.9,48.4,30.00,SSE,167,2.7,3.6,20,0.00,,---,0.00,VWS V14.01,2013-03-19 20:59:00,
2013-03-19 16:00:00,95.7,48.3,30.00,SSE,167,0.0,2.7,20,0.00,,---,0.00,VWS V14.01,2013-03-19 21:00:00,
2013-03-19 16:01:00,93.4,47.7,30.00,South,185,3.1,3.1,21,0.00,,---,0.00,VWS V14.01,2013-03-19 21:01:00,
2013-03-19 16:02:00,92.7,47.1,30.00,NE,55,0.0,3.6,21,0.00,,---,0.00,VWS V14.01,2013-03-19 21:02:00,
2013-03-19 16:03:00,96.6,50.3,30.00,SW,219,4.9,4.9,21,0.00,,---,0.00,VWS V14.01,2013-03-19 21:03:00,
2013-03-19 16:04:00,93.0,47.3,30.00,NE,56,0.0,0.0,21,0.00,,---,0.00,VWS V14.01,2013-03-19 21:04:00,
2013-03-19 16:05:00,92.3,46.8,30.00,South,169,0.0,0.0,21,0.00,,---,0.00,VWS V14.01,2013-03-19 21:05:00,
2013-03-19 16:06:00,91.6,46.2,30.00,South,176,2.2,3.1,21,0.00,,---,0.00,VWS V14.01,2013-03-19 21:06:00,
2013-03-19 16:07:00,90.3,46.3,30.00,South,176,0.0,2.2,22,0.00,,---,0.00,VWS V14.01,2013-03-19 21:07:00,
2013-03-19 16:08:00,98.2,51.7,30.00,South,171,4.0,4.0,21,0.00,,---,0.00,VWS V14.01,2013-03-19 21:08:00,
2013-03-19 16:09:00,89.1,45.3,30.00,SSE,162,2.7,4.0,22,0.00,,---,0.00,VWS V14.01,2013-03-19 21:09:00,
2013-03-19 16:10:00,89.2,46.6,30.00,South,171,3.1,3.1,23,0.00,,---,0.00,VWS V14.01,2013-03-19 21:10:00,
2013-03-19 16:11:00,89.4,46.8,30.00,South,170,2.2,3.1,23,0.00,,---,0.00,VWS V14.01,2013-03-19 21:11:00,
2013-03-19 16:12:00,90.9,46.8,30.00,South,181,3.1,3.6,22,0.00,,---,0.00,VWS V14.01,2013-03-19 21:12:00,
2013-03-19 16:13:00,99.3,51.2,30.00,SE,132,0.0,3.6,20,0.00,,---,0.00,VWS V14.01,2013-03-19 21:13:00,
2013-03-19 16:14:00,93.7,48.0,30.00,South,187,3.1,4.9,21,0.00,,---,0.00,VWS V14.01,2013-03-19 21:14:00,
2013-03-19 16:15:00,93.9,48.1,29.97,SE,146,5.8,5.8,21,0.00,,---,0.00,VWS V14.01,2013-03-19 21:15:00,
2013-03-19 16:16:00,94.8,48.8,29.97,SSW,196,5.4,5.8,21,0.00,,---,0.00,VWS V14.01,2013-03-19 21:16:00,
2013-03-19 16:17:00,95.0,49.0,29.97,South,187,5.8,5.8,21,0.00,,---,0.00,VWS V14.01,2013-03-19 21:17:00,
2013-03-19 16:18:00,100.8,51.0,30.00,SSE,154,2.7,3.6,19,0.00,,---,0.00,VWS V14.01,2013-03-19 21:18:00,
2013-03-19 16:19:00,95.4,48.0,29.97,SSW,193,2.7,3.6,20,0.00,,---,0.00,VWS V14.01,2013-03-19 21:19:00,
2013-03-19 16:20:00,95.0,47.7,29.97,South,186,4.0,5.4,20,0.00,,---,0.00,VWS V14.01,2013-03-19 21:20:00,
2013-03-19 16:21:00,94.1,48.2,29.97,ESE,104,2.7,4.0,21,0.00,,---,0.00,VWS V14.01,2013-03-19 21:21:00,
2013-03-19 16:22:00,93.9,48.1,29.97,ESE,123,0.0,2.7,21,0.00,,---,0.00,VWS V14.01,2013-03-19 21:22:00,
2013-03-19 16:23:00,97.7,49.9,30.00,South,183,5.4,5.4,20,0.00,,---,0.00,VWS V14.01,2013-03-19 21:23:00,
2013-03-19 16:24:00,92.7,47.1,29.97,WSW,238,0.0,3.6,21,0.00,,---,0.00,VWS V14.01,2013-03-19 21:24:00,
2013-03-19 16:25:00,92.7,47.1,29.97,SSW,197,0.0,0.0,21,0.00,,---,0.00,VWS V14.01,2013-03-19 21:25:00,
2013-03-19 16:26:00,93.9,48.1,29.97,SW,216,0.0,0.0,21,0.00,,---,0.00,VWS V14.01,2013-03-19 21:26:00,
2013-03-19 16:27:00,94.3,48.4,29.97,SSW,198,5.4,5.4,21,0.00,,---,0.00,VWS V14.01,2013-03-19 21:27:00,
2013-03-19 16:28:00,96.6,49.0,30.00,ESE,109,2.7,2.7,20,0.00,,---,0.00,VWS V14.01,2013-03-19 21:28:00,
2013-03-19 16:29:00,92.1,46.6,29.97,ESE,115,0.0,5.4,21,0.00,,---,0.00,VWS V14.01,2013-03-19 21:29:00,
2013-03-19 16:30:00,91.8,46.3,29.97,SE,146,0.0,0.0,21,0.00,,---,0.00,VWS V14.01,2013-03-19 21:30:00,
2013-03-19 16:31:00,91.2,47.1,29.97,East,100,0.0,0.0,22,0.00,,---,0.00,VWS V14.01,2013-03-19 21:31:00,
2013-03-19 16:32:00,90.7,46.7,29.97,East,100,0.0,0.0,22,0.00,,---,0.00,VWS V14.01,2013-03-19 21:32:00,
2013-03-19 16:33:00,96.8,49.2,30.00,SW,221,3.1,3.6,20,0.00,,---,0.00,VWS V14.01,2013-03-19 21:33:00,
2013-03-19 16:34:00,88.9,46.3,29.97,East,93,0.0,0.0,23,0.00,,---,0.00,VWS V14.01,2013-03-19 21:34:00,
2013-03-19 16:35:00,88.3,45.9,29.97,NNE,18,0.0,0.0,23,0.00,,---,0.00,VWS V14.01,2013-03-19 21:35:00,
2013-03-19 16:36:00,87.8,45.4,29.97,NE,40,0.0,0.0,23,0.00,,---,0.00,VWS V14.01,2013-03-19 21:36:00,
2013-03-19 16:37:00,87.6,46.4,29.97,NE,40,0.0,0.0,24,0.00,,---,0.00,VWS V14.01,2013-03-19 21:37:00,
2013-03-19 16:38:00,98.4,50.5,30.00,South,172,2.2,3.6,20,0.00,,---,0.00,VWS V14.01,2013-03-19 21:38:00,
2013-03-19 16:39:00,87.8,45.4,29.97,SW,218,4.0,4.0,23,0.00,,---,0.00,VWS V14.01,2013-03-19 21:39:00,
2013-03-19 16:40:00,87.8,45.4,29.97,SSE,167,0.0,4.0,23,0.00,,---,0.00,VWS V14.01,2013-03-19 21:40:00,
2013-03-19 16:41:00,87.6,46.4,29.97,South,169,2.7,2.7,24,0.00,,---,0.00,VWS V14.01,2013-03-19 21:41:00,
2013-03-19 16:42:00,86.4,45.3,29.97,South,185,2.7,3.6,24,0.00,,---,0.00,VWS V14.01,2013-03-19 21:42:00,
2013-03-19 16:43:00,92.7,47.1,30.00,SSE,166,0.0,0.0,21,0.00,,---,0.00,VWS V14.01,2013-03-19 21:43:00,
2013-03-19 16:44:00,85.8,46.0,29.97,SW,230,4.9,4.9,25,0.00,,---,0.00,VWS V14.01,2013-03-19 21:44:00,
2013-03-19 16:46:00,85.5,45.7,29.97,North,0,0.0,0.0,25,0.00,,---,0.00,VWS V14.01,2013-03-19 21:46:00,
2013-03-19 16:47:00,85.5,45.7,29.97,South,182,3.1,3.1,25,0.00,,---,0.00,VWS V14.01,2013-03-19 21:47:00,
2013-03-19 16:48:00,92.5,46.9,30.00,SE,141,0.0,0.0,21,0.00,,---,0.00,VWS V14.01,2013-03-19 21:48:00,
2013-03-19 16:49:00,86.2,46.3,29.97,South,170,3.1,3.1,25,0.00,,---,0.00,VWS V14.01,2013-03-19 21:49:00,
2013-03-19 16:50:00,86.2,46.3,29.97,SSE,157,3.1,4.9,25,0.00,,---,0.00,VWS V14.01,2013-03-19 21:50:00,
2013-03-19 16:51:00,85.5,46.7,29.97,South,177,2.7,3.6,26,0.00,,---,0.00,VWS V14.01,2013-03-19 21:51:00,
2013-03-19 16:52:00,85.8,47.0,29.97,South,181,2.7,4.9,26,0.00,,---,0.00,VWS V14.01,2013-03-19 21:52:00,
2013-03-19 16:53:00,95.5,48.1,30.00,SE,142,2.2,5.8,20,0.00,,---,0.00,VWS V14.01,2013-03-19 21:53:00,
2013-03-19 16:54:00,86.5,46.6,29.97,South,186,5.4,7.6,25,0.00,,---,0.00,VWS V14.01,2013-03-19 21:54:00,
2013-03-19 16:55:00,86.5,47.6,29.97,SE,146,2.7,5.4,26,0.00,,---,0.00,VWS V14.01,2013-03-19 21:55:00,
2013-03-19 16:56:00,85.8,47.0,29.97,SSW,213,0.0,2.7,26,0.00,,---,0.00,VWS V14.01,2013-03-19 21:56:00,
2013-03-19 16:57:00,85.3,46.5,29.97,SSE,156,0.0,0.0,26,0.00,,---,0.00,VWS V14.01,2013-03-19 21:57:00,
2013-03-19 16:58:00,95.9,48.4,30.00,SSE,167,2.7,3.6,20,0.00,,---,0.00,VWS V14.01,2013-03-19 21:58:00,
2013-03-19 16:59:00,84.0,46.5,29.97,South,185,3.6,3.6,27,0.00,,---,0.00,VWS V14.01,2013-03-19 21:59:00,
2013-03-19 17:00:00,83.3,46.8,29.97,ESE,122,0.0,3.6,28,0.00,,---,0.00,VWS V14.01,2013-03-19 22:00:00,
2013-03-19 17:01:00,83.1,46.7,29.97,ESE,123,0.0,0.0,28,0.00,,---,0.00,VWS V14.01,2013-03-19 22:01:00,
2013-03-19 17:02:00,82.8,46.4,29.97,ESE,123,0.0,0.0,28,0.00,,---,0.00,VWS V14.01,2013-03-19 22:02:00,
2013-03-19 17:03:00,93.0,47.3,30.00,NE,56,0.0,0.0,21,0.00,,---,0.00,VWS V14.01,2013-03-19 22:03:00,
2013-03-19 17:04:00,82.2,46.8,29.97,SSW,194,0.0,0.0,29,0.00,,---,0.00,VWS V14.01,2013-03-19 22:04:00,
2013-03-19 17:05:00,82.0,46.7,29.97,SSW,194,0.0,0.0,29,0.00,,---,0.00,VWS V14.01,2013-03-19 22:05:00,
2013-03-19 17:06:00,81.7,46.4,29.97,SSW,194,0.0,0.0,29,0.00,,---,0.00,VWS V14.01,2013-03-19 22:06:00,
2013-03-19 17:07:00,81.7,46.4,29.97,South,179,0.0,0.0,29,0.00,,---,0.00,VWS V14.01,2013-03-19 22:07:00,
2013-03-19 17:08:00,89.1,45.3,30.00,SSE,162,2.7,4.0,22,0.00,,---,0.00,VWS V14.01,2013-03-19 22:08:00,
2013-03-19 17:09:00,81.5,47.1,29.97,SSE,167,2.7,3.6,30,0.00,,---,0.00,VWS V14.01,2013-03-19 22:09:00,
2013-03-19 17:10:00,81.3,47.0,29.97,SSE,163,3.6,3.6,30,0.00,,---,0.00,VWS V14.01,2013-03-19 22:10:00,
2013-03-19 17:11:00,81.1,46.8,29.97,South,177,2.7,4.0,30,0.00,,---,0.00,VWS V14.01,2013-03-19 22:11:00,
2013-03-19 17:12:00,81.1,46.8,29.97,SSE,163,0.0,3.1,30,0.00,,---,0.00,VWS V14.01,2013-03-19 22:12:00,
2013-03-19 17:13:00,93.7,48.0,30.00,South,187,3.1,4.9,21,0.00,,---,0.00,VWS V14.01,2013-03-19 22:13:00,
2013-03-19 17:14:00,80.8,46.5,29.97,South,186,2.7,5.8,30,0.00,,---,0.00,VWS V14.01,2013-03-19 22:14:00,
2013-03-19 17:15:00,80.6,46.3,29.97,South,181,0.0,2.7,30,0.00,,---,0.00,VWS V14.01,2013-03-19 22:15:00,
2013-03-19 17:16:00,80.6,46.3,29.97,SSE,161,0.0,0.0,30,0.00,,---,0.00,VWS V14.01,2013-03-19 22:16:00,
2013-03-19 17:17:00,80.4,47.0,29.97,South,170,0.0,0.0,31,0.00,,---,0.00,VWS V14.01,2013-03-19 22:17:00,
2013-03-19 17:18:00,95.4,48.0,29.97,SSW,193,2.7,3.6,20,0.00,,---,0.00,VWS V14.01,2013-03-19 22:18:00,
2013-03-19 17:19:00,80.1,46.7,29.97,SSE,148,0.0,0.0,31,0.00,,---,0.00,VWS V14.01,2013-03-19 22:19:00,
2013-03-19 17:20:00,80.1,46.7,29.97,South,177,0.0,0.0,31,0.00,,---,0.00,VWS V14.01,2013-03-19 22:20:00,
2013-03-19 17:21:00,80.1,46.7,29.97,South,189,3.6,3.6,31,0.00,,---,0.00,VWS V14.01,2013-03-19 22:21:00,
2013-03-19 17:22:00,79.9,46.6,29.97,South,176,3.6,3.6,31,0.00,,---,0.00,VWS V14.01,2013-03-19 22:22:00,
2013-03-19 17:23:00,92.7,47.1,29.97,WSW,238,0.0,3.6,21,0.00,,---,0.00,VWS V14.01,2013-03-19 22:23:00,
2013-03-19 17:24:00,79.3,46.1,29.97,South,174,0.0,2.2,31,0.00,,---,0.00,VWS V14.01,2013-03-19 22:24:00,
2013-03-19 17:25:00,79.3,46.1,29.97,South,171,0.0,0.0,31,0.00,,---,0.00,VWS V14.01,2013-03-19 22:25:00,
2013-03-19 17:26:00,79.2,46.0,29.97,South,176,0.0,0.0,31,0.00,,---,0.00,VWS V14.01,2013-03-19 22:26:00,
2013-03-19 17:27:00,79.0,45.8,29.97,South,178,2.2,2.7,31,0.00,,---,0.00,VWS V14.01,2013-03-19 22:27:00,
2013-03-19 17:28:00,92.1,46.6,29.97,ESE,115,0.0,5.4,21,0.00,,---,0.00,VWS V14.01,2013-03-19 22:28:00,
2013-03-19 17:29:00,79.0,45.8,29.97,South,173,0.0,0.0,31,0.00,,---,0.00,VWS V14.01,2013-03-19 22:29:00,
2013-03-19 17:30:00,78.8,45.6,29.97,South,173,0.0,0.0,31,0.00,,---,0.00,VWS V14.01,2013-03-19 22:30:00,
2013-03-19 17:31:00,78.6,46.3,29.97,East,101,0.0,0.0,32,0.00,,---,0.00,VWS V14.01,2013-03-19 22:31:00,
2013-03-19 17:32:00,78.6,46.3,29.97,South,181,0.0,0.0,32,0.00,,---,0.00,VWS V14.01,2013-03-19 22:32:00,
2013-03-19 17:33:00,89.4,46.8,29.97,East,97,0.0,0.0,23,0.00,,---,0.00,VWS V14.01,2013-03-19 22:33:00,
2013-03-19 17:34:00,78.3,46.0,29.97,South,180,0.0,0.0,32,0.00,,---,0.00,VWS V14.01,2013-03-19 22:34:00,
2013-03-19 17:35:00,78.3,46.0,29.97,South,180,0.0,0.0,32,0.00,,---,0.00,VWS V14.01,2013-03-19 22:35:00,
2013-03-19 17:36:00,78.1,45.8,29.97,SW,231,3.6,3.6,32,0.00,,---,0.00,VWS V14.01,2013-03-19 22:36:00,
2013-03-19 17:37:00,77.9,45.7,29.97,SSE,161,0.0,3.6,32,0.00,,---,0.00,VWS V14.01,2013-03-19 22:37:00,
2013-03-19 17:38:00,87.8,45.4,29.97,SW,218,4.0,4.0,23,0.00,,---,0.00,VWS V14.01,2013-03-19 22:38:00,
2013-03-19 17:39:00,77.7,45.5,29.97,South,183,0.0,2.7,32,0.00,,---,0.00,VWS V14.01,2013-03-19 22:39:00,
2013-03-19 17:40:00,77.5,45.4,29.97,South,183,0.0,0.0,32,0.00,,---,0.00,VWS V14.01,2013-03-19 22:40:00,
2013-03-19 17:41:00,77.5,45.4,29.97,South,183,0.0,0.0,32,0.00,,---,0.00,VWS V14.01,2013-03-19 22:41:00,
2013-03-19 17:42:00,77.4,45.2,29.97,South,183,0.0,0.0,32,0.00,,---,0.00,VWS V14.01,2013-03-19 22:42:00,
2013-03-19 17:43:00,77.4,46.0,29.97,South,180,0.0,0.0,33,0.00,,---,0.00,VWS V14.01,2013-03-19 22:43:00,
2013-03-19 17:44:00,77.4,46.0,29.97,South,180,0.0,0.0,33,0.00,,---,0.00,VWS V14.01,2013-03-19 22:44:00,
2013-03-19 17:45:00,77.2,45.9,30.00,SE,137,2.2,2.7,33,0.00,,---,0.00,VWS V14.01,2013-03-19 22:45:00,
2013-03-19 17:46:00,77.2,45.9,30.00,South,170,2.7,2.7,33,0.00,,---,0.00,VWS V14.01,2013-03-19 22:46:00,
2013-03-19 17:47:00,77.0,45.7,30.00,South,170,0.0,2.7,33,0.00,,---,0.00,VWS V14.01,2013-03-19 22:47:00,
2013-03-19 17:48:00,86.2,46.3,29.97,SW,226,4.9,4.9,25,0.00,,---,0.00,VWS V14.01,2013-03-19 22:48:00,
2013-03-19 17:49:00,76.8,45.6,30.00,South,170,0.0,0.0,33,0.00,,---,0.00,VWS V14.01,2013-03-19 22:49:00,
2013-03-19 17:50:00,76.8,46.3,30.00,South,170,0.0,0.0,34,0.00,,---,0.00,VWS V14.01,2013-03-19 22:50:00,
2013-03-19 17:51:00,76.8,46.3,30.00,South,170,0.0,0.0,34,0.00,,---,0.00,VWS V14.01,2013-03-19 22:51:00,
2013-03-19 17:52:00,76.6,46.2,30.00,South,170,0.0,0.0,34,0.00,,---,0.00,VWS V14.01,2013-03-19 22:52:00,
2013-03-19 17:53:00,86.7,46.7,29.97,South,183,3.1,5.4,25,0.00,,---,0.00,VWS V14.01,2013-03-19 22:53:00,
2013-03-19 17:54:00,76.6,46.2,30.00,South,170,0.0,0.0,34,0.00,,---,0.00,VWS V14.01,2013-03-19 22:54:00,
2013-03-19 17:55:00,76.5,46.0,30.00,South,182,0.0,0.0,34,0.00,,---,0.00,VWS V14.01,2013-03-19 22:55:00,
2013-03-19 17:56:00,76.5,46.0,30.00,SSE,149,0.0,0.0,34,0.00,,---,0.00,VWS V14.01,2013-03-19 22:56:00,
2013-03-19 17:57:00,76.3,45.9,30.00,South,186,0.0,0.0,34,0.00,,---,0.00,VWS V14.01,2013-03-19 22:57:00,
2013-03-19 17:58:00,83.7,46.2,29.97,South,173,0.0,3.6,27,0.00,,---,0.00,VWS V14.01,2013-03-19 22:58:00,
2013-03-19 17:59:00,76.1,45.7,30.00,South,186,0.0,0.0,34,0.00,,---,0.00,VWS V14.01,2013-03-19 22:59:00,
2013-03-19 18:00:00,75.9,45.6,30.00,South,186,0.0,0.0,34,0.00,,---,0.00,VWS V14.01,2013-03-19 23:00:00,
2013-03-19 18:01:00,75.9,45.6,30.00,South,186,0.0,0.0,34,0.00,,---,0.00,VWS V14.01,2013-03-19 23:01:00,
2013-03-19 18:02:00,75.9,46.3,30.00,South,186,0.0,0.0,35,0.00,,---,0.00,VWS V14.01,2013-03-19 23:02:00,
2013-03-19 18:03:00,82.0,46.7,29.97,SSW,194,0.0,0.0,29,0.00,,---,0.00,VWS V14.01,2013-03-19 23:03:00,
2013-03-19 18:04:00,75.7,46.2,30.00,South,186,0.0,0.0,35,0.00,,---,0.00,VWS V14.01,2013-03-19 23:04:00,
2013-03-19 18:05:00,75.6,46.0,30.00,South,186,0.0,0.0,35,0.00,,---,0.00,VWS V14.01,2013-03-19 23:05:00,
2013-03-19 18:06:00,75.6,46.0,30.00,South,186,0.0,0.0,35,0.00,,---,0.00,VWS V14.01,2013-03-19 23:06:00,
2013-03-19 18:07:00,75.6,46.0,30.00,South,186,0.0,0.0,35,0.00,,---,0.00,VWS V14.01,2013-03-19 23:07:00,
2013-03-19 18:08:00,81.3,47.0,29.97,SSW,196,2.7,2.7,30,0.00,,---,0.00,VWS V14.01,2013-03-19 23:08:00,
2013-03-19 18:09:00,75.4,45.9,30.00,South,186,0.0,0.0,35,0.00,,---,0.00,VWS V14.01,2013-03-19 23:09:00,
2013-03-19 18:10:00,75.4,46.6,30.00,South,186,0.0,0.0,36,0.00,,---,0.00,VWS V14.01,2013-03-19 23:10:00,
2013-03-19 18:11:00,75.4,46.6,30.00,South,186,0.0,0.0,36,0.00,,---,0.00,VWS V14.01,2013-03-19 23:11:00,
2013-03-19 18:12:00,75.2,46.4,30.00,South,186,0.0,0.0,36,0.00,,---,0.00,VWS V14.01,2013-03-19 23:12:00,
2013-03-19 18:13:00,80.6,46.3,29.97,South,180,2.7,2.7,30,0.00,,---,0.00,VWS V14.01,2013-03-19 23:13:00,
2013-03-19 18:14:00,75.2,46.4,30.00,South,186,0.0,0.0,36,0.00,,---,0.00,VWS V14.01,2013-03-19 23:14:00,
2013-03-19 18:15:00,75.2,46.4,30.00,South,186,0.0,0.0,36,0.00,,---,0.00,VWS V14.01,2013-03-19 23:15:00,
2013-03-19 18:16:00,75.2,46.4,30.00,South,186,0.0,0.0,36,0.00,,---,0.00,VWS V14.01,2013-03-19 23:16:00,
2013-03-19 18:17:00,75.0,47.0,30.00,South,186,0.0,0.0,37,0.00,,---,0.00,VWS V14.01,2013-03-19 23:17:00,
2013-03-19 18:18:00,80.1,46.7,29.97,SSE,148,0.0,0.0,31,0.00,,---,0.00,VWS V14.01,2013-03-19 23:18:00,
2013-03-19 18:19:00,75.0,47.0,30.00,South,186,0.0,0.0,37,0.00,,---,0.00,VWS V14.01,2013-03-19 23:19:00,
2013-03-19 18:20:00,75.0,47.0,30.00,South,186,0.0,0.0,37,0.00,,---,0.00,VWS V14.01,2013-03-19 23:20:00,
2013-03-19 18:21:00,75.0,47.0,30.00,South,186,0.0,0.0,37,0.00,,---,0.00,VWS V14.01,2013-03-19 23:21:00,
2013-03-19 18:22:00,75.0,47.0,30.00,South,186,0.0,0.0,37,0.00,,---,0.00,VWS V14.01,2013-03-19 23:22:00,
2013-03-19 18:23:00,79.3,46.1,29.97,SW,232,0.0,0.0,31,0.00,,---,0.00,VWS V14.01,2013-03-19 23:23:00,
2013-03-19 18:24:00,74.8,46.8,30.00,South,186,0.0,0.0,37,0.00,,---,0.00,VWS V14.01,2013-03-19 23:24:00,
2013-03-19 18:25:00,74.8,46.8,30.00,South,186,0.0,0.0,37,0.00,,---,0.00,VWS V14.01,2013-03-19 23:25:00,
2013-03-19 18:26:00,74.8,46.8,30.00,South,186,0.0,0.0,37,0.00,,---,0.00,VWS V14.01,2013-03-19 23:26:00,
2013-03-19 18:27:00,74.8,46.8,30.00,South,186,0.0,0.0,37,0.00,,---,0.00,VWS V14.01,2013-03-19 23:27:00,
2013-03-19 18:28:00,78.8,45.6,29.97,South,173,0.0,0.0,31,0.00,,---,0.00,VWS V14.01,2013-03-19 23:28:00,
2013-03-19 18:29:00,74.7,47.4,30.00,South,186,0.0,0.0,38,0.00,,---,0.00,VWS V14.01,2013-03-19 23:29:00,
2013-03-19 18:30:00,74.7,47.4,30.00,South,186,0.0,0.0,38,0.00,,---,0.00,VWS V14.01,2013-03-19 23:30:00,
2013-03-19 18:31:00,74.7,47.4,30.00,South,186,0.0,0.0,38,0.00,,---,0.00,VWS V14.01,2013-03-19 23:31:00,
2013-03-19 18:32:00,74.7,47.4,30.00,South,186,0.0,0.0,38,0.00,,---,0.00,VWS V14.01,2013-03-19 23:32:00,
2013-03-19 18:33:00,78.3,46.0,29.97,South,180,0.0,0.0,32,0.00,,---,0.00,VWS V14.01,2013-03-19 23:33:00,
2013-03-19 18:34:00,74.5,47.2,30.00,South,186,0.0,0.0,38,0.00,,---,0.00,VWS V14.01,2013-03-19 23:34:00,
2013-03-19 18:35:00,74.5,47.2,30.00,South,186,0.0,0.0,38,0.00,,---,0.00,VWS V14.01,2013-03-19 23:35:00,
2013-03-19 18:36:00,74.3,47.1,30.00,South,186,0.0,0.0,38,0.00,,---,0.00,VWS V14.01,2013-03-19 23:36:00,
2013-03-19 18:37:00,74.3,47.1,30.00,South,186,0.0,0.0,38,0.00,,---,0.00,VWS V14.01,2013-03-19 23:37:00,
2013-03-19 18:38:00,77.7,45.5,29.97,South,183,0.0,2.7,32,0.00,,---,0.00,VWS V14.01,2013-03-19 23:38:00,
2013-03-19 18:39:00,74.3,47.1,30.00,South,186,0.0,0.0,38,0.00,,---,0.00,VWS V14.01,2013-03-19 23:39:00,
2013-03-19 18:40:00,74.1,46.9,30.00,South,186,0.0,0.0,38,0.00,,---,0.00,VWS V14.01,2013-03-19 23:40:00,
2013-03-19 18:41:00,74.1,46.9,30.00,South,186,0.0,0.0,38,0.00,,---,0.00,VWS V14.01,2013-03-19 23:41:00,
2013-03-19 18:42:00,74.1,46.9,30.00,South,186,0.0,0.0,38,0.00,,---,0.00,VWS V14.01,2013-03-19 23:42:00,
2013-03-19 18:43:00,77.4,46.0,29.97,South,180,0.0,0.0,33,0.00,,---,0.00,VWS V14.01,2013-03-19 23:43:00,
2013-03-19 18:44:00,74.1,47.6,30.00,South,186,0.0,0.0,39,0.00,,---,0.00,VWS V14.01,2013-03-19 23:44:00,
2013-03-19 18:45:00,73.9,47.4,30.00,South,186,0.0,0.0,39,0.00,,---,0.00,VWS V14.01,2013-03-19 23:45:00,
2013-03-19 18:46:00,73.9,47.4,30.00,South,186,0.0,0.0,39,0.00,,---,0.00,VWS V14.01,2013-03-19 23:46:00,
2013-03-19 18:47:00,73.9,47.4,30.00,South,186,0.0,0.0,39,0.00,,---,0.00,VWS V14.01,2013-03-19 23:47:00,
2013-03-19 18:48:00,76.8,45.6,30.00,South,170,0.0,0.0,33,0.00,,---,0.00,VWS V14.01,2013-03-19 23:48:00,
2013-03-19 18:49:00,73.8,47.3,30.00,South,186,0.0,0.0,39,0.00,,---,0.00,VWS V14.01,2013-03-19 23:49:00,
2013-03-19 18:50:00,73.8,47.3,30.00,South,186,0.0,0.0,39,0.00,,---,0.00,VWS V14.01,2013-03-19 23:50:00,
2013-03-19 18:51:00,73.8,47.3,30.00,South,186,0.0,0.0,39,0.00,,---,0.00,VWS V14.01,2013-03-19 23:51:00,
2013-03-19 18:52:00,73.8,47.3,30.00,South,186,0.0,0.0,39,0.00,,---,0.00,VWS V14.01,2013-03-19 23:52:00,
2013-03-19 18:53:00,76.6,46.2,30.00,SSW,206,0.0,0.0,34,0.00,,---,0.00,VWS V14.01,2013-03-19 23:53:00,
2013-03-19 18:54:00,73.6,47.1,30.00,South,186,0.0,0.0,39,0.00,,---,0.00,VWS V14.01,2013-03-19 23:54:00,
2013-03-19 18:55:00,73.6,47.1,30.00,South,186,0.0,0.0,39,0.00,,---,0.00,VWS V14.01,2013-03-19 23:55:00,
2013-03-19 18:56:00,73.6,47.1,30.00,South,186,0.0,0.0,39,0.00,,---,0.00,VWS V14.01,2013-03-19 23:56:00,
2013-03-19 18:57:00,73.6,47.1,30.00,South,186,0.0,0.0,39,0.00,,---,0.00,VWS V14.01,2013-03-19 23:57:00,
2013-03-19 18:58:00,76.1,45.7,30.00,South,186,0.0,0.0,34,0.00,,---,0.00,VWS V14.01,2013-03-19 23:58:00,
2013-03-19 18:59:00,73.4,47.0,30.00,South,186,0.0,0.0,39,0.00,,---,0.00,VWS V14.01,2013-03-19 23:59:00,
2013-03-19 19:00:00,73.4,47.0,30.00,South,186,0.0,0.0,39,0.00,,---,0.00,VWS V14.01,2013-03-20 00:00:00,
2013-03-19 19:01:00,73.4,47.0,30.00,South,186,0.0,0.0,39,0.00,,---,0.00,VWS V14.01,2013-03-20 00:01:00,
2013-03-19 19:02:00,73.2,46.8,30.00,South,186,0.0,0.0,39,0.00,,---,0.00,VWS V14.01,2013-03-20 00:02:00,
2013-03-19 19:03:00,75.7,46.2,30.00,South,186,0.0,0.0,35,0.00,,---,0.00,VWS V14.01,2013-03-20 00:03:00,
2013-03-19 19:04:00,73.2,46.8,30.00,South,186,0.0,0.0,39,0.00,,---,0.00,VWS V14.01,2013-03-20 00:04:00,
2013-03-19 19:05:00,73.2,46.8,30.00,South,186,0.0,0.0,39,0.00,,---,0.00,VWS V14.01,2013-03-20 00:05:00,
2013-03-19 19:06:00,73.0,46.6,30.00,South,186,0.0,0.0,39,0.00,,---,0.00,VWS V14.01,2013-03-20 00:06:00,
2013-03-19 19:07:00,73.0,46.6,30.00,South,186,0.0,0.0,39,0.00,,---,0.00,VWS V14.01,2013-03-20 00:07:00,
2013-03-19 19:08:00,75.4,45.9,30.00,South,186,0.0,0.0,35,0.00,,---,0.00,VWS V14.01,2013-03-20 00:08:00,
2013-03-19 19:09:00,73.0,46.6,30.00,South,186,0.0,0.0,39,0.00,,---,0.00,VWS V14.01,2013-03-20 00:09:00,
2013-03-19 19:10:00,73.0,46.6,30.00,South,186,0.0,0.0,39,0.00,,---,0.00,VWS V14.01,2013-03-20 00:10:00,
2013-03-19 19:11:00,72.9,46.5,30.00,South,186,0.0,0.0,39,0.00,,---,0.00,VWS V14.01,2013-03-20 00:11:00,
2013-03-19 19:12:00,72.9,46.5,30.00,SSE,159,0.0,0.0,39,0.00,,---,0.00,VWS V14.01,2013-03-20 00:12:00,
2013-03-19 19:13:00,75.2,46.4,30.00,South,186,0.0,0.0,36,0.00,,---,0.00,VWS V14.01,2013-03-20 00:13:00,
2013-03-19 19:14:00,72.7,46.3,30.00,SSE,159,0.0,0.0,39,0.00,,---,0.00,VWS V14.01,2013-03-20 00:14:00,
2013-03-19 19:15:00,72.7,46.3,30.00,SSE,159,0.0,0.0,39,0.00,,---,0.00,VWS V14.01,2013-03-20 00:15:00,
2013-03-19 19:16:00,72.7,45.6,30.00,SSE,159,0.0,0.0,38,0.00,,---,0.00,VWS V14.01,2013-03-20 00:16:00,
2013-03-19 19:17:00,72.5,46.2,30.00,SSE,159,0.0,0.0,39,0.00,,---,0.00,VWS V14.01,2013-03-20 00:17:00,
2013-03-19 19:18:00,75.0,47.0,30.00,South,186,0.0,0.0,37,0.00,,---,0.00,VWS V14.01,2013-03-20 00:18:00,
2013-03-19 19:19:00,72.5,45.5,30.00,SSE,150,0.0,3.6,38,0.00,,---,0.00,VWS V14.01,2013-03-20 00:19:00,
2013-03-19 19:20:00,72.5,45.5,30.00,SSE,150,0.0,0.0,38,0.00,,---,0.00,VWS V14.01,2013-03-20 00:20:00,
2013-03-19 19:21:00,72.3,46.0,30.00,SSE,150,0.0,0.0,39,0.00,,---,0.00,VWS V14.01,2013-03-20 00:21:00,
2013-03-19 19:22:00,72.3,46.0,30.00,SSE,150,0.0,0.0,39,0.00,,---,0.00,VWS V14.01,2013-03-20 00:22:00,
2013-03-19 19:23:00,74.8,46.8,30.00,South,186,0.0,0.0,37,0.00,,---,0.00,VWS V14.01,2013-03-20 00:23:00,
2013-03-19 19:24:00,72.3,46.0,30.00,South,177,0.0,0.0,39,0.00,,---,0.00,VWS V14.01,2013-03-20 00:24:00,
2013-03-19 19:25:00,72.3,46.0,30.00,South,177,0.0,0.0,39,0.00,,---,0.00,VWS V14.01,2013-03-20 00:25:00,
2013-03-19 19:26:00,72.1,45.2,30.00,SSW,194,0.0,0.0,38,0.00,,---,0.00,VWS V14.01,2013-03-20 00:26:00,
2013-03-19 19:27:00,72.1,45.2,30.00,South,185,2.7,3.6,38,0.00,,---,0.00,VWS V14.01,2013-03-20 00:27:00,
2013-03-19 19:28:00,74.7,47.4,30.00,South,186,0.0,0.0,38,0.00,,---,0.00,VWS V14.01,2013-03-20 00:28:00,
2013-03-19 19:29:00,72.1,45.2,30.00,SSW,204,4.0,4.0,38,0.00,,---,0.00,VWS V14.01,2013-03-20 00:29:00,
2013-03-19 19:30:00,72.0,45.7,30.00,SSE,164,2.7,4.0,39,0.00,,---,0.00,VWS V14.01,2013-03-20 00:30:00,
2013-03-19 19:31:00,72.0,45.7,30.00,SSW,207,2.2,3.6,39,0.00,,---,0.00,VWS V14.01,2013-03-20 00:31:00,
2013-03-19 19:32:00,72.0,45.7,30.00,South,187,3.1,3.1,39,0.00,,---,0.00,VWS V14.01,2013-03-20 00:32:00,
2013-03-19 19:33:00,74.5,47.2,30.00,South,186,0.0,0.0,38,0.00,,---,0.00,VWS V14.01,2013-03-20 00:33:00,
2013-03-19 19:34:00,72.0,45.7,30.00,South,174,2.7,3.6,39,0.00,,---,0.00,VWS V14.01,2013-03-20 00:34:00,
2013-03-19 19:35:00,71.8,45.5,30.00,South,177,2.2,2.7,39,0.00,,---,0.00,VWS V14.01,2013-03-20 00:35:00,
2013-03-19 19:36:00,71.8,46.2,30.00,South,172,3.1,4.0,40,0.00,,---,0.00,VWS V14.01,2013-03-20 00:36:00,
2013-03-19 19:37:00,71.8,46.2,30.00,South,170,3.6,3.6,40,0.00,,---,0.00,VWS V14.01,2013-03-20 00:37:00,
2013-03-19 19:38:00,74.3,47.1,30.00,South,186,0.0,0.0,38,0.00,,---,0.00,VWS V14.01,2013-03-20 00:38:00,
2013-03-19 19:39:00,71.8,46.8,30.00,SSW,204,0.0,0.0,41,0.00,,---,0.00,VWS V14.01,2013-03-20 00:39:00,
2013-03-19 19:40:00,71.8,46.8,30.00,SSW,192,0.0,2.2,41,0.00,,---,0.00,VWS V14.01,2013-03-20 00:40:00,
2013-03-19 19:41:00,71.6,47.3,30.00,SSW,212,0.0,0.0,42,0.00,,---,0.00,VWS V14.01,2013-03-20 00:41:00,
2013-03-19 19:42:00,71.6,47.3,30.00,South,191,2.2,2.2,42,0.00,,---,0.00,VWS V14.01,2013-03-20 00:42:00,
2013-03-19 19:43:00,74.1,47.6,30.00,South,186,0.0,0.0,39,0.00,,---,0.00,VWS V14.01,2013-03-20 00:43:00,
2013-03-19 19:44:00,71.6,47.9,30.00,South,179,2.7,3.6,43,0.00,,---,0.00,VWS V14.01,2013-03-20 00:44:00,
2013-03-19 19:45:00,71.6,48.6,30.00,SSW,192,3.1,3.6,44,0.00,,---,0.00,VWS V14.01,2013-03-20 00:45:00,
2013-03-19 19:46:00,71.6,48.6,30.03,SSW,195,2.2,3.1,44,0.00,,---,0.00,VWS V14.01,2013-03-20 00:46:00,
2013-03-19 19:47:00,71.6,49.2,30.03,WSW,252,2.7,3.1,45,0.00,,---,0.00,VWS V14.01,2013-03-20 00:47:00,
2013-03-19 19:48:00,73.8,47.3,30.00,South,186,0.0,0.0,39,0.00,,---,0.00,VWS V14.01,2013-03-20 00:48:00,
2013-03-19 19:49:00,71.4,50.2,30.03,SW,231,3.1,4.0,47,0.00,,---,0.00,VWS V14.01,2013-03-20 00:49:00,
2013-03-19 19:50:00,71.4,50.7,30.03,WSW,251,2.7,3.1,48,0.00,,---,0.00,VWS V14.01,2013-03-20 00:50:00,
2013-03-19 19:51:00,71.2,50.6,30.03,West,278,3.1,3.6,48,0.00,,---,0.00,VWS V14.01,2013-03-20 00:51:00,
2013-03-19 19:52:00,71.2,51.7,30.03,SSE,162,3.6,3.6,50,0.00,,---,0.00,VWS V14.01,2013-03-20 00:52:00,
2013-03-19 19:53:00,73.6,47.1,30.00,South,186,0.0,0.0,39,0.00,,---,0.00,VWS V14.01,2013-03-20 00:53:00,
2013-03-19 19:54:00,71.2,52.2,30.03,South,190,4.0,4.9,51,0.00,,---,0.00,VWS V14.01,2013-03-20 00:54:00,
2013-03-19 19:55:00,71.1,52.6,30.03,SSE,156,2.7,4.0,52,0.00,,---,0.00,VWS V14.01,2013-03-20 00:55:00,
2013-03-19 19:56:00,71.1,52.6,30.03,SW,223,3.1,5.4,52,0.00,,---,0.00,VWS V14.01,2013-03-20 00:56:00,
2013-03-19 19:57:00,71.1,53.1,30.03,SW,223,0.0,3.1,53,0.00,,---,0.00,VWS V14.01,2013-03-20 00:57:00,
2013-03-19 19:58:00,73.4,47.0,30.00,South,186,0.0,0.0,39,0.00,,---,0.00,VWS V14.01,2013-03-20 00:58:00,
2013-03-19 19:59:00,70.9,53.4,30.03,SSW,200,4.0,4.0,54,0.00,,---,0.00,VWS V14.01,2013-03-20 00:59:00,
2013-03-19 20:00:00,70.9,53.4,30.03,WSW,255,0.0,4.0,54,0.00,,---,0.00,VWS V14.01,2013-03-20 01:00:00,
2013-03-19 20:01:00,70.9,53.9,30.03,WSW,247,0.0,0.0,55,0.00,,---,0.00,VWS V14.01,2013-03-20 01:01:00,
2013-03-19 20:02:00,70.9,53.9,30.03,SSE,163,0.0,0.0,55,0.00,,---,0.00,VWS V14.01,2013-03-20 01:02:00,
2013-03-19 20:03:00,73.2,46.8,30.00,South,186,0.0,0.0,39,0.00,,---,0.00,VWS V14.01,2013-03-20 01:03:00,
2013-03-19 20:04:00,70.9,54.4,30.03,SSW,193,2.7,2.7,56,0.00,,---,0.00,VWS V14.01,2013-03-20 01:04:00,
2013-03-19 20:05:00,70.9,54.4,30.03,SSE,155,4.9,4.9,56,0.00,,---,0.00,VWS V14.01,2013-03-20 01:05:00,
2013-03-19 20:06:00,70.7,54.2,30.03,SSW,213,0.0,4.9,56,0.00,,---,0.00,VWS V14.01,2013-03-20 01:06:00,
2013-03-19 20:07:00,70.9,54.4,30.03,SSW,207,0.0,0.0,56,0.00,,---,0.00,VWS V14.01,2013-03-20 01:07:00,
2013-03-19 20:08:00,73.0,46.6,30.00,South,186,0.0,0.0,39,0.00,,---,0.00,VWS V14.01,2013-03-20 01:08:00,
2013-03-19 20:09:00,70.9,54.9,30.03,SSW,209,2.7,3.6,57,0.00,,---,0.00,VWS V14.01,2013-03-20 01:09:00,
2013-03-19 20:10:00,70.9,54.9,30.03,South,175,0.0,2.7,57,0.00,,---,0.00,VWS V14.01,2013-03-20 01:10:00,
2013-03-19 20:11:00,70.7,54.7,30.03,SSE,149,2.7,2.7,57,0.00,,---,0.00,VWS V14.01,2013-03-20 01:11:00,
2013-03-19 20:12:00,70.7,54.7,30.03,South,190,2.2,3.1,57,0.00,,---,0.00,VWS V14.01,2013-03-20 01:12:00,
2013-03-19 20:13:00,72.7,46.3,30.00,SSE,159,0.0,0.0,39,0.00,,---,0.00,VWS V14.01,2013-03-20 01:13:00,
2013-03-19 20:14:00,70.7,55.2,30.03,South,180,0.0,0.0,58,0.00,,---,0.00,VWS V14.01,2013-03-20 01:14:00,
2013-03-19 20:15:00,70.5,55.0,30.03,South,178,0.0,0.0,58,0.00,,---,0.00,VWS V14.01,2013-03-20 01:15:00,
2013-03-19 20:16:00,70.5,55.0,30.03,South,183,0.0,0.0,58,0.00,,---,0.00,VWS V14.01,2013-03-20 01:16:00,
2013-03-19 20:17:00,70.5,55.0,30.03,SW,223,0.0,0.0,58,0.00,,---,0.00,VWS V14.01,2013-03-20 01:17:00,
2013-03-19 20:18:00,72.5,45.5,30.00,SSE,150,0.0,0.0,38,0.00,,---,0.00,VWS V14.01,2013-03-20 01:18:00,
2013-03-19 20:19:00,70.5,55.5,30.03,SSW,205,0.0,0.0,59,0.00,,---,0.00,VWS V14.01,2013-03-20 01:19:00,
2013-03-19 20:20:00,70.3,55.3,30.03,South,179,0.0,0.0,59,0.00,,---,0.00,VWS V14.01,2013-03-20 01:20:00,
2013-03-19 20:21:00,70.3,55.3,30.03,South,178,0.0,0.0,59,0.00,,---,0.00,VWS V14.01,2013-03-20 01:21:00,
2013-03-19 20:22:00,70.3,55.3,30.03,SW,232,0.0,0.0,59,0.00,,---,0.00,VWS V14.01,2013-03-20 01:22:00,
2013-03-19 20:23:00,72.3,46.0,30.00,South,177,0.0,0.0,39,0.00,,---,0.00,VWS V14.01,2013-03-20 01:23:00,
2013-03-19 20:24:00,70.2,55.6,30.03,South,182,0.0,0.0,60,0.00,,---,0.00,VWS V14.01,2013-03-20 01:24:00,
2013-03-19 20:25:00,70.2,55.6,30.03,SSW,209,3.6,3.6,60,0.00,,---,0.00,VWS V14.01,2013-03-20 01:25:00,
2013-03-19 20:26:00,70.2,55.6,30.03,South,176,2.7,3.6,60,0.00,,---,0.00,VWS V14.01,2013-03-20 01:26:00,
2013-03-19 20:27:00,70.2,56.1,30.03,South,186,3.6,4.0,61,0.00,,---,0.00,VWS V14.01,2013-03-20 01:27:00,
2013-03-19 20:28:00,72.0,45.0,30.00,SSW,212,3.1,4.0,38,0.00,,---,0.00,VWS V14.01,2013-03-20 01:28:00,
2013-03-19 20:29:00,70.0,55.9,30.03,South,178,2.7,3.1,61,0.00,,---,0.00,VWS V14.01,2013-03-20 01:29:00,
2013-03-19 20:30:00,70.0,56.4,30.03,SSW,204,0.0,2.7,62,0.00,,---,0.00,VWS V14.01,2013-03-20 01:30:00,
2013-03-19 20:31:00,70.0,56.4,30.03,SSW,196,0.0,0.0,62,0.00,,---,0.00,VWS V14.01,2013-03-20 01:31:00,
2013-03-19 20:32:00,69.8,56.2,30.03,South,188,0.0,0.0,62,0.00,,---,0.00,VWS V14.01,2013-03-20 01:32:00,
2013-03-19 20:33:00,72.0,45.7,30.00,South,174,2.7,3.6,39,0.00,,---,0.00,VWS V14.01,2013-03-20 01:33:00,
2013-03-19 20:34:00,69.8,56.2,30.03,South,186,0.0,0.0,62,0.00,,---,0.00,VWS V14.01,2013-03-20 01:34:00,
2013-03-19 20:35:00,69.8,56.2,30.03,South,179,0.0,2.7,62,0.00,,---,0.00,VWS V14.01,2013-03-20 01:35:00,
2013-03-19 20:36:00,69.8,56.2,30.03,South,187,3.1,3.1,62,0.00,,---,0.00,VWS V14.01,2013-03-20 01:36:00,
2013-03-19 20:37:00,69.8,56.2,30.03,SSW,210,3.1,3.6,62,0.00,,---,0.00,VWS V14.01,2013-03-20 01:37:00,
2013-03-19 20:38:00,71.8,46.8,30.00,SSW,204,2.2,2.2,41,0.00,,---,0.00,VWS V14.01,2013-03-20 01:38:00,
2013-03-19 20:39:00,69.6,56.5,30.03,SSW,207,3.1,3.1,63,0.00,,---,0.00,VWS V14.01,2013-03-20 01:39:00,
2013-03-19 20:40:00,69.6,56.5,30.03,South,182,0.0,3.6,63,0.00,,---,0.00,VWS V14.01,2013-03-20 01:40:00,
2013-03-19 20:41:00,69.6,56.9,30.03,South,191,2.2,4.0,64,0.00,,---,0.00,VWS V14.01,2013-03-20 01:41:00,
2013-03-19 20:42:00,69.6,56.9,30.03,South,172,0.0,2.2,64,0.00,,---,0.00,VWS V14.01,2013-03-20 01:42:00,
2013-03-19 20:43:00,71.6,47.9,30.00,South,179,2.7,2.7,43,0.00,,---,0.00,VWS V14.01,2013-03-20 01:43:00,
2013-03-19 20:44:00,69.4,56.8,30.03,South,172,0.0,0.0,64,0.00,,---,0.00,VWS V14.01,2013-03-20 01:44:00,
2013-03-19 20:45:00,69.4,56.8,30.03,South,172,0.0,0.0,64,0.00,,---,0.00,VWS V14.01,2013-03-20 01:45:00,
2013-03-19 20:46:00,69.4,56.8,30.03,South,172,0.0,0.0,64,0.00,,---,0.00,VWS V14.01,2013-03-20 01:46:00,
2013-03-19 20:47:00,69.4,56.8,30.03,South,172,0.0,0.0,64,0.00,,---,0.00,VWS V14.01,2013-03-20 01:47:00,
2013-03-19 20:48:00,71.4,50.2,30.03,SW,231,3.1,4.0,47,0.00,,---,0.00,VWS V14.01,2013-03-20 01:48:00,
2013-03-19 20:49:00,69.4,56.8,30.03,South,174,0.0,0.0,64,0.00,,---,0.00,VWS V14.01,2013-03-20 01:49:00,
2013-03-19 20:50:00,69.4,56.8,30.03,South,183,0.0,0.0,64,0.00,,---,0.00,VWS V14.01,2013-03-20 01:50:00,
2013-03-19 20:51:00,69.4,56.8,30.03,South,183,0.0,0.0,64,0.00,,---,0.00,VWS V14.01,2013-03-20 01:51:00,
2013-03-19 20:52:00,69.4,56.8,30.03,SW,219,0.0,0.0,64,0.00,,---,0.00,VWS V14.01,2013-03-20 01:52:00,
2013-03-19 20:53:00,71.2,52.2,30.03,South,190,4.0,4.9,51,0.00,,---,0.00,VWS V14.01,2013-03-20 01:53:00,
2013-03-19 20:54:00,69.3,57.0,30.03,South,188,0.0,0.0,65,0.00,,---,0.00,VWS V14.01,2013-03-20 01:54:00,
2013-03-19 20:55:00,69.3,56.6,30.03,SW,217,0.0,0.0,64,0.00,,---,0.00,VWS V14.01,2013-03-20 01:55:00,
2013-03-19 20:56:00,69.3,57.0,30.03,SSW,193,0.0,0.0,65,0.00,,---,0.00,VWS V14.01,2013-03-20 01:56:00,
2013-03-19 20:57:00,69.3,57.0,30.03,SW,225,0.0,0.0,65,0.00,,---,0.00,VWS V14.01,2013-03-20 01:57:00,
2013-03-19 20:58:00,70.9,53.4,30.03,SSE,163,3.1,4.0,54,0.00,,---,0.00,VWS V14.01,2013-03-20 01:58:00,
2013-03-19 20:59:00,69.1,56.8,30.03,SSW,194,2.7,3.6,65,0.00,,---,0.00,VWS V14.01,2013-03-20 01:59:00,
2013-03-19 21:00:00,69.1,56.8,30.03,SSW,206,2.2,3.1,65,0.00,,---,0.00,VWS V14.01,2013-03-20 02:00:00,
2013-03-19 21:01:00,69.1,56.8,30.03,SSW,210,0.0,2.7,65,0.00,,---,0.00,VWS V14.01,2013-03-20 02:01:00,
2013-03-19 21:02:00,69.1,56.8,30.03,SSW,209,0.0,2.7,65,0.00,,---,0.00,VWS V14.01,2013-03-20 02:02:00,
2013-03-19 21:03:00,70.9,54.4,30.03,SSW,193,2.7,2.7,56,0.00,,---,0.00,VWS V14.01,2013-03-20 02:03:00,
2013-03-19 21:04:00,69.1,56.8,30.03,SSW,196,0.0,0.0,65,0.00,,---,0.00,VWS V14.01,2013-03-20 02:04:00,
2013-03-19 21:05:00,69.1,56.8,30.03,SSW,196,0.0,0.0,65,0.00,,---,0.00,VWS V14.01,2013-03-20 02:05:00,
2013-03-19 21:06:00,69.1,56.8,30.03,SSW,196,0.0,0.0,65,0.00,,---,0.00,VWS V14.01,2013-03-20 02:06:00,
2013-03-19 21:07:00,69.1,56.8,30.03,South,191,0.0,0.0,65,0.00,,---,0.00,VWS V14.01,2013-03-20 02:07:00,
2013-03-19 21:08:00,70.9,54.9,30.03,SSW,209,2.7,3.6,57,0.00,,---,0.00,VWS V14.01,2013-03-20 02:08:00,
2013-03-19 21:09:00,69.1,56.4,30.03,South,171,0.0,0.0,64,0.00,,---,0.00,VWS V14.01,2013-03-20 02:09:00,
2013-03-19 21:10:00,69.1,56.4,30.03,South,170,0.0,0.0,64,0.00,,---,0.00,VWS V14.01,2013-03-20 02:10:00,
2013-03-19 21:11:00,68.9,56.2,30.03,SSW,202,0.0,0.0,64,0.00,,---,0.00,VWS V14.01,2013-03-20 02:11:00,
2013-03-19 21:12:00,68.9,56.2,30.03,SW,234,0.0,0.0,64,0.00,,---,0.00,VWS V14.01,2013-03-20 02:12:00,
2013-03-19 21:13:00,70.7,55.2,30.03,South,180,0.0,0.0,58,0.00,,---,0.00,VWS V14.01,2013-03-20 02:13:00,
2013-03-19 21:14:00,68.9,56.7,30.03,SW,234,0.0,0.0,65,0.00,,---,0.00,VWS V14.01,2013-03-20 02:14:00,
2013-03-19 21:15:00,68.7,56.1,30.03,SW,234,0.0,0.0,64,0.00,,---,0.00,VWS V14.01,2013-03-20 02:15:00,
2013-03-19 21:16:00,68.7,56.1,30.03,SW,234,0.0,0.0,64,0.00,,---,0.00,VWS V14.01,2013-03-20 02:16:00,
2013-03-19 21:17:00,68.7,56.1,30.03,WSW,253,0.0,0.0,64,0.00,,---,0.00,VWS V14.01,2013-03-20 02:17:00,
2013-03-19 21:18:00,70.3,55.3,30.03,SSW,205,0.0,0.0,59,0.00,,---,0.00,VWS V14.01,2013-03-20 02:18:00,
2013-03-19 21:19:00,68.7,56.1,30.03,West,280,0.0,0.0,64,0.00,,---,0.00,VWS V14.01,2013-03-20 02:19:00,
2013-03-19 21:20:00,68.5,55.9,30.03,West,280,0.0,0.0,64,0.00,,---,0.00,VWS V14.01,2013-03-20 02:20:00,
2013-03-19 21:21:00,68.5,56.3,30.03,NW,310,0.0,0.0,65,0.00,,---,0.00,VWS V14.01,2013-03-20 02:21:00,
2013-03-19 21:22:00,68.5,56.3,30.03,NW,310,0.0,0.0,65,0.00,,---,0.00,VWS V14.01,2013-03-20 02:22:00,
2013-03-19 21:23:00,70.2,55.6,30.03,South,182,0.0,0.0,60,0.00,,---,0.00,VWS V14.01,2013-03-20 02:23:00,
2013-03-19 21:24:00,68.5,56.3,30.03,NW,310,0.0,0.0,65,0.00,,---,0.00,VWS V14.01,2013-03-20 02:24:00,
2013-03-19 21:25:00,68.5,56.3,30.03,NW,310,0.0,0.0,65,0.00,,---,0.00,VWS V14.01,2013-03-20 02:25:00,
2013-03-19 21:26:00,68.5,56.3,30.03,NW,310,0.0,0.0,65,0.00,,---,0.00,VWS V14.01,2013-03-20 02:26:00,
2013-03-19 21:27:00,68.5,56.3,30.03,NW,310,0.0,0.0,65,0.00,,---,0.00,VWS V14.01,2013-03-20 02:27:00,
2013-03-19 21:28:00,70.0,55.9,30.03,South,178,2.7,2.7,61,0.00,,---,0.00,VWS V14.01,2013-03-20 02:28:00,
2013-03-19 21:29:00,68.5,56.3,30.03,NW,310,0.0,0.0,65,0.00,,---,0.00,VWS V14.01,2013-03-20 02:29:00,
2013-03-19 21:30:00,68.5,56.3,30.06,NW,310,0.0,0.0,65,0.00,,---,0.00,VWS V14.01,2013-03-20 02:30:00,
2013-03-19 21:31:00,68.5,56.3,30.06,NW,310,0.0,0.0,65,0.00,,---,0.00,VWS V14.01,2013-03-20 02:31:00,
2013-03-19 21:32:00,68.5,56.3,30.06,NW,310,0.0,0.0,65,0.00,,---,0.00,VWS V14.01,2013-03-20 02:32:00,
2013-03-19 21:33:00,69.8,56.2,30.03,South,181,0.0,0.0,62,0.00,,---,0.00,VWS V14.01,2013-03-20 02:33:00,
2013-03-19 21:34:00,68.5,55.9,30.06,NW,310,0.0,0.0,64,0.00,,---,0.00,VWS V14.01,2013-03-20 02:34:00,
2013-03-19 21:35:00,68.5,55.9,30.06,NW,310,0.0,0.0,64,0.00,,---,0.00,VWS V14.01,2013-03-20 02:35:00,
2013-03-19 21:36:00,68.5,55.9,30.06,NW,310,0.0,0.0,64,0.00,,---,0.00,VWS V14.01,2013-03-20 02:36:00,
2013-03-19 21:37:00,68.5,55.9,30.06,NW,310,0.0,0.0,64,0.00,,---,0.00,VWS V14.01,2013-03-20 02:37:00,
2013-03-19 21:38:00,69.6,56.5,30.03,South,189,0.0,0.0,63,0.00,,---,0.00,VWS V14.01,2013-03-20 02:38:00,
2013-03-19 21:39:00,68.5,55.9,30.06,NW,310,0.0,0.0,64,0.00,,---,0.00,VWS V14.01,2013-03-20 02:39:00,
2013-03-19 21:40:00,68.4,55.7,30.06,NW,310,0.0,0.0,64,0.00,,---,0.00,VWS V14.01,2013-03-20 02:40:00,
2013-03-19 21:41:00,68.4,55.7,30.06,NW,310,0.0,0.0,64,0.00,,---,0.00,VWS V14.01,2013-03-20 02:41:00,
2013-03-19 21:42:00,68.4,55.7,30.06,WNW,300,0.0,0.0,64,0.00,,---,0.00,VWS V14.01,2013-03-20 02:42:00,
2013-03-19 21:43:00,69.4,56.8,30.03,South,172,0.0,0.0,64,0.00,,---,0.00,VWS V14.01,2013-03-20 02:43:00,
2013-03-19 21:44:00,68.2,55.1,30.06,South,177,0.0,0.0,63,0.00,,---,0.00,VWS V14.01,2013-03-20 02:44:00,
2013-03-19 21:45:00,68.2,55.1,30.03,South,177,0.0,0.0,63,0.00,,---,0.00,VWS V14.01,2013-03-20 02:45:00,
2013-03-19 21:46:00,68.2,55.1,30.03,South,177,0.0,0.0,63,0.00,,---,0.00,VWS V14.01,2013-03-20 02:46:00,
2013-03-19 21:47:00,68.2,55.1,30.03,South,177,0.0,0.0,63,0.00,,---,0.00,VWS V14.01,2013-03-20 02:47:00,
2013-03-19 21:48:00,69.4,56.8,30.03,South,174,0.0,0.0,64,0.00,,---,0.00,VWS V14.01,2013-03-20 02:48:00,
2013-03-19 21:49:00,68.2,55.1,30.03,South,177,0.0,0.0,63,0.00,,---,0.00,VWS V14.01,2013-03-20 02:49:00,
2013-03-19 21:50:00,68.0,55.0,30.03,South,177,0.0,0.0,63,0.00,,---,0.00,VWS V14.01,2013-03-20 02:50:00,
2013-03-19 21:51:00,68.0,55.0,30.03,South,177,0.0,0.0,63,0.00,,---,0.00,VWS V14.01,2013-03-20 02:51:00,
2013-03-19 21:52:00,68.0,55.0,30.03,South,189,0.0,0.0,63,0.00,,---,0.00,VWS V14.01,2013-03-20 02:52:00,
2013-03-19 21:53:00,69.3,57.0,30.03,South,188,0.0,0.0,65,0.00,,---,0.00,VWS V14.01,2013-03-20 02:53:00,
2013-03-19 21:54:00,68.0,54.1,30.03,South,189,0.0,0.0,61,0.00,,---,0.00,VWS V14.01,2013-03-20 02:54:00,
2013-03-19 21:55:00,68.0,54.1,30.03,South,189,0.0,0.0,61,0.00,,---,0.00,VWS V14.01,2013-03-20 02:55:00,
2013-03-19 21:56:00,67.8,53.4,30.03,South,183,0.0,0.0,60,0.00,,---,0.00,VWS V14.01,2013-03-20 02:56:00,
2013-03-19 21:57:00,67.8,53.0,30.03,South,183,0.0,0.0,59,0.00,,---,0.00,VWS V14.01,2013-03-20 02:57:00,
2013-03-19 21:58:00,69.1,56.8,30.03,SSW,192,2.2,3.6,65,0.00,,---,0.00,VWS V14.01,2013-03-20 02:58:00,
2013-03-19 21:59:00,67.8,52.0,30.03,South,183,0.0,0.0,57,0.00,,---,0.00,VWS V14.01,2013-03-20 02:59:00,
2013-03-19 22:00:00,67.8,52.0,30.03,South,183,0.0,0.0,57,0.00,,---,0.00,VWS V14.01,2013-03-20 03:00:00,
2013-03-19 22:01:00,67.6,51.4,30.03,South,183,0.0,0.0,56,0.00,,---,0.00,VWS V14.01,2013-03-20 03:01:00,
2013-03-19 22:02:00,67.6,51.4,30.03,South,183,0.0,0.0,56,0.00,,---,0.00,VWS V14.01,2013-03-20 03:02:00,
2013-03-19 22:03:00,69.1,56.8,30.03,SSW,203,0.0,0.0,65,0.00,,---,0.00,VWS V14.01,2013-03-20 03:03:00,
2013-03-19 22:04:00,67.5,50.8,30.03,South,183,0.0,0.0,55,0.00,,---,0.00,VWS V14.01,2013-03-20 03:04:00,
2013-03-19 22:05:00,67.5,50.2,30.03,South,183,0.0,0.0,54,0.00,,---,0.00,VWS V14.01,2013-03-20 03:05:00,
2013-03-19 22:06:00,67.5,50.2,30.03,South,183,0.0,0.0,54,0.00,,---,0.00,VWS V14.01,2013-03-20 03:06:00,
2013-03-19 22:07:00,67.5,50.8,30.03,South,183,0.0,0.0,55,0.00,,---,0.00,VWS V14.01,2013-03-20 03:07:00,
2013-03-19 22:08:00,69.1,56.8,30.03,South,171,0.0,0.0,65,0.00,,---,0.00,VWS V14.01,2013-03-20 03:08:00,
2013-03-19 22:09:00,67.3,50.6,30.03,South,183,0.0,0.0,55,0.00,,---,0.00,VWS V14.01,2013-03-20 03:09:00,
2013-03-19 22:10:00,67.1,49.9,30.03,South,183,0.0,0.0,54,0.00,,---,0.00,VWS V14.01,2013-03-20 03:10:00,
2013-03-19 22:11:00,67.1,49.9,30.03,South,183,0.0,0.0,54,0.00,,---,0.00,VWS V14.01,2013-03-20 03:11:00,
2013-03-19 22:12:00,67.1,49.4,30.03,South,183,0.0,0.0,53,0.00,,---,0.00,VWS V14.01,2013-03-20 03:12:00,
2013-03-19 22:13:00,68.9,56.7,30.03,SW,234,0.0,0.0,65,0.00,,---,0.00,VWS V14.01,2013-03-20 03:13:00,
2013-03-19 22:14:00,66.9,49.2,30.03,South,183,0.0,0.0,53,0.00,,---,0.00,VWS V14.01,2013-03-20 03:14:00,
2013-03-19 22:15:00,66.9,48.7,30.06,South,183,0.0,0.0,52,0.00,,---,0.00,VWS V14.01,2013-03-20 03:15:00,
2013-03-19 22:16:00,66.9,48.7,30.06,South,183,0.0,0.0,52,0.00,,---,0.00,VWS V14.01,2013-03-20 03:16:00,
2013-03-19 22:17:00,66.9,48.7,30.06,South,183,0.0,0.0,52,0.00,,---,0.00,VWS V14.01,2013-03-20 03:17:00,
2013-03-19 22:18:00,68.7,56.1,30.03,West,280,0.0,0.0,64,0.00,,---,0.00,VWS V14.01,2013-03-20 03:18:00,
2013-03-19 22:19:00,66.7,48.1,30.06,South,183,0.0,0.0,51,0.00,,---,0.00,VWS V14.01,2013-03-20 03:19:00,
2013-03-19 22:20:00,66.7,48.1,30.06,South,183,0.0,0.0,51,0.00,,---,0.00,VWS V14.01,2013-03-20 03:20:00,
2013-03-19 22:21:00,66.6,47.4,30.06,South,183,0.0,0.0,50,0.00,,---,0.00,VWS V14.01,2013-03-20 03:21:00,
2013-03-19 22:22:00,66.6,47.4,30.06,South,183,0.0,0.0,50,0.00,,---,0.00,VWS V14.01,2013-03-20 03:22:00,
2013-03-19 22:23:00,68.5,56.3,30.03,NW,310,0.0,0.0,65,0.00,,---,0.00,VWS V14.01,2013-03-20 03:23:00,
2013-03-19 22:24:00,66.6,46.8,30.06,South,183,0.0,0.0,49,0.00,,---,0.00,VWS V14.01,2013-03-20 03:24:00,
2013-03-19 22:25:00,66.6,46.8,30.06,South,183,0.0,0.0,49,0.00,,---,0.00,VWS V14.01,2013-03-20 03:25:00,
2013-03-19 22:26:00,66.6,46.8,30.06,South,183,0.0,0.0,49,0.00,,---,0.00,VWS V14.01,2013-03-20 03:26:00,
2013-03-19 22:27:00,66.4,46.7,30.06,South,183,0.0,0.0,49,0.00,,---,0.00,VWS V14.01,2013-03-20 03:27:00,
2013-03-19 22:28:00,68.5,56.3,30.03,NW,310,0.0,0.0,65,0.00,,---,0.00,VWS V14.01,2013-03-20 03:28:00,
2013-03-19 22:29:00,66.4,46.7,30.03,South,183,0.0,0.0,49,0.00,,---,0.00,VWS V14.01,2013-03-20 03:29:00,
2013-03-19 22:30:00,66.4,46.1,30.03,South,183,0.0,0.0,48,0.00,,---,0.00,VWS V14.01,2013-03-20 03:30:00,
2013-03-19 22:31:00,66.4,46.1,30.03,South,183,0.0,0.0,48,0.00,,---,0.00,VWS V14.01,2013-03-20 03:31:00,
2013-03-19 22:32:00,66.4,46.1,30.03,South,183,0.0,0.0,48,0.00,,---,0.00,VWS V14.01,2013-03-20 03:32:00,
2013-03-19 22:33:00,68.5,55.9,30.06,NW,310,0.0,0.0,64,0.00,,---,0.00,VWS V14.01,2013-03-20 03:33:00,
2013-03-19 22:34:00,66.4,45.6,30.03,South,183,0.0,0.0,47,0.00,,---,0.00,VWS V14.01,2013-03-20 03:34:00,
2013-03-19 22:35:00,66.4,45.6,30.03,South,183,0.0,0.0,47,0.00,,---,0.00,VWS V14.01,2013-03-20 03:35:00,
2013-03-19 22:36:00,66.4,45.6,30.03,South,183,0.0,0.0,47,0.00,,---,0.00,VWS V14.01,2013-03-20 03:36:00,
2013-03-19 22:37:00,66.4,45.6,30.03,South,183,0.0,0.0,47,0.00,,---,0.00,VWS V14.01,2013-03-20 03:37:00,
2013-03-19 22:38:00,68.5,55.9,30.06,NW,310,0.0,0.0,64,0.00,,---,0.00,VWS V14.01,2013-03-20 03:38:00,
2013-03-19 22:39:00,66.4,45.6,30.03,South,183,0.0,0.0,47,0.00,,---,0.00,VWS V14.01,2013-03-20 03:39:00,
2013-03-19 22:40:00,66.2,45.4,30.03,South,183,0.0,0.0,47,0.00,,---,0.00,VWS V14.01,2013-03-20 03:40:00,
2013-03-19 22:41:00,66.2,45.4,30.03,South,183,0.0,0.0,47,0.00,,---,0.00,VWS V14.01,2013-03-20 03:41:00,
2013-03-19 22:42:00,66.2,45.4,30.03,South,183,0.0,0.0,47,0.00,,---,0.00,VWS V14.01,2013-03-20 03:42:00,
2013-03-19 22:43:00,68.2,55.1,30.06,South,177,0.0,0.0,63,0.00,,---,0.00,VWS V14.01,2013-03-20 03:43:00,
2013-03-19 22:44:00,66.4,45.6,30.03,South,183,0.0,0.0,47,0.00,,---,0.00,VWS V14.01,2013-03-20 03:44:00,
2013-03-19 22:45:00,66.4,45.6,30.06,South,183,0.0,0.0,47,0.00,,---,0.00,VWS V14.01,2013-03-20 03:45:00,
2013-03-19 22:46:00,66.4,45.0,30.06,South,183,0.0,0.0,46,0.00,,---,0.00,VWS V14.01,2013-03-20 03:46:00,
2013-03-19 22:47:00,66.4,45.0,30.06,South,183,0.0,0.0,46,0.00,,---,0.00,VWS V14.01,2013-03-20 03:47:00,
2013-03-19 22:48:00,68.2,55.1,30.03,South,177,0.0,0.0,63,0.00,,---,0.00,VWS V14.01,2013-03-20 03:48:00,
2013-03-19 22:49:00,66.4,45.0,30.06,South,183,0.0,0.0,46,0.00,,---,0.00,VWS V14.01,2013-03-20 03:49:00,
2013-03-19 22:50:00,66.4,45.0,30.06,South,183,0.0,0.0,46,0.00,,---,0.00,VWS V14.01,2013-03-20 03:50:00,
2013-03-19 22:51:00,66.2,44.8,30.06,South,183,0.0,0.0,46,0.00,,---,0.00,VWS V14.01,2013-03-20 03:51:00,
2013-03-19 22:52:00,66.2,44.8,30.06,South,183,0.0,0.0,46,0.00,,---,0.00,VWS V14.01,2013-03-20 03:52:00,
2013-03-19 22:53:00,68.0,54.1,30.03,South,189,0.0,0.0,61,0.00,,---,0.00,VWS V14.01,2013-03-20 03:53:00,
2013-03-19 22:54:00,66.2,44.8,30.06,South,183,0.0,0.0,46,0.00,,---,0.00,VWS V14.01,2013-03-20 03:54:00,
2013-03-19 22:55:00,66.2,44.8,30.06,South,183,0.0,0.0,46,0.00,,---,0.00,VWS V14.01,2013-03-20 03:55:00,
2013-03-19 22:56:00,66.2,44.8,30.06,South,183,0.0,0.0,46,0.00,,---,0.00,VWS V14.01,2013-03-20 03:56:00,
2013-03-19 22:57:00,66.2,44.8,30.06,South,183,0.0,0.0,46,0.00,,---,0.00,VWS V14.01,2013-03-20 03:57:00,
2013-03-19 22:58:00,67.8,52.5,30.03,South,183,0.0,0.0,58,0.00,,---,0.00,VWS V14.01,2013-03-20 03:58:00,
2013-03-19 22:59:00,66.0,44.7,30.06,South,183,0.0,0.0,46,0.00,,---,0.00,VWS V14.01,2013-03-20 03:59:00,
2013-03-19 23:00:00,66.0,44.7,30.06,South,170,0.0,0.0,46,0.00,,---,0.00,VWS V14.01,2013-03-20 04:00:00,
2013-03-19 23:01:00,66.0,44.7,30.06,South,170,0.0,0.0,46,0.00,,---,0.00,VWS V14.01,2013-03-20 04:01:00,
2013-03-19 23:02:00,67.6,51.4,30.03,South,183,0.0,0.0,56,0.00,,---,0.00,VWS V14.01,2013-03-20 04:02:00,
2013-03-19 23:03:00,65.8,44.5,30.06,NE,55,0.0,0.0,46,0.00,,---,0.00,VWS V14.01,2013-03-20 04:03:00,
2013-03-19 23:04:00,65.8,44.5,30.06,NE,55,0.0,0.0,46,0.00,,---,0.00,VWS V14.01,2013-03-20 04:04:00,
2013-03-19 23:05:00,65.8,43.9,30.06,East,83,0.0,0.0,45,0.00,,---,0.00,VWS V14.01,2013-03-20 04:05:00,
2013-03-19 23:06:00,65.8,43.9,30.06,ENE,57,2.2,3.6,45,0.00,,---,0.00,VWS V14.01,2013-03-20 04:06:00,
2013-03-19 23:07:00,67.3,50.6,30.03,South,183,0.0,0.0,55,0.00,,---,0.00,VWS V14.01,2013-03-20 04:07:00,
2013-03-19 23:08:00,65.8,43.9,30.06,ENE,57,0.0,0.0,45,0.00,,---,0.00,VWS V14.01,2013-03-20 04:08:00,
2013-03-19 23:09:00,65.7,43.8,30.06,ENE,57,0.0,0.0,45,0.00,,---,0.00,VWS V14.01,2013-03-20 04:09:00,
2013-03-19 23:10:00,65.7,43.2,30.06,ENE,57,0.0,0.0,44,0.00,,---,0.00,VWS V14.01,2013-03-20 04:10:00,
2013-03-19 23:11:00,65.7,43.2,30.06,ENE,75,0.0,0.0,44,0.00,,---,0.00,VWS V14.01,2013-03-20 04:11:00,
2013-03-19 23:12:00,66.9,49.2,30.03,South,183,0.0,0.0,53,0.00,,---,0.00,VWS V14.01,2013-03-20 04:12:00,
2013-03-19 23:13:00,65.7,43.2,30.06,ENE,77,0.0,0.0,44,0.00,,---,0.00,VWS V14.01,2013-03-20 04:13:00,
2013-03-19 23:14:00,65.7,43.2,30.06,ENE,77,0.0,0.0,44,0.00,,---,0.00,VWS V14.01,2013-03-20 04:14:00,
2013-03-19 23:15:00,65.7,43.2,30.03,ENE,77,0.0,0.0,44,0.00,,---,0.00,VWS V14.01,2013-03-20 04:15:00,
2013-03-19 23:16:00,65.7,43.2,30.03,ESE,113,0.0,2.7,44,0.00,,---,0.00,VWS V14.01,2013-03-20 04:16:00,
2013-03-19 23:17:00,66.7,48.6,30.06,South,183,0.0,0.0,52,0.00,,---,0.00,VWS V14.01,2013-03-20 04:17:00,
2013-03-19 23:18:00,65.5,42.4,30.03,NE,56,0.0,0.0,43,0.00,,---,0.00,VWS V14.01,2013-03-20 04:18:00,
2013-03-19 23:19:00,65.5,42.4,30.03,East,96,2.7,2.7,43,0.00,,---,0.00,VWS V14.01,2013-03-20 04:19:00,
2013-03-19 23:20:00,65.5,42.4,30.03,East,96,0.0,2.7,43,0.00,,---,0.00,VWS V14.01,2013-03-20 04:20:00,
2013-03-19 23:21:00,65.5,42.4,30.03,East,96,0.0,0.0,43,0.00,,---,0.00,VWS V14.01,2013-03-20 04:21:00,
2013-03-19 23:22:00,66.6,47.4,30.06,South,183,0.0,0.0,50,0.00,,---,0.00,VWS V14.01,2013-03-20 04:22:00,
2013-03-19 23:23:00,65.5,41.8,30.03,NE,51,0.0,3.1,42,0.00,,---,0.00,VWS V14.01,2013-03-20 04:23:00,
2013-03-19 23:24:00,65.5,41.8,30.03,NE,51,0.0,0.0,42,0.00,,---,0.00,VWS V14.01,2013-03-20 04:24:00,
2013-03-19 23:25:00,65.5,41.8,30.03,NE,51,0.0,0.0,42,0.00,,---,0.00,VWS V14.01,2013-03-20 04:25:00,
2013-03-19 23:26:00,65.3,41.6,30.03,NE,51,0.0,0.0,42,0.00,,---,0.00,VWS V14.01,2013-03-20 04:26:00,
2013-03-19 23:27:00,66.4,46.7,30.06,South,183,0.0,0.0,49,0.00,,---,0.00,VWS V14.01,2013-03-20 04:27:00,
2013-03-19 23:28:00,65.3,41.6,30.03,NE,51,0.0,0.0,42,0.00,,---,0.00,VWS V14.01,2013-03-20 04:28:00,
2013-03-19 23:29:00,65.3,41.6,30.03,NE,51,0.0,0.0,42,0.00,,---,0.00,VWS V14.01,2013-03-20 04:29:00,
2013-03-19 23:30:00,65.3,41.6,30.06,NE,51,0.0,0.0,42,0.00,,---,0.00,VWS V14.01,2013-03-20 04:30:00,
2013-03-19 23:31:00,65.3,41.6,30.06,NE,51,0.0,0.0,42,0.00,,---,0.00,VWS V14.01,2013-03-20 04:31:00,
2013-03-19 23:32:00,66.4,46.1,30.03,South,183,0.0,0.0,48,0.00,,---,0.00,VWS V14.01,2013-03-20 04:32:00,
2013-03-19 23:33:00,65.1,40.9,30.06,ENE,59,0.0,0.0,41,0.00,,---,0.00,VWS V14.01,2013-03-20 04:33:00,
2013-03-19 23:34:00,65.1,40.9,30.06,ENE,62,2.7,3.1,41,0.00,,---,0.00,VWS V14.01,2013-03-20 04:34:00,
2013-03-19 23:35:00,65.1,40.9,30.06,ENE,68,0.0,3.6,41,0.00,,---,0.00,VWS V14.01,2013-03-20 04:35:00,
2013-03-19 23:36:00,65.1,40.9,30.06,ENE,77,0.0,2.2,41,0.00,,---,0.00,VWS V14.01,2013-03-20 04:36:00,
2013-03-19 23:37:00,66.4,45.6,30.03,South,183,0.0,0.0,47,0.00,,---,0.00,VWS V14.01,2013-03-20 04:37:00,
2013-03-19 23:38:00,65.1,40.2,30.06,East,86,0.0,0.0,40,0.00,,---,0.00,VWS V14.01,2013-03-20 04:38:00,
2013-03-19 23:39:00,65.1,40.2,30.06,East,86,0.0,0.0,40,0.00,,---,0.00,VWS V14.01,2013-03-20 04:39:00,
2013-03-19 23:40:00,65.1,40.2,30.06,ENE,75,0.0,0.0,40,0.00,,---,0.00,VWS V14.01,2013-03-20 04:40:00,
2013-03-19 23:41:00,65.1,40.2,30.06,ENE,62,2.7,2.7,40,0.00,,---,0.00,VWS V14.01,2013-03-20 04:41:00,
2013-03-19 23:42:00,66.2,45.4,30.03,South,183,0.0,0.0,47,0.00,,---,0.00,VWS V14.01,2013-03-20 04:42:00,
2013-03-19 23:43:00,64.9,40.1,30.06,ENE,62,0.0,0.0,40,0.00,,---,0.00,VWS V14.01,2013-03-20 04:43:00,
2013-03-19 23:44:00,64.9,40.1,30.06,East,83,0.0,0.0,40,0.00,,---,0.00,VWS V14.01,2013-03-20 04:44:00,
2013-03-19 23:45:00,64.9,40.1,30.06,NE,49,2.2,2.2,40,0.00,,---,0.00,VWS V14.01,2013-03-20 04:45:00,
2013-03-19 23:46:00,64.9,40.1,30.06,NE,49,0.0,2.2,40,0.00,,---,0.00,VWS V14.01,2013-03-20 04:46:00,
2013-03-19 23:47:00,66.4,45.0,30.06,South,183,0.0,0.0,46,0.00,,---,0.00,VWS V14.01,2013-03-20 04:47:00,
2013-03-19 23:48:00,64.9,39.4,30.06,NE,47,0.0,0.0,39,0.00,,---,0.00,VWS V14.01,2013-03-20 04:48:00,
2013-03-19 23:49:00,64.9,39.4,30.06,NE,47,0.0,0.0,39,0.00,,---,0.00,VWS V14.01,2013-03-20 04:49:00,
2013-03-19 23:50:00,64.9,39.4,30.06,NE,47,0.0,0.0,39,0.00,,---,0.00,VWS V14.01,2013-03-20 04:50:00,
2013-03-19 23:51:00,64.9,39.4,30.06,ENE,58,2.7,4.0,39,0.00,,---,0.00,VWS V14.01,2013-03-20 04:51:00,
2013-03-19 23:52:00,66.2,44.8,30.06,South,183,0.0,0.0,46,0.00,,---,0.00,VWS V14.01,2013-03-20 04:52:00,
2013-03-19 23:53:00,64.9,38.8,30.06,NE,49,0.0,0.0,38,0.00,,---,0.00,VWS V14.01,2013-03-20 04:53:00,
2013-03-19 23:54:00,64.9,38.8,30.06,NE,49,0.0,0.0,38,0.00,,---,0.00,VWS V14.01,2013-03-20 04:54:00,
2013-03-19 23:55:00,64.8,39.2,30.06,NE,49,0.0,0.0,39,0.00,,---,0.00,VWS V14.01,2013-03-20 04:55:00,
2013-03-19 23:56:00,64.8,38.6,30.06,NE,49,0.0,0.0,38,0.00,,---,0.00,VWS V14.01,2013-03-20 04:56:00,
2013-03-19 23:57:00,66.0,45.2,30.06,South,183,0.0,0.0,47,0.00,,---,0.00,VWS V14.01,2013-03-20 04:57:00,
2013-03-19 23:58:00,64.8,38.6,30.06,NE,49,0.0,0.0,38,0.00,,---,0.00,VWS V14.01,2013-03-20 04:58:00,
2013-03-19 23:59:00,64.8,38.6,30.06,NE,49,0.0,0.0,38,0.00,,---,0.00,VWS V14.01,2013-03-20 04:59:00,